ftp/pub/palmer/observations_modified/2019/October/original_files/AR191016_BASE.txt

Download

Sample DateTime	Unit Id	WS Avg 2min	WD Avg 2min	WGS 10min	WGD 10min	Air Temp	Rel Humidity	Dew Point	Pyranometer	Quantum	Air Pressure	Snow Level	Rainfall	PW Current	Visibility	CBase 1	CBase 2	CBase 3	Vert Vis
2019/10/16 00:00:00	BASE	8.24	348	11.68	355	1.1	100	1.1	0	0	1002.3	NA	0.0000		9999	3510	0	0	0
2019/10/16 00:01:00	BASE	9.58	359	12.40	12	1.2	100	1.2	0	0	1002.3	NA	0.0000		9999	3540	0	0	0
2019/10/16 00:02:00	BASE	10.30	11	12.40	12	1.2	100	1.2	0	0	1002.3	NA	0.0000		9999	3250	0	0	0
2019/10/16 00:03:00	BASE	9.24	13	12.40	12	1.3	100	1.3	0	0	1002.3	NA	0.0000		9999	3480	0	0	0
2019/10/16 00:04:00	BASE	8.77	14	12.40	12	1.3	100	1.3	0	0	1002.2	NA	0.0000		9999	2990	0	0	0
2019/10/16 00:05:00	BASE	9.19	15	12.40	12	1.4	100	1.4	0	0	1002.2	NA	0.0000		9999	3580	0	0	0
2019/10/16 00:06:00	BASE	9.63	22	12.50	25	1.4	100	1.4	0	0	1002.1	NA	0.0000		9999	3510	0	0	0
2019/10/16 00:07:00	BASE	10.32	29	12.50	25	1.5	100	1.5	0	0	1002.0	NA	0.0000		9999	3540	0	0	0
2019/10/16 00:08:00	BASE	10.37	29	12.50	25	1.5	100	1.5	0	0	1002.0	NA	0.0000		9999	3080	0	0	0
2019/10/16 00:09:00	BASE	9.86	25	12.50	25	1.5	100	1.5	0	0	1002.0	NA	0.0000		9999	3450	0	0	0
2019/10/16 00:10:00	BASE	9.42	24	12.50	25	1.5	100	1.5	0	0	1002.0	NA	0.0000		9999	3450	0	0	0
2019/10/16 00:11:00	BASE	8.63	28	12.50	25	1.6	100	1.6	0	0	1001.9	NA	0.0000		9999	3280	0	0	0
2019/10/16 00:12:00	BASE	8.39	29	12.50	25	1.7	100	1.7	0	0	1001.8	NA	0.0000		9999	3410	0	0	0
2019/10/16 00:13:00	BASE	8.69	25	12.50	25	1.7	100	1.7	0	0	1001.8	NA	0.0000		9999	3350	0	0	0
2019/10/16 00:14:00	BASE	8.56	22	12.50	25	1.8	100	1.8	0	0	1001.9	NA	0.0000		9999	3380	0	0	0
2019/10/16 00:15:00	BASE	7.77	11	12.50	25	1.9	100	1.9	0	0	1001.9	NA	0.0000		9999	3310	0	0	0
2019/10/16 00:16:00	BASE	7.07	3	12.04	22	2.0	100	2.0	0	0	1002.0	NA	0.0000		9999	3310	3870	0	0
2019/10/16 00:17:00	BASE	7.13	3	11.21	21	2.0	100	2.0	0	0	1002.0	NA	0.0000		9999	3410	0	0	0
2019/10/16 00:18:00	BASE	7.27	350	11.21	21	2.1	100	2.1	0	0	1002.1	NA	0.0000		9999	3150	0	0	0
2019/10/16 00:19:00	BASE	8.78	345	11.78	1	2.1	100	2.1	0	0	1002.0	NA	0.0000		9999	3350	0	0	0
2019/10/16 00:20:00	BASE	11.08	352	12.86	338	2.1	100	2.1	0	0	1002.0	NA	0.0000		9999	3180	0	0	0
2019/10/16 00:21:00	BASE	10.93	348	12.86	338	2.2	100	2.2	0	0	1002.1	NA	0.0000		9999	3050	0	0	0
2019/10/16 00:22:00	BASE	9.96	342	12.86	338	2.2	100	2.2	0	0	1002.1	NA	0.0000		9999	2890	0	0	0
2019/10/16 00:23:00	BASE	9.89	344	12.86	338	2.1	100	2.1	0	0	1002.1	NA	0.0000		9999	2660	0	0	0
2019/10/16 00:24:00	BASE	9.90	347	12.86	338	2.1	100	2.1	0	0	1002.2	NA	0.0000		9999	3020	0	0	0
2019/10/16 00:25:00	BASE	10.42	347	12.86	338	2.0	100	2.0	0	0	1002.2	NA	0.0000		9999	3050	0	0	0
2019/10/16 00:26:00	BASE	10.75	348	12.86	338	2.0	100	2.0	0	0	1002.2	NA	0.0000		9999	3020	0	0	0
2019/10/16 00:27:00	BASE	10.16	342	12.86	338	2.0	100	2.0	0	0	1002.2	NA	0.0000		9999	2990	0	0	0
2019/10/16 00:28:00	BASE	9.91	334	12.86	338	2.0	100	2.0	0	0	1002.2	NA	0.0000		9999	2920	0	0	0
2019/10/16 00:29:00	BASE	10.34	336	12.86	338	2.0	100	2.0	0	0	1002.1	NA	0.0000		9999	2590	0	0	0
2019/10/16 00:30:00	BASE	10.87	337	11.78	334	1.9	100	1.9	0	0	1002.1	NA	0.0000		9999	2230	0	0	0
2019/10/16 00:31:00	BASE	10.97	338	11.78	341	1.8	100	1.8	0	0	1002.0	NA	0.0000		9999	2790	0	0	0
2019/10/16 00:32:00	BASE	10.70	339	11.78	341	1.8	100	1.8	0	0	1002.0	NA	0.0000		9999	4270	0	0	0
2019/10/16 00:33:00	BASE	10.20	339	11.78	341	1.7	100	1.7	0	0	1002.0	NA	0.0000		9999	4130	0	0	0
2019/10/16 00:34:00	BASE	10.34	338	11.78	341	1.7	100	1.7	0	0	1002.0	NA	0.0000		9999	4360	0	0	0
2019/10/16 00:35:00	BASE	10.78	340	11.78	341	1.6	100	1.6	0	0	1002.0	NA	0.0000		9999	2850	3670	0	0
2019/10/16 00:36:00	BASE	10.87	343	11.78	341	1.6	100	1.6	0	0	1002.0	NA	0.0000		9999	2760	3480	0	0
2019/10/16 00:37:00	BASE	11.02	344	11.78	341	1.5	100	1.5	0	0	1002.0	NA	0.0000		9999	2690	3410	0	0
2019/10/16 00:38:00	BASE	10.74	347	11.78	341	1.5	100	1.5	0	0	1002.0	NA	0.0000		9999	2620	3280	0	0
2019/10/16 00:39:00	BASE	10.67	351	11.88	1	1.5	100	1.5	0	0	1001.9	NA	0.0000		9999	2620	3180	0	0
2019/10/16 00:40:00	BASE	11.30	353	13.89	1	1.5	100	1.5	0	0	1001.9	NA	0.0000		9999	2590	0	0	0
2019/10/16 00:41:00	BASE	12.38	358	13.89	1	1.6	100	1.6	0	0	1001.8	NA	0.0000		9999	2590	0	0	0
2019/10/16 00:42:00	BASE	12.78	360	13.89	1	1.7	100	1.7	0	0	1001.8	NA	0.0000		9999	2490	3280	0	0
2019/10/16 00:43:00	BASE	12.59	359	13.89	1	1.7	100	1.7	0	0	1001.8	NA	0.0000		9999	2490	0	0	0
2019/10/16 00:44:00	BASE	12.60	3	13.89	1	1.8	100	1.8	0	0	1001.8	NA	0.0000		9999	2330	0	0	0
2019/10/16 00:45:00	BASE	12.21	3	13.89	1	1.8	100	1.8	0	0	1001.8	NA	0.0000		9999	2300	0	0	0
2019/10/16 00:46:00	BASE	12.04	0	13.89	1	1.8	100	1.8	0	0	1001.9	NA	0.0000		9999	2300	0	0	0
2019/10/16 00:47:00	BASE	12.41	359	13.89	1	1.8	100	1.8	0	0	1001.9	NA	0.0000		9999	2260	0	0	0
2019/10/16 00:48:00	BASE	12.68	359	14.35	1	1.9	100	1.9	0	0	1001.9	NA	0.0000		9999	2170	0	0	0
2019/10/16 00:49:00	BASE	12.07	360	14.35	1	1.9	100	1.9	0	0	1002.0	NA	0.0000		9999	2030	0	0	0
2019/10/16 00:50:00	BASE	11.27	357	14.35	1	1.9	100	1.9	0	0	1002.0	NA	0.0000		9999	1900	2760	0	0
2019/10/16 00:51:00	BASE	11.01	359	14.35	1	2.0	100	2.0	0	0	1002.1	NA	0.0000		9999	1770	2760	0	0
2019/10/16 00:52:00	BASE	10.57	357	14.35	1	2.0	100	2.0	0	0	1002.1	NA	0.0000		9999	1640	2720	0	0
2019/10/16 00:53:00	BASE	9.71	356	14.35	1	2.1	100	2.1	0	0	1002.1	NA	0.0000		9999	1510	0	0	0
2019/10/16 00:54:00	BASE	8.75	359	14.35	1	2.1	100	2.1	0	0	1002.1	NA	0.0000		9999	1540	0	0	0
2019/10/16 00:55:00	BASE	7.99	359	14.35	1	2.1	100	2.1	0	0	1002.1	NA	0.0000		9999	1350	2590	0	0
2019/10/16 00:56:00	BASE	7.70	354	14.35	1	2.2	100	2.2	0	0	1002.2	NA	0.0000		9999	1280	0	0	0
2019/10/16 00:57:00	BASE	7.30	348	14.35	1	2.2	100	2.2	0	0	1002.1	NA	0.0000		9999	1250	2430	0	0
2019/10/16 00:58:00	BASE	7.46	356	13.53	349	2.1	100	2.1	0	0	1002.1	NA	0.0000		9999	1210	0	0	0
2019/10/16 00:59:00	BASE	8.18	4	13.53	349	2.2	100	2.2	0	0	1002.1	NA	0.0000		9999	1210	0	0	0
2019/10/16 01:00:00	BASE	8.51	7	11.99	360	2.2	100	2.2	0	0	1002.0	NA	0.0000		9999	2300	0	0	0
2019/10/16 01:01:00	BASE	9.11	7	11.42	347	2.2	100	2.2	0	0	1002.0	NA	0.0000		9999	2300	0	0	0
2019/10/16 01:02:00	BASE	9.33	6	10.19	5	2.2	100	2.2	0	0	1002.0	NA	0.0000		9999	2330	0	0	0
2019/10/16 01:03:00	BASE	9.24	7	11.21	8	2.2	100	2.2	0	0	1002.0	NA	0.0000		9999	2330	0	0	0
2019/10/16 01:04:00	BASE	8.48	9	11.21	8	2.3	100	2.3	0	0	1001.9	NA	0.0000		9999	2300	0	0	0
2019/10/16 01:05:00	BASE	7.43	15	11.21	8	2.3	100	2.3	0	0	1001.8	NA	0.0000		9999	2200	0	0	0
2019/10/16 01:06:00	BASE	7.62	19	11.21	8	2.3	100	2.3	0	0	1001.8	NA	0.0000		9999	2170	0	0	0
2019/10/16 01:07:00	BASE	8.58	18	11.21	8	2.3	100	2.3	0	0	1001.8	NA	0.0000		9999	2170	0	0	0
2019/10/16 01:08:00	BASE	9.28	16	11.21	8	2.4	100	2.4	0	0	1001.8	NA	0.0000		9999	2200	0	0	0
2019/10/16 01:09:00	BASE	9.23	12	11.21	8	2.4	100	2.4	0	0	1001.7	NA	0.0000		9999	2170	0	0	0
2019/10/16 01:10:00	BASE	8.78	14	11.21	8	2.5	100	2.5	0	0	1001.7	NA	0.0000		9999	2130	0	0	0
2019/10/16 01:11:00	BASE	8.30	15	11.21	8	2.6	100	2.6	0	0	1001.7	NA	0.0000		9999	2100	0	0	0
2019/10/16 01:12:00	BASE	8.09	13	11.21	8	2.7	100	2.7	0	0	1001.7	NA	0.0000		9999	2030	0	0	0
2019/10/16 01:13:00	BASE	8.36	14	10.13	9	2.7	100	2.7	0	0	1001.7	NA	0.0000		9999	2070	0	0	0
2019/10/16 01:14:00	BASE	8.06	12	10.13	9	2.7	100	2.7	0	0	1001.7	NA	0.0000		9999	2000	0	0	0
2019/10/16 01:15:00	BASE	7.11	12	10.13	9	2.8	100	2.8	0	0	1001.7	NA	0.0000		9999	2000	0	0	0
2019/10/16 01:16:00	BASE	6.24	14	10.13	9	2.8	100	2.8	0	0	1001.7	NA	0.0000		9999	1970	0	0	0
2019/10/16 01:17:00	BASE	5.64	12	10.13	9	2.7	100	2.7	0	0	1001.7	NA	0.0000		9999	1940	0	0	0
2019/10/16 01:18:00	BASE	4.88	13	9.52	360	2.7	100	2.7	0	0	1001.7	NA	0.0000		9999	1900	0	0	0
2019/10/16 01:19:00	BASE	5.33	20	9.41	14	2.7	100	2.7	0	0	1001.7	NA	0.0000		9999	1870	0	0	0
2019/10/16 01:20:00	BASE	6.66	22	9.36	6	2.7	100	2.7	0	0	1001.7	NA	0.0000		9999	1800	0	0	0
2019/10/16 01:21:00	BASE	6.72	18	9.31	15	2.7	100	2.7	0	0	1001.7	NA	0.0000		9999	1710	0	0	0
2019/10/16 01:22:00	BASE	6.42	20	9.31	15	2.7	100	2.7	0	0	1001.7	NA	0.0000		9999	1570	0	0	0
2019/10/16 01:23:00	BASE	6.29	20	8.64	9	2.8	100	2.8	0	0	1001.7	NA	0.0000		9999	1540	0	0	0
2019/10/16 01:24:00	BASE	5.57	2	7.61	6	2.8	100	2.8	0	0	1001.7	NA	0.0000		9999	1540	0	0	0
2019/10/16 01:25:00	BASE	5.63	332	7.51	13	2.7	100	2.7	0	0	1001.7	NA	0.0000		9999	1440	0	0	0
2019/10/16 01:26:00	BASE	6.40	320	7.56	321	2.6	100	2.5	0	0	1001.6	NA	0.0000		9999	1310	0	0	0
2019/10/16 01:27:00	BASE	6.79	319	7.61	322	2.4	100	2.3	0	0	1001.6	NA	0.0000		9999	1480	0	0	0
2019/10/16 01:28:00	BASE	6.93	318	7.61	317	2.2	100	2.2	0	0	1001.6	NA	0.0000		9999	1380	0	0	0
2019/10/16 01:29:00	BASE	7.36	320	8.85	327	2.0	100	2.0	0	0	1001.6	NA	0.0000		9999	1310	0	0	0
2019/10/16 01:30:00	BASE	8.04	321	8.85	327	1.8	100	1.8	0	0	1001.6	NA	0.0000		9999	1310	0	0	0
2019/10/16 01:31:01	BASE	8.04	321	8.85	327	1.8	100	1.8	0	0	1001.6	NA	0.0000		9999	1350	0	0	0
2019/10/16 01:32:01	BASE	8.34	321	9.21	324	1.7	100	1.7	0	0	1001.6	NA	0.0000		9999	1350	0	0	0
2019/10/16 01:33:01	BASE	8.69	325	9.26	331	1.6	100	1.6	0	0	1001.5	NA	0.0000		9999	1380	0	0	0
2019/10/16 01:34:01	BASE	8.32	324	9.26	331	1.6	100	1.6	0	0	1001.5	NA	0.0000		9999	1710	0	0	0
2019/10/16 01:35:01	BASE	8.08	320	9.26	331	1.6	100	1.6	0	0	1001.5	NA	0.0000		9999	1410	0	0	0
2019/10/16 01:36:01	BASE	7.95	324	9.26	331	1.5	100	1.5	0	0	1001.5	NA	0.0000		9999	1350	0	0	0
2019/10/16 01:37:01	BASE	7.55	325	9.26	331	1.5	100	1.5	0	0	1001.5	NA	0.0000		9999	1250	0	0	0
2019/10/16 01:38:01	BASE	7.02	325	9.26	331	1.5	100	1.5	0	0	1001.5	NA	0.0000	UP	9999	430	2460	0	0
2019/10/16 01:39:01	BASE	6.87	327	9.26	331	1.4	100	1.4	0	0	1001.5	NA	0.0000	UP	9999	430	0	0	0
2019/10/16 01:40:01	BASE	7.16	327	9.26	331	1.4	100	1.4	0	0	1001.5	NA	0.0000	UP	9999	430	0	0	0
2019/10/16 01:41:01	BASE	6.98	326	9.26	331	1.4	100	1.4	0	0	1001.5	NA	0.0000	UP	9999	430	0	0	0
2019/10/16 01:42:01	BASE	6.49	326	9.26	331	1.4	100	1.4	0	0	1001.5	NA	0.0000	UP	9999	430	0	0	0
2019/10/16 01:43:01	BASE	6.29	325	9.05	318	1.4	100	1.4	0	0	1001.5	NA	0.0000	UP	9999	1610	0	0	0
2019/10/16 01:44:01	BASE	5.96	325	8.64	322	1.4	100	1.4	0	0	1001.5	NA	0.0000	UP	9999	460	0	0	0
2019/10/16 01:45:01	BASE	5.84	323	8.64	322	1.4	100	1.4	0	0	1001.5	NA	0.0000	UP	9999	1440	0	0	0
2019/10/16 01:46:01	BASE	5.72	319	7.92	323	1.4	100	1.4	0	0	1001.5	NA	0.0000	UP	9999	430	0	0	0
2019/10/16 01:47:01	BASE	4.97	315	7.77	326	1.4	100	1.4	0	0	1001.5	NA	0.0000	UP	9999	430	0	0	0
2019/10/16 01:48:01	BASE	4.99	314	7.77	326	1.4	100	1.4	0	0	1001.5	NA	0.0000	UP	9999	430	0	0	0
2019/10/16 01:49:01	BASE	5.62	314	7.41	324	1.4	100	1.4	0	0	1001.5	NA	0.0000	UP	9999	430	0	0	0
2019/10/16 01:50:01	BASE	5.86	312	7.15	325	1.3	100	1.3	0	0	1001.5	NA	0.0000	UP	9999	430	0	0	0
2019/10/16 01:51:01	BASE	5.92	309	6.84	323	1.3	100	1.3	0	0	1001.5	NA	0.0000	UP	9999	430	0	0	0
2019/10/16 01:52:01	BASE	5.98	310	6.84	323	1.3	100	1.3	0	0	1001.5	NA	0.0000	UP	9999	460	0	0	0
2019/10/16 01:53:01	BASE	5.63	315	6.38	309	1.2	100	1.2	0	0	1001.4	NA	0.0000	UP	9999	430	0	0	0
2019/10/16 01:54:01	BASE	5.16	317	6.38	309	1.2	100	1.2	0	0	1001.4	NA	0.0000	UP	9999	430	0	0	0
2019/10/16 01:55:01	BASE	4.83	316	6.38	309	1.2	100	1.2	0	0	1001.4	NA	0.0000	UP	9999	460	0	0	0
2019/10/16 01:56:01	BASE	5.03	316	6.38	309	1.2	100	1.2	0	0	1001.4	NA	0.0000	UP	9999	430	0	0	0
2019/10/16 01:57:01	BASE	5.55	317	6.38	309	1.2	100	1.2	0	0	1001.4	NA	0.0000	UP	9999	430	0	0	0
2019/10/16 01:58:01	BASE	5.30	320	6.38	309	1.2	100	1.2	0	0	1001.4	NA	0.0000	UP	9999	460	0	0	0
2019/10/16 01:59:01	BASE	4.88	322	6.38	309	1.2	100	1.2	0	0	1001.4	NA	0.0000	UP	9999	430	0	0	0
2019/10/16 02:00:01	BASE	4.66	320	6.38	309	1.2	100	1.2	0	0	1001.4	NA	0.0000	UP	9999	390	0	0	0
2019/10/16 02:01:01	BASE	4.23	315	6.38	309	1.2	100	1.2	0	0	1001.4	NA	0.0000	UP	9999	430	0	0	0
2019/10/16 02:02:01	BASE	3.88	314	5.92	318	1.2	100	1.2	0	0	1001.4	NA	0.0000	UP	9999	430	0	0	0
2019/10/16 02:03:01	BASE	3.65	309	5.92	318	1.2	100	1.2	0	0	1001.4	NA	0.0000	UP	9999	1210	0	0	0
2019/10/16 02:04:01	BASE	3.62	295	5.92	318	1.2	100	1.2	0	0	1001.4	NA	0.0000	UP	9999	460	0	0	0
2019/10/16 02:05:01	BASE	4.15	286	5.92	318	1.2	100	1.2	0	0	1001.4	NA	0.0000	UP	9999	390	0	0	0
2019/10/16 02:06:01	BASE	4.48	286	5.81	320	1.2	100	1.2	0	0	1001.4	NA	0.0000	UP	9999	390	0	0	0
2019/10/16 02:07:00	BASE	4.57	287	5.40	320	1.2	100	1.2	0	0	1001.4	NA	0.0000	UP	9999	430	0	0	0
2019/10/16 02:08:01	BASE	4.86	290	5.40	295	1.2	100	1.2	0	0	1001.4	NA	0.0000	UP	9999	390	0	0	0
2019/10/16 02:09:00	BASE	5.18	295	5.61	299	1.2	100	1.2	0	0	1001.4	NA	0.0000	UP	9999	430	0	0	0
2019/10/16 02:10:00	BASE	5.24	300	5.61	299	1.2	100	1.2	0	0	1001.4	NA	0.0000	UP	9999	1280	0	0	0
2019/10/16 02:11:00	BASE	4.98	303	5.61	299	1.2	100	1.2	0	0	1001.3	NA	0.0000	UP	9999	460	0	0	0
2019/10/16 02:12:01	BASE	4.93	303	5.61	299	1.2	100	1.2	0	0	1001.3	NA	0.0000	UP	9999	360	1150	0	0
2019/10/16 02:13:00	BASE	4.75	301	5.61	299	1.2	100	1.2	0	0	1001.3	NA	0.0000	UP	9999	430	0	0	0
2019/10/16 02:14:01	BASE	4.37	293	5.61	299	1.2	100	1.2	0	0	1001.3	NA	0.0000	UP	9999	390	1180	0	0
2019/10/16 02:15:00	BASE	3.49	276	5.61	299	1.2	100	1.2	0	0	1001.3	NA	0.0000	UP	9999	360	1180	0	0
2019/10/16 02:16:01	BASE	2.97	268	5.61	299	1.2	100	1.2	0	0	1001.3	NA	0.0000	UP	9999	430	1180	0	0
2019/10/16 02:17:00	BASE	4.04	271	6.12	267	1.2	100	1.2	0	0	1001.3	NA	0.0000	UP	9999	390	1180	0	0
2019/10/16 02:18:01	BASE	5.39	274	7.20	286	1.2	100	1.2	0	0	1001.3	NA	0.0000	UP	9999	430	0	0	0
2019/10/16 02:19:00	BASE	6.28	281	7.41	280	1.2	100	1.2	0	0	1001.4	NA	0.2540	UP	9999	430	0	0	0
2019/10/16 02:20:00	BASE	6.91	284	8.28	280	1.2	100	1.2	0	0	1001.4	NA	0.0000	UP	9999	430	0	0	0
2019/10/16 02:21:00	BASE	7.56	283	9.00	285	1.3	100	1.3	0	0	1001.4	NA	0.0000	UP	9999	360	1150	0	0
2019/10/16 02:22:00	BASE	8.12	284	9.47	284	1.3	100	1.3	0	0	1001.4	NA	0.0000	UP	9999	390	1120	0	0
2019/10/16 02:23:00	BASE	8.26	284	9.47	284	1.4	100	1.4	0	0	1001.4	NA	0.0000	UP	9999	390	0	0	0
2019/10/16 02:24:00	BASE	8.68	289	10.08	296	1.4	100	1.4	0	0	1001.4	NA	0.0000	UP	9999	360	0	0	0
2019/10/16 02:25:00	BASE	10.99	291	13.53	296	1.5	100	1.5	0	0	1001.4	NA	0.0000	UP	9999	430	0	0	0
2019/10/16 02:26:00	BASE	12.18	295	13.53	296	1.4	100	1.4	0	0	1001.3	NA	0.0000	UP	9999	390	0	0	0
2019/10/16 02:27:00	BASE	10.25	303	13.53	296	1.4	100	1.4	0	0	1001.4	NA	0.0000	UP	9999	1080	0	0	0
2019/10/16 02:28:00	BASE	8.18	304	13.53	296	1.3	100	1.3	0	0	1001.3	NA	0.0000	UP	9999	360	1210	0	0
2019/10/16 02:29:00	BASE	7.54	302	13.53	296	1.1	100	1.1	0	0	1001.3	NA	0.0000	UP	9999	360	0	0	0
2019/10/16 02:30:00	BASE	9.40	306	13.53	296	1.1	100	1.1	0	0	1001.3	NA	0.0000	UP	9999	390	0	0	0
2019/10/16 02:31:00	BASE	11.61	304	13.53	296	1.1	100	1.1	0	0	1001.2	NA	0.0000	UP	9999	390	0	0	0
2019/10/16 02:32:00	BASE	12.32	298	13.53	296	1.0	100	1.0	0	0	1001.1	NA	0.0000	UP	9999	390	0	0	0
2019/10/16 02:33:00	BASE	12.75	299	13.58	302	1.0	100	1.0	0	0	1001.1	NA	0.0000	UP	9999	430	0	0	0
2019/10/16 02:34:00	BASE	12.88	302	13.58	302	1.0	100	1.0	0	0	1001.1	NA	0.0000	UP	9999	1120	0	0	0
2019/10/16 02:35:00	BASE	13.15	305	14.51	306	1.0	100	1.0	0	0	1001.1	NA	0.0000	UP	9999	1050	0	0	0
2019/10/16 02:36:00	BASE	13.86	306	15.18	306	1.0	100	1.0	0	0	1001.1	NA	0.0000	UP	9999	980	0	0	0
2019/10/16 02:37:00	BASE	14.14	305	15.18	306	0.9	100	0.9	0	0	1001.1	NA	0.2540	UP	9999	0	0	0	2620
2019/10/16 02:38:00	BASE	14.52	307	16.20	308	1.0	100	1.0	0	0	1001.1	NA	0.0000	UP	9999	0	0	0	2990
2019/10/16 02:39:00	BASE	15.04	310	16.46	319	1.0	100	1.0	0	0	1001.1	NA	0.0000	UP	9999	920	0	0	0
2019/10/16 02:40:00	BASE	15.49	318	16.93	320	1.1	100	1.1	0	0	1001.1	NA	0.0000	UP	9999	1870	0	0	0
2019/10/16 02:41:00	BASE	15.90	326	17.08	320	1.1	100	1.1	0	0	1001.0	NA	0.0000	UP	9999	0	0	0	3610
2019/10/16 02:42:00	BASE	15.59	324	17.08	320	1.2	100	1.2	0	0	1001.1	NA	0.0000	UP	9999	360	0	0	0
2019/10/16 02:43:00	BASE	15.05	320	17.08	320	1.2	100	1.2	0	0	1001.1	NA	0.0000	UP	9999	430	0	0	0
2019/10/16 02:44:00	BASE	15.74	317	18.11	313	1.2	100	1.2	0	0	1001.1	NA	0.0000	UP	9999	590	0	0	0
2019/10/16 02:45:00	BASE	16.14	317	18.11	313	1.2	100	1.2	0	0	1001.1	NA	0.0000	UP	9999	0	0	0	3970
2019/10/16 02:46:00	BASE	16.11	318	19.34	314	1.2	100	1.2	0	0	1001.1	NA	0.0000	UP	9999	390	0	0	0
2019/10/16 02:47:00	BASE	16.84	320	19.91	320	1.1	100	1.1	0	0	1001.1	NA	0.0000	UP	9999	360	0	0	0
2019/10/16 02:48:00	BASE	17.41	323	19.91	320	1.1	100	1.1	0	0	1001.0	NA	0.0000	UP	9999	360	0	0	0
2019/10/16 02:49:00	BASE	17.25	324	19.91	320	1.1	100	1.1	0	0	1001.1	NA	0.0000	UP	9999	330	0	0	0
2019/10/16 02:50:00	BASE	15.52	324	19.91	320	1.1	100	1.1	0	0	1001.1	NA	0.0000	UP	9999	360	0	0	0
2019/10/16 02:51:00	BASE	14.02	323	19.91	320	1.1	100	1.1	0	0	1001.1	NA	0.0000	UP	9999	360	0	0	0
2019/10/16 02:52:00	BASE	16.19	324	21.92	327	1.1	100	1.1	0	0	1001.0	NA	0.0000	UP	9999	1570	0	0	0
2019/10/16 02:53:00	BASE	17.53	326	21.92	327	1.2	100	1.2	0	0	1001.1	NA	0.0000	UP	9999	0	0	0	2430
2019/10/16 02:54:00	BASE	18.06	324	22.94	326	1.2	100	1.2	0	0	1001.0	NA	0.0000	UP	9999	0	0	0	2920
2019/10/16 02:55:00	BASE	20.31	324	22.94	326	1.2	100	1.2	0	0	1000.9	NA	0.0000	UP	9999	0	0	0	2300
2019/10/16 02:56:00	BASE	21.61	329	23.66	333	1.2	100	1.2	0	0	1000.8	NA	0.0000	UP	9999	460	0	0	0
2019/10/16 02:57:00	BASE	23.21	334	25.72	337	1.3	100	1.3	0	0	1000.7	NA	0.0000	UP	9999	430	0	0	0
2019/10/16 02:58:00	BASE	23.46	335	25.72	337	1.3	100	1.3	0	0	1000.8	NA	0.0000	UP	9999	390	0	0	0
2019/10/16 02:59:00	BASE	23.37	337	25.72	337	1.3	100	1.3	0	0	1000.7	NA	0.0000	UP	9999	390	0	0	0
2019/10/16 03:00:00	BASE	22.91	338	25.72	337	1.4	100	1.4	0	0	1000.8	NA	0.0000	UP	9999	390	0	0	0
2019/10/16 03:01:00	BASE	21.42	342	25.72	337	1.4	100	1.4	0	0	1000.9	NA	0.0000	UP	9999	390	0	0	0
2019/10/16 03:02:00	BASE	21.03	346	25.72	337	1.4	100	1.4	0	0	1000.9	NA	0.0000	UP	9999	390	0	0	0
2019/10/16 03:03:00	BASE	21.12	348	25.72	337	1.4	100	1.4	0	0	1000.9	NA	0.0000	UP	9999	390	0	0	0
2019/10/16 03:04:00	BASE	21.33	347	25.72	337	1.4	100	1.4	0	0	1000.9	NA	0.2540	UP	9999	360	0	0	0
2019/10/16 03:05:00	BASE	20.35	346	25.72	337	1.5	100	1.5	0	0	1001.0	NA	0.0000	UP	9999	360	0	0	0
2019/10/16 03:06:00	BASE	19.06	349	25.72	337	1.5	100	1.5	0	0	1001.0	NA	0.0000	UP	9999	390	0	0	0
2019/10/16 03:07:00	BASE	19.13	347	25.62	339	1.5	100	1.5	0	0	1001.0	NA	0.0000	UP	9999	390	0	0	0
2019/10/16 03:08:00	BASE	18.73	346	25.62	339	1.5	100	1.5	0	0	1001.0	NA	0.0000	UP	9999	360	0	0	0
2019/10/16 03:09:00	BASE	18.26	349	23.82	352	1.5	100	1.5	0	0	1001.0	NA	0.0000	UP	9999	300	0	0	0
2019/10/16 03:10:00	BASE	18.95	350	23.82	352	1.4	100	1.4	0	0	1000.9	NA	0.0000	UP	9999	300	0	0	0
2019/10/16 03:11:00	BASE	19.27	349	23.82	352	1.4	100	1.4	0	0	1001.0	NA	0.0000	UP	9999	300	0	0	0
2019/10/16 03:12:00	BASE	18.43	346	23.82	352	1.4	100	1.4	0	0	1001.0	NA	0.0000	UP	9999	330	0	0	0
2019/10/16 03:13:00	BASE	17.22	344	23.20	349	1.4	100	1.4	0	0	1001.1	NA	0.0000	UP	9999	360	0	0	0
2019/10/16 03:14:00	BASE	16.80	341	22.17	346	1.3	100	1.3	0	0	1001.1	NA	0.0000	UP	9999	360	0	0	0
2019/10/16 03:15:00	BASE	16.29	339	22.17	346	1.3	100	1.3	0	0	1001.1	NA	0.2540	UP	9999	0	0	0	2620
2019/10/16 03:16:00	BASE	14.98	340	22.17	346	1.3	100	1.3	0	0	1001.1	NA	0.0000	UP	9999	0	0	0	2530
2019/10/16 03:17:00	BASE	13.62	342	22.17	346	1.2	100	1.2	0	0	1001.1	NA	0.0000	UP	9999	330	0	0	0
2019/10/16 03:18:00	BASE	12.83	344	22.17	346	1.2	100	1.2	0	0	1001.1	NA	0.0000		9999	390	0	0	0
2019/10/16 03:19:00	BASE	14.38	349	22.17	346	1.2	100	1.2	0	0	1001.0	NA	0.0000		9999	390	0	0	0
2019/10/16 03:20:00	BASE	15.74	348	22.17	346	1.2	100	1.2	0	0	1001.0	NA	0.0000	UP	9999	390	0	0	0
2019/10/16 03:21:00	BASE	15.87	345	19.91	352	1.2	100	1.2	0	0	1001.0	NA	0.0000	UP	9999	360	0	0	0
2019/10/16 03:22:00	BASE	15.90	349	19.09	342	1.3	100	1.3	0	0	1001.0	NA	0.0000	UP	9999	390	0	0	0
2019/10/16 03:23:00	BASE	15.39	352	19.09	342	1.3	100	1.3	0	0	1001.0	NA	0.0000	UP	9999	0	0	0	2620
2019/10/16 03:24:00	BASE	15.03	349	17.85	351	1.4	100	1.4	0	0	1001.0	NA	0.0000	UP	9999	390	0	0	0
2019/10/16 03:25:00	BASE	14.62	349	17.85	351	1.4	100	1.4	0	0	1001.0	NA	0.0000	UP	9999	360	0	0	0
2019/10/16 03:26:00	BASE	14.04	347	17.85	351	1.4	100	1.4	0	0	1001.0	NA	0.0000	UP	9999	360	0	0	0
2019/10/16 03:27:00	BASE	13.99	346	17.85	351	1.4	100	1.4	0	0	1001.0	NA	0.0000	UP	9999	360	0	0	0
2019/10/16 03:28:01	BASE	14.38	348	17.85	351	1.4	100	1.4	0	0	1001.0	NA	0.0000	UP	9999	360	0	0	0
2019/10/16 03:29:00	BASE	15.50	347	18.31	347	1.4	100	1.4	0	0	1001.0	NA	0.2540	UP	9999	360	0	0	0
2019/10/16 03:30:01	BASE	15.89	349	18.31	347	1.4	100	1.4	0	0	1001.0	NA	0.0000	UP	9999	330	0	0	0
2019/10/16 03:31:00	BASE	16.39	349	18.47	349	1.4	100	1.4	0	0	1001.0	NA	0.0000	UP	9999	0	0	0	2430
2019/10/16 03:32:00	BASE	16.69	346	18.47	349	1.4	100	1.4	0	0	1001.0	NA	0.0000	UP	9999	330	0	0	0
2019/10/16 03:33:00	BASE	15.68	346	18.47	349	1.4	100	1.4	0	0	1001.0	NA	0.0000	UP	9999	360	0	0	0
2019/10/16 03:34:00	BASE	15.80	347	18.47	349	1.4	100	1.4	0	0	1001.0	NA	0.0000	UP	9999	330	0	0	0
2019/10/16 03:35:00	BASE	15.34	346	18.47	349	1.4	100	1.4	0	0	1001.0	NA	0.0000	UP	9999	330	0	0	0
2019/10/16 03:36:00	BASE	14.01	344	18.47	349	1.4	100	1.4	0	0	1001.1	NA	0.0000	UP	9999	360	0	0	0
2019/10/16 03:37:00	BASE	14.34	345	18.47	349	1.3	100	1.3	0	0	1001.0	NA	0.0000	UP	9999	360	0	0	0
2019/10/16 03:38:01	BASE	14.71	348	18.47	349	1.3	100	1.3	0	0	1001.0	NA	0.0000	UP	9999	330	0	0	0
2019/10/16 03:39:00	BASE	14.14	348	18.47	349	1.3	100	1.3	0	0	1001.0	NA	0.0000	UP	9999	360	0	0	0
2019/10/16 03:40:01	BASE	14.74	348	18.47	349	1.3	100	1.3	0	0	1000.9	NA	0.0000	UP	9999	330	0	0	0
2019/10/16 03:41:01	BASE	15.26	347	18.21	348	1.3	100	1.3	0	0	1000.9	NA	0.0000	UP	9999	330	0	0	0
2019/10/16 03:42:01	BASE	15.41	346	18.21	348	1.3	100	1.3	0	0	1000.9	NA	0.2540	UP	9999	300	0	0	0
2019/10/16 03:43:01	BASE	15.15	347	18.21	348	1.3	100	1.3	0	0	1001.0	NA	0.0000	UP	9999	300	0	0	0
2019/10/16 03:44:01	BASE	14.76	347	17.90	346	1.3	100	1.3	0	0	1001.0	NA	0.0000	UP	9999	330	0	0	0
2019/10/16 03:45:01	BASE	13.79	343	17.90	346	1.3	100	1.3	0	0	1001.1	NA	0.0000	UP	9999	330	0	0	0
2019/10/16 03:46:01	BASE	12.63	341	17.90	346	1.3	100	1.3	0	0	1001.1	NA	0.0000	UP	9999	300	0	0	0
2019/10/16 03:47:01	BASE	13.20	343	16.77	347	1.2	100	1.2	0	0	1001.1	NA	0.0000	UP	9999	300	0	0	0
2019/10/16 03:48:01	BASE	13.76	346	16.77	347	1.2	100	1.2	0	0	1001.0	NA	0.0000	UP	9999	330	0	0	0
2019/10/16 03:49:01	BASE	14.20	347	16.77	347	1.2	100	1.2	0	0	1001.0	NA	0.0000	UP	9999	300	0	0	0
2019/10/16 03:50:01	BASE	14.58	347	16.77	347	1.2	100	1.2	0	0	1001.0	NA	0.0000	UP	9999	330	0	0	0
2019/10/16 03:51:01	BASE	14.36	348	16.46	348	1.2	100	1.2	0	0	1001.0	NA	0.0000	UP	9999	330	0	0	0
2019/10/16 03:52:01	BASE	13.82	349	15.84	349	1.2	100	1.2	0	0	1001.0	NA	0.0000	UP	9999	300	0	0	0
2019/10/16 03:53:01	BASE	13.39	347	15.84	349	1.2	100	1.2	0	0	1001.0	NA	0.0000	UP	9999	260	0	0	0
2019/10/16 03:54:01	BASE	13.48	345	15.43	348	1.2	100	1.2	0	0	1001.0	NA	0.0000	UP	9999	300	0	0	0
2019/10/16 03:55:01	BASE	13.14	347	15.43	348	1.2	100	1.2	0	0	1000.9	NA	0.2540	UP	9000	300	0	0	0
2019/10/16 03:56:01	BASE	12.94	349	15.43	348	1.2	100	1.2	0	0	1001.0	NA	0.0000	-SN	9999	300	0	0	0
2019/10/16 03:57:01	BASE	12.63	345	15.43	348	1.2	100	1.2	0	0	1000.9	NA	0.0000	-SN	9999	260	0	0	0
2019/10/16 03:58:01	BASE	11.79	345	15.43	348	1.2	100	1.2	0	0	1001.0	NA	0.0000	-SN	9999	300	0	0	0
2019/10/16 03:59:01	BASE	11.88	344	15.43	348	1.2	100	1.2	0	0	1001.0	NA	0.0000	-SN	9999	330	0	0	0
2019/10/16 04:00:01	BASE	12.60	339	14.92	346	1.2	100	1.2	0	0	1001.0	NA	0.0000	-SN	9999	300	0	0	0
2019/10/16 04:01:05	BASE	12.58	338	14.51	340	1.1	100	1.1	0	0	1001.0	NA	0.0000	-SN	9999	300	0	0	0
2019/10/16 04:02:00	BASE	12.04	339	14.51	340	1.1	100	1.1	0	0	1001.0	NA	0.0000	-SN	9999	300	0	0	0
2019/10/16 04:03:00	BASE	11.49	337	14.51	340	1.1	100	1.1	0	0	1000.9	NA	0.0000	-SN	9999	260	0	0	0
2019/10/16 04:04:00	BASE	10.81	337	14.35	330	1.1	100	1.1	0	0	1001.0	NA	0.0000	-SN	9999	300	0	0	0
2019/10/16 04:05:00	BASE	10.72	340	14.35	330	1.0	100	1.0	0	0	1000.9	NA	0.2540	-SN	9999	300	0	0	0
2019/10/16 04:06:00	BASE	10.84	341	14.35	330	1.0	100	1.0	0	0	1000.9	NA	0.0000	-SN	9000	300	0	0	0
2019/10/16 04:07:00	BASE	10.40	343	14.35	330	1.0	100	1.0	0	0	1000.9	NA	0.0000	-SN	5000	300	0	0	0
2019/10/16 04:08:00	BASE	10.26	347	14.35	330	1.0	100	1.0	0	0	1000.9	NA	0.0000	-SN	8000	330	0	0	0
2019/10/16 04:09:00	BASE	10.34	349	14.35	330	1.0	100	1.0	0	0	1000.9	NA	0.0000	-SN	9999	330	0	0	0
2019/10/16 04:10:00	BASE	9.87	347	13.12	337	1.0	100	1.0	0	0	1000.9	NA	0.0000	-SN	9999	390	0	0	0
2019/10/16 04:11:00	BASE	10.34	342	12.55	340	1.0	100	1.0	0	0	1000.9	NA	0.0000	-SN	9999	390	0	0	0
2019/10/16 04:12:00	BASE	10.87	339	11.88	333	1.0	100	1.0	0	0	1000.9	NA	0.0000	-SN	9999	360	0	0	0
2019/10/16 04:13:00	BASE	10.55	338	11.83	339	1.0	100	1.0	0	0	1000.9	NA	0.0000	-SN	9999	390	0	0	0
2019/10/16 04:14:00	BASE	10.00	338	11.83	339	1.0	100	1.0	0	0	1001.0	NA	0.0000	-SN	9999	360	0	0	0
2019/10/16 04:15:00	BASE	9.44	340	11.83	339	1.0	100	1.0	0	0	1001.0	NA	0.0000	-SN BR	8000	360	0	0	0
2019/10/16 04:16:00	BASE	9.95	340	11.83	339	1.0	100	1.0	0	0	1001.0	NA	0.0000	-SN	9999	360	0	0	0
2019/10/16 04:17:00	BASE	10.61	341	12.19	347	1.0	100	1.0	0	0	1001.1	NA	0.0000	-SN	9999	360	0	0	0
2019/10/16 04:18:00	BASE	11.38	343	13.12	344	1.1	100	1.1	0	0	1001.0	NA	0.2540	-SN	9999	360	0	0	0
2019/10/16 04:19:00	BASE	11.26	342	13.12	344	1.1	100	1.1	0	0	1001.0	NA	0.0000	-SN	9999	390	0	0	0
2019/10/16 04:20:00	BASE	10.59	342	13.12	344	1.2	100	1.2	0	0	1001.0	NA	0.0000	-SN	9999	360	0	0	0
2019/10/16 04:21:00	BASE	11.19	342	13.12	344	1.2	100	1.2	0	0	1001.0	NA	0.0000	-SN	9999	390	0	0	0
2019/10/16 04:22:00	BASE	11.30	343	13.12	344	1.3	100	1.3	0	0	1000.9	NA	0.0000	-SN	9999	390	0	0	0
2019/10/16 04:23:00	BASE	10.37	347	13.12	344	1.3	100	1.3	0	0	1000.9	NA	0.0000	-SN	9999	390	0	0	0
2019/10/16 04:24:00	BASE	10.52	351	13.12	350	1.3	100	1.3	0	0	1000.9	NA	0.0000	-SN	9999	390	0	0	0
2019/10/16 04:25:00	BASE	11.22	353	13.12	350	1.3	100	1.3	0	0	1000.9	NA	0.0000	-SN	9999	390	0	0	0
2019/10/16 04:26:00	BASE	10.80	355	13.12	350	1.4	100	1.4	0	0	1000.8	NA	0.0000	-SN	9999	0	0	0	2990
2019/10/16 04:27:00	BASE	10.24	353	13.12	350	1.4	100	1.4	0	0	1000.8	NA	0.0000	-SN	8000	0	0	0	3080
2019/10/16 04:28:00	BASE	10.21	349	13.12	350	1.5	100	1.5	0	0	1000.8	NA	0.0000	-SN	9999	0	0	0	3150
2019/10/16 04:29:00	BASE	10.74	350	13.12	350	1.5	100	1.5	0	0	1000.8	NA	0.0000	-SN	9999	0	0	0	3380
2019/10/16 04:30:00	BASE	10.85	351	13.12	350	1.6	100	1.6	0	0	1000.8	NA	0.0000	-SN	8000	0	0	0	3580
2019/10/16 04:31:00	BASE	10.57	351	13.12	350	1.6	100	1.6	0	0	1000.8	NA	0.2540	-SN BR	4800	0	0	0	3410
2019/10/16 04:32:00	BASE	11.41	350	13.58	352	1.6	100	1.6	0	0	1000.8	NA	0.0000	-SN BR	7000	0	0	0	3150
2019/10/16 04:33:00	BASE	11.85	348	13.58	352	1.7	100	1.7	0	0	1000.9	NA	0.0000	-SN BR	7000	720	0	0	0
2019/10/16 04:34:00	BASE	10.83	348	13.58	352	1.7	100	1.7	0	0	1000.9	NA	0.0000	-SN BR	9999	0	0	0	2560
2019/10/16 04:35:00	BASE	10.45	348	13.58	352	1.7	100	1.7	0	0	1000.9	NA	0.0000	-SN BR	6000	490	0	0	0
2019/10/16 04:36:00	BASE	10.98	347	13.58	352	1.8	100	1.8	0	0	1000.9	NA	0.0000	-SN BR	9999	460	0	0	0
2019/10/16 04:37:00	BASE	11.15	347	13.58	352	1.8	100	1.8	0	0	1000.9	NA	0.0000	-SN BR	9999	560	0	0	0
2019/10/16 04:38:00	BASE	11.29	352	13.58	352	1.8	100	1.8	0	0	1000.9	NA	0.0000	-SN BR	5000	620	0	0	0
2019/10/16 04:39:00	BASE	12.27	350	14.35	353	1.9	100	1.9	0	0	1000.8	NA	0.0000	-SN BR	7000	660	0	0	0
2019/10/16 04:40:00	BASE	12.35	350	14.35	353	1.9	100	1.9	0	0	1000.8	NA	0.2540	-SN BR	9999	1940	0	0	0
2019/10/16 04:41:00	BASE	11.45	353	14.35	353	2.0	100	2.0	0	0	1000.9	NA	0.0000	-SN BR	8000	1180	0	0	0
2019/10/16 04:42:00	BASE	11.14	348	14.35	353	2.0	100	2.0	0	0	1000.9	NA	0.0000	-SN BR	9999	1180	0	0	0
2019/10/16 04:43:00	BASE	11.58	345	14.35	353	2.0	100	2.0	0	0	1001.0	NA	0.0000	-SN BR	4600	720	0	0	0
2019/10/16 04:44:00	BASE	12.64	344	14.82	332	2.0	100	2.0	0	0	1001.0	NA	0.0000	-SN BR	9999	620	0	0	0
2019/10/16 04:45:00	BASE	13.08	344	14.82	332	2.0	100	2.0	0	0	1000.9	NA	0.0000	-SN BR	7000	560	0	0	0
2019/10/16 04:46:00	BASE	12.31	341	14.82	332	2.0	100	2.0	0	0	1001.0	NA	0.0000	-SN BR	6000	430	1380	0	0
2019/10/16 04:47:00	BASE	11.31	341	14.82	332	2.0	100	2.0	0	0	1001.0	NA	0.0000	-SN BR	9999	590	0	0	0
2019/10/16 04:48:00	BASE	11.44	342	14.82	332	2.0	100	2.0	0	0	1001.0	NA	0.0000	-SN BR	9999	620	0	0	0
2019/10/16 04:49:00	BASE	12.02	340	14.82	332	2.0	100	2.0	0	0	1001.0	NA	0.0000	-SN BR	9000	660	0	0	0
2019/10/16 04:50:00	BASE	12.10	340	14.82	332	2.0	100	2.0	0	0	1001.0	NA	0.0000	-SN BR	7000	460	0	0	0
2019/10/16 04:51:00	BASE	11.98	339	14.82	332	2.0	100	2.0	0	0	1001.0	NA	0.2540	-SN BR	7000	460	0	0	0
2019/10/16 04:52:00	BASE	12.54	337	14.82	332	2.0	100	2.0	0	0	1001.0	NA	0.0000	-SN BR	4300	620	0	0	0
2019/10/16 04:53:00	BASE	12.93	337	14.82	332	2.0	100	2.0	0	0	1001.0	NA	0.0000	-SN BR	5000	590	0	0	0
2019/10/16 04:54:00	BASE	12.25	337	14.15	338	1.9	100	1.9	0	0	1001.0	NA	0.0000	-SN BR	5000	460	0	0	0
2019/10/16 04:55:00	BASE	11.76	339	14.15	338	1.9	100	1.9	0	0	1001.0	NA	0.0000	-SN BR	7000	390	0	0	0
2019/10/16 04:56:00	BASE	10.97	343	14.15	338	1.9	100	1.9	0	0	1000.9	NA	0.0000	-SN BR	9999	430	0	0	0
2019/10/16 04:57:00	BASE	9.84	347	14.15	338	1.8	100	1.8	0	0	1000.9	NA	0.0000	-SN BR	8000	620	0	0	0
2019/10/16 04:58:00	BASE	10.00	352	14.15	338	1.8	100	1.8	0	0	1001.0	NA	0.0000	-SN BR	8000	1540	0	0	0
2019/10/16 04:59:00	BASE	10.52	351	14.15	338	1.8	100	1.8	0	0	1000.9	NA	0.0000	-SN BR	9999	390	0	0	0
2019/10/16 05:00:00	BASE	10.51	353	14.15	338	1.9	100	1.9	0	0	1000.9	NA	0.0000	-SN BR	9999	390	0	0	0
2019/10/16 05:01:00	BASE	10.65	355	14.15	338	1.9	100	1.9	0	0	1000.9	NA	0.0000	-SN BR	9999	330	0	0	0
2019/10/16 05:02:00	BASE	10.83	352	13.32	335	2.0	100	2.0	0	0	1001.0	NA	0.0000	-SN BR	9999	300	1770	0	0
2019/10/16 05:03:00	BASE	11.01	351	12.66	336	2.0	100	2.0	0	0	1001.0	NA	0.0000	-SN	9999	330	1770	0	0
2019/10/16 05:04:00	BASE	10.94	351	11.99	2	2.1	100	2.1	0	0	1001.0	NA	0.0000	-SN	9999	330	0	0	0
2019/10/16 05:05:00	BASE	10.85	348	11.99	2	2.1	100	2.1	0	0	1001.1	NA	0.0000	-SN	9999	330	0	0	0
2019/10/16 05:06:00	BASE	10.56	343	11.99	2	2.1	100	2.1	0	0	1001.1	NA	0.0000	-SN	9999	330	0	0	0
2019/10/16 05:07:00	BASE	10.62	339	11.99	2	2.1	100	2.1	0	0	1001.1	NA	0.0000	-SN	9999	330	0	0	0
2019/10/16 05:08:00	BASE	11.59	340	14.10	348	2.0	100	2.0	0	0	1001.1	NA	0.0000	-SN	9999	300	0	0	0
2019/10/16 05:09:00	BASE	11.63	341	14.10	348	2.0	100	2.0	0	0	1001.0	NA	0.0000		9999	300	0	0	0
2019/10/16 05:10:00	BASE	10.53	345	14.10	348	2.0	100	2.0	0	0	1001.0	NA	0.0000		9999	300	0	0	0
2019/10/16 05:11:00	BASE	10.55	348	14.10	348	2.0	100	2.0	0	0	1001.0	NA	0.0000		9999	330	0	0	0
2019/10/16 05:12:00	BASE	11.72	351	14.10	348	2.0	100	2.0	0	0	1001.0	NA	0.0000		9999	330	0	0	0
2019/10/16 05:13:00	BASE	12.47	348	14.25	337	2.1	100	2.1	0	0	1001.0	NA	0.0000		9999	330	0	0	0
2019/10/16 05:14:00	BASE	12.85	345	14.25	337	2.1	100	2.1	0	0	1001.0	NA	0.0000		9999	300	0	0	0
2019/10/16 05:15:00	BASE	12.62	344	14.25	337	2.2	100	2.2	0	0	1001.0	NA	0.0000		9999	330	0	0	0
2019/10/16 05:16:00	BASE	12.83	340	14.25	337	2.2	100	2.2	0	0	1001.0	NA	0.0000		9999	330	1540	0	0
2019/10/16 05:17:00	BASE	13.02	336	14.25	337	2.2	100	2.2	0	0	1001.1	NA	0.0000		9999	330	1380	0	0
2019/10/16 05:18:00	BASE	12.31	332	14.25	337	2.2	100	2.2	0	0	1001.1	NA	0.2540		9999	330	1310	0	0
2019/10/16 05:19:00	BASE	11.83	331	14.25	337	2.2	100	2.2	0	0	1001.1	NA	0.0000		9999	330	1210	0	0
2019/10/16 05:20:00	BASE	11.27	332	14.25	337	2.1	100	2.1	0	0	1001.1	NA	0.0000		9999	300	0	0	0
2019/10/16 05:21:00	BASE	11.20	333	14.25	337	2.1	100	2.1	0	0	1001.1	NA	0.0000		9999	330	0	0	0
2019/10/16 05:22:00	BASE	11.25	335	14.25	337	2.1	100	2.1	0	0	1001.1	NA	0.0000		9999	330	0	0	0
2019/10/16 05:23:00	BASE	11.23	336	14.15	340	2.1	100	2.1	0	0	1001.1	NA	0.0000		9999	330	0	0	0
2019/10/16 05:24:01	BASE	11.09	334	14.15	340	2.0	100	2.0	0	0	1001.1	NA	0.0000		9999	330	0	0	0
2019/10/16 05:25:01	BASE	10.77	331	14.15	340	2.0	100	2.0	0	0	1001.1	NA	0.0000		9999	300	0	0	0
2019/10/16 05:26:01	BASE	10.74	330	13.48	338	2.0	100	2.0	0	0	1001.1	NA	0.0000		9999	330	0	0	0
2019/10/16 05:27:01	BASE	10.93	330	12.60	330	2.0	100	2.0	0	0	1001.1	NA	0.0000		9999	330	0	0	0
2019/10/16 05:28:01	BASE	11.21	333	12.55	335	2.0	100	2.0	0	0	1001.1	NA	0.0000		9999	330	0	0	0
2019/10/16 05:29:01	BASE	11.21	333	12.55	335	2.0	100	2.0	0	0	1001.1	NA	0.0000		9999	360	0	0	0
2019/10/16 05:30:01	BASE	10.90	332	12.55	335	2.1	100	2.1	0	0	1001.1	NA	0.0000		9999	390	0	0	0
2019/10/16 05:31:01	BASE	10.89	335	12.45	338	2.1	100	2.1	0	0	1001.1	NA	0.0000		9999	390	0	0	0
2019/10/16 05:32:01	BASE	10.96	340	12.45	338	2.1	100	2.1	0	0	1001.1	NA	0.0000		9999	390	0	0	0
2019/10/16 05:33:01	BASE	10.32	341	11.88	338	2.0	100	2.0	0	0	1001.2	NA	0.0000		9999	360	1250	0	0
2019/10/16 05:34:01	BASE	9.73	335	11.88	338	2.0	100	2.0	0	0	1001.3	NA	0.0000		9999	360	0	0	0
2019/10/16 05:35:01	BASE	10.18	332	11.88	338	1.9	100	1.9	0	0	1001.3	NA	0.0000		9999	390	0	0	0
2019/10/16 05:36:01	BASE	11.68	333	13.68	335	1.9	100	1.9	0	0	1001.3	NA	0.0000		9999	360	0	0	0
2019/10/16 05:37:01	BASE	13.20	334	14.66	335	1.9	100	1.9	0	0	1001.3	NA	0.0000		9999	390	0	0	0
2019/10/16 05:38:01	BASE	13.47	332	14.66	335	1.9	100	1.9	0	0	1001.3	NA	0.0000		9999	360	0	0	0
2019/10/16 05:39:01	BASE	12.30	325	14.66	335	1.9	100	1.9	0	0	1001.3	NA	0.0000		9999	390	0	0	0
2019/10/16 05:40:01	BASE	11.21	319	14.66	335	1.9	100	1.9	0	0	1001.3	NA	0.0000		9999	430	0	0	0
2019/10/16 05:41:01	BASE	10.85	316	14.66	335	1.9	100	1.9	0	0	1001.4	NA	0.0000		9999	490	0	0	0
2019/10/16 05:42:01	BASE	10.40	316	14.66	335	1.9	100	1.9	0	0	1001.4	NA	0.0000		9999	520	0	0	0
2019/10/16 05:43:01	BASE	10.16	316	14.66	335	1.8	100	1.8	0	0	1001.4	NA	0.0000		9999	520	0	0	0
2019/10/16 05:44:01	BASE	10.87	316	14.66	335	1.7	100	1.7	0	0	1001.4	NA	0.0000		9999	430	0	0	0
2019/10/16 05:45:01	BASE	10.83	322	14.66	335	1.7	100	1.7	0	0	1001.4	NA	0.0000		9999	520	0	0	0
2019/10/16 05:46:01	BASE	10.19	329	14.66	335	1.7	100	1.7	0	0	1001.4	NA	0.0000		9999	520	0	0	0
2019/10/16 05:47:01	BASE	11.27	329	14.61	327	1.7	100	1.7	0	0	1001.4	NA	0.0000		9999	850	0	0	0
2019/10/16 05:48:01	BASE	11.50	324	13.94	326	1.8	100	1.8	0	0	1001.4	NA	0.0000		9999	620	0	0	0
2019/10/16 05:49:01	BASE	10.91	318	13.94	316	1.8	100	1.8	0	0	1001.4	NA	0.0000		9999	620	0	0	0
2019/10/16 05:50:01	BASE	11.59	317	13.94	316	1.8	100	1.8	0	0	1001.4	NA	0.0000		9999	620	0	0	0
2019/10/16 05:51:01	BASE	12.07	318	13.94	316	1.8	100	1.8	0	0	1001.5	NA	0.0000		9999	620	0	0	0
2019/10/16 05:52:01	BASE	11.73	322	13.94	316	1.8	100	1.8	0	0	1001.4	NA	0.0000		9999	560	0	0	0
2019/10/16 05:53:01	BASE	12.48	328	14.51	326	1.8	100	1.8	0	0	1001.4	NA	0.0000		9999	460	0	0	0
2019/10/16 05:54:01	BASE	13.20	329	14.51	326	1.8	100	1.8	0	0	1001.4	NA	0.0000		9999	390	0	0	0
2019/10/16 05:55:01	BASE	12.44	327	14.51	326	1.8	100	1.8	0	0	1001.4	NA	0.0000		9999	560	0	0	0
2019/10/16 05:56:01	BASE	11.27	326	14.51	326	1.8	100	1.8	0	0	1001.4	NA	0.0000		9999	520	0	0	0
2019/10/16 05:57:01	BASE	10.18	324	14.51	326	1.8	100	1.8	0	0	1001.4	NA	0.0000		9999	590	0	0	0
2019/10/16 05:58:01	BASE	10.52	323	14.51	326	1.8	100	1.8	0	0	1001.4	NA	0.0000		9999	690	0	0	0
2019/10/16 05:59:01	BASE	12.52	326	14.66	328	1.8	100	1.8	0	0	1001.4	NA	0.0000		9999	430	0	0	0
2019/10/16 06:00:01	BASE	13.95	328	16.10	322	1.8	100	1.8	0	0	1001.4	NA	0.0000		9999	390	0	0	0
2019/10/16 06:01:01	BASE	13.83	328	16.10	322	1.8	100	1.8	0	0	1001.4	NA	0.0000		9999	430	0	0	0
2019/10/16 06:02:01	BASE	12.90	329	16.10	322	1.8	100	1.8	0	0	1001.5	NA	0.0000		9999	390	0	0	0
2019/10/16 06:03:01	BASE	11.84	331	16.10	322	1.8	100	1.8	0	0	1001.5	NA	0.0000		9999	430	0	0	0
2019/10/16 06:04:01	BASE	12.29	332	16.10	322	1.8	100	1.8	0	0	1001.4	NA	0.0000		9999	390	0	0	0
2019/10/16 06:05:00	BASE	12.71	328	16.10	322	1.8	100	1.8	0	0	1001.5	NA	0.0000		9999	360	0	0	0
2019/10/16 06:06:00	BASE	12.77	325	16.10	322	1.8	100	1.8	0	0	1001.5	NA	0.0000		9999	430	0	0	0
2019/10/16 06:07:01	BASE	12.73	324	16.10	322	1.8	100	1.8	0	0	1001.5	NA	0.0000		9999	360	0	0	0
2019/10/16 06:08:00	BASE	12.33	325	16.10	322	1.8	100	1.8	0	0	1001.5	NA	0.0000		9999	390	0	0	0
2019/10/16 06:09:00	BASE	12.15	327	16.10	322	1.8	100	1.8	0	0	1001.5	NA	0.0000		9999	390	0	0	0
2019/10/16 06:10:00	BASE	11.83	328	14.71	333	1.7	100	1.7	0	0	1001.5	NA	0.0000		9999	390	0	0	0
2019/10/16 06:11:00	BASE	12.30	327	14.25	320	1.7	100	1.7	0	0	1001.5	NA	0.0000		9999	360	0	0	0
2019/10/16 06:12:00	BASE	12.43	326	14.25	320	1.7	100	1.7	0	0	1001.5	NA	0.0000		9999	360	0	0	0
2019/10/16 06:13:00	BASE	12.05	327	14.25	320	1.7	100	1.7	0	0	1001.5	NA	0.0000		9999	390	1310	0	0
2019/10/16 06:14:01	BASE	12.41	329	14.25	320	1.7	100	1.7	0	0	1001.5	NA	0.0000		9999	360	0	0	0
2019/10/16 06:15:00	BASE	13.34	325	15.38	319	1.7	100	1.7	0	0	1001.5	NA	0.0000		9999	360	0	0	0
2019/10/16 06:16:00	BASE	13.65	324	15.38	319	1.7	100	1.7	0	0	1001.4	NA	0.0000		9999	360	0	0	0
2019/10/16 06:17:00	BASE	13.67	329	15.43	327	1.7	100	1.7	0	0	1001.4	NA	0.0000		9999	360	0	0	0
2019/10/16 06:18:00	BASE	13.88	327	15.43	327	1.7	100	1.7	0	0	1001.4	NA	0.0000		9999	330	0	0	0
2019/10/16 06:19:00	BASE	13.82	329	15.43	327	1.7	100	1.7	0	0	1001.4	NA	0.0000		9999	330	0	0	0
2019/10/16 06:20:00	BASE	13.91	334	15.43	327	1.7	100	1.7	0	0	1001.4	NA	0.0000		9999	360	0	0	0
2019/10/16 06:21:00	BASE	13.11	333	15.43	327	1.7	100	1.7	0	0	1001.4	NA	0.0000		9999	390	0	0	0
2019/10/16 06:22:00	BASE	12.90	330	15.43	327	1.7	100	1.7	0	0	1001.4	NA	0.0000		9999	390	0	0	0
2019/10/16 06:23:00	BASE	13.53	329	15.43	327	1.7	100	1.7	0	0	1001.3	NA	0.0000		9999	360	0	0	0
2019/10/16 06:24:00	BASE	13.61	331	15.43	327	1.6	100	1.6	0	0	1001.3	NA	0.0000		9999	360	0	0	0
2019/10/16 06:25:00	BASE	13.50	332	15.43	327	1.6	100	1.6	0	0	1001.3	NA	0.0000		9999	360	0	0	0
2019/10/16 06:26:00	BASE	13.59	334	15.43	327	1.6	100	1.6	0	0	1001.2	NA	0.0000		9999	390	0	0	0
2019/10/16 06:27:00	BASE	14.71	333	17.39	326	1.6	100	1.6	0	0	1001.2	NA	0.0000		9999	360	0	0	0
2019/10/16 06:28:00	BASE	15.32	331	17.39	326	1.6	100	1.6	0	0	1001.2	NA	0.0000		9999	390	0	0	0
2019/10/16 06:29:00	BASE	14.47	333	17.39	326	1.6	100	1.6	0	0	1001.2	NA	0.0000		9999	360	0	0	0
2019/10/16 06:30:00	BASE	12.72	336	17.39	326	1.6	100	1.6	0	0	1001.3	NA	0.0000		9999	390	0	0	0
2019/10/16 06:31:00	BASE	12.30	335	17.39	326	1.6	100	1.6	0	0	1001.3	NA	0.0000		9999	360	0	0	0
2019/10/16 06:32:00	BASE	13.45	333	17.39	326	1.6	100	1.6	0	0	1001.2	NA	0.0000		9999	390	0	0	0
2019/10/16 06:33:00	BASE	13.66	333	17.39	326	1.6	100	1.6	0	0	1001.1	NA	0.0000		9999	1020	1740	0	0
2019/10/16 06:34:00	BASE	13.29	335	17.39	326	1.6	100	1.6	0	0	1001.1	NA	0.0000		9999	750	2200	0	0
2019/10/16 06:35:00	BASE	13.43	335	17.39	326	1.6	100	1.6	0	0	1001.1	NA	0.0000		9999	590	1970	0	0
2019/10/16 06:36:00	BASE	13.78	333	17.39	326	1.6	100	1.6	0	0	1001.1	NA	0.0000		9999	560	2130	0	0
2019/10/16 06:37:00	BASE	13.62	334	16.36	329	1.6	100	1.6	0	0	1001.1	NA	0.0000		9999	560	2200	0	0
2019/10/16 06:38:01	BASE	13.05	334	15.64	329	1.5	100	1.5	0	0	1001.2	NA	0.0000		9999	590	0	0	0
2019/10/16 06:39:00	BASE	12.36	335	15.64	329	1.5	100	1.5	0	0	1001.2	NA	0.0000		9999	520	0	0	0
2019/10/16 06:40:00	BASE	12.03	338	15.64	329	1.5	100	1.5	0	0	1001.2	NA	0.0000		9999	490	0	0	0
2019/10/16 06:41:00	BASE	11.63	337	15.64	329	1.5	100	1.5	0	0	1001.2	NA	0.0000		9999	520	1940	0	0
2019/10/16 06:42:00	BASE	11.41	336	15.64	329	1.5	100	1.5	0	0	1001.2	NA	0.0000		9999	690	0	0	0
2019/10/16 06:43:00	BASE	11.77	337	15.64	329	1.5	100	1.5	0	0	1001.2	NA	0.0000		9999	520	0	0	0
2019/10/16 06:44:00	BASE	11.90	336	15.64	329	1.4	100	1.4	0	0	1001.2	NA	0.0000		9999	520	0	0	0
2019/10/16 06:45:00	BASE	12.11	336	14.82	332	1.4	100	1.4	0	0	1001.2	NA	0.0000		9999	460	0	0	0
2019/10/16 06:46:00	BASE	12.65	336	14.82	334	1.4	100	1.4	0	0	1001.2	NA	0.0000		9999	430	0	0	0
2019/10/16 06:47:00	BASE	12.87	335	14.82	334	1.4	100	1.4	0	0	1001.1	NA	0.0000		9999	460	0	0	0
2019/10/16 06:48:00	BASE	13.06	337	14.82	334	1.4	100	1.4	0	0	1001.2	NA	0.0000		9999	920	0	0	0
2019/10/16 06:49:00	BASE	13.72	336	16.10	335	1.5	100	1.5	0	0	1001.2	NA	0.0000		9999	950	0	0	0
2019/10/16 06:50:00	BASE	13.33	336	16.10	335	1.5	100	1.5	0	0	1001.3	NA	0.0000		9999	1050	1740	0	0
2019/10/16 06:51:00	BASE	12.48	333	16.10	335	1.5	100	1.5	0	0	1001.3	NA	0.0000		9999	980	0	0	0
2019/10/16 06:52:00	BASE	12.85	332	16.46	327	1.5	100	1.5	0	0	1001.2	NA	0.0000		9999	690	0	0	0
2019/10/16 06:53:00	BASE	13.89	333	16.67	339	1.5	100	1.5	0	0	1001.2	NA	0.0000		9999	490	0	0	0
2019/10/16 06:54:00	BASE	14.66	331	16.67	339	1.5	100	1.5	0	0	1001.1	NA	0.0000		9999	920	0	0	0
2019/10/16 06:55:00	BASE	14.34	332	16.67	339	1.5	100	1.5	0	0	1001.1	NA	0.0000		9999	1020	0	0	0
2019/10/16 06:56:00	BASE	13.13	337	16.67	339	1.5	100	1.5	0	0	1001.1	NA	0.0000		9999	920	0	0	0
2019/10/16 06:57:00	BASE	12.38	339	16.67	339	1.5	100	1.5	0	0	1001.1	NA	0.0000		9999	890	0	0	0
2019/10/16 06:58:00	BASE	12.95	335	16.67	339	1.5	100	1.5	0	0	1001.1	NA	0.0000		9999	890	0	0	0
2019/10/16 06:59:00	BASE	13.68	335	16.67	339	1.5	100	1.5	0	0	1001.0	NA	0.0000		9999	1020	1670	0	0
2019/10/16 07:00:00	BASE	13.33	337	16.67	339	1.4	100	1.4	0	0	1001.1	NA	0.0000		9999	950	0	0	0
2019/10/16 07:01:00	BASE	12.07	337	16.67	339	1.4	100	1.4	0	0	1001.1	NA	0.0000		9999	890	0	0	0
2019/10/16 07:02:00	BASE	12.10	335	16.67	339	1.4	100	1.4	0	0	1001.1	NA	0.0000		9999	660	0	0	0
2019/10/16 07:03:00	BASE	12.45	334	15.48	324	1.4	100	1.4	0	0	1001.1	NA	0.0000		9999	490	0	0	0
2019/10/16 07:04:01	BASE	12.05	337	15.38	326	1.4	100	1.4	0	0	1001.1	NA	0.0000		9999	660	0	0	0
2019/10/16 07:05:00	BASE	12.65	338	14.76	327	1.3	100	1.3	0	0	1001.1	NA	0.0000		9999	980	0	0	0
2019/10/16 07:06:00	BASE	13.77	336	15.33	347	1.3	100	1.3	0	0	1001.1	NA	0.0000		9999	890	0	0	0
2019/10/16 07:07:00	BASE	14.31	334	16.15	333	1.3	100	1.3	0	0	1001.1	NA	0.0000		9999	920	0	0	0
2019/10/16 07:08:00	BASE	13.55	333	16.15	333	1.3	100	1.3	0	0	1001.1	NA	0.0000		9999	1050	0	0	0
2019/10/16 07:09:00	BASE	12.65	335	16.15	333	1.3	100	1.3	0	0	1001.1	NA	0.0000		9999	980	0	0	0
2019/10/16 07:10:00	BASE	13.16	336	16.15	333	1.3	100	1.3	0	0	1001.2	NA	0.0000		9999	920	0	0	0
2019/10/16 07:11:00	BASE	13.16	335	16.15	333	1.4	100	1.4	0	0	1001.3	NA	0.0000		9999	920	0	0	0
2019/10/16 07:12:00	BASE	12.41	336	16.15	333	1.3	100	1.3	0	0	1001.3	NA	0.0000		9999	980	0	0	0
2019/10/16 07:13:00	BASE	12.04	335	16.15	333	1.3	100	1.3	0	0	1001.3	NA	0.0000		9999	950	0	0	0
2019/10/16 07:14:00	BASE	11.85	334	16.15	333	1.3	100	1.3	0	0	1001.3	NA	0.0000		9999	820	0	0	0
2019/10/16 07:15:00	BASE	12.10	336	16.15	333	1.3	100	1.3	0	0	1001.3	NA	0.0000		9999	850	0	0	0
2019/10/16 07:16:00	BASE	12.05	338	16.15	333	1.3	100	1.3	0	0	1001.3	NA	0.0000		9999	850	0	0	0
2019/10/16 07:17:00	BASE	12.65	334	15.38	327	1.3	100	1.3	0	0	1001.1	NA	0.0000		9999	890	0	0	0
2019/10/16 07:18:00	BASE	12.99	332	15.38	327	1.3	100	1.3	0	0	1001.2	NA	0.0000		9999	890	0	0	0
2019/10/16 07:19:00	BASE	12.68	336	15.38	327	1.3	100	1.3	0	0	1001.2	NA	0.0000		9999	920	0	0	0
2019/10/16 07:20:00	BASE	12.31	337	14.40	332	1.3	100	1.3	0	0	1001.2	NA	0.0000		9999	890	0	0	0
2019/10/16 07:21:00	BASE	12.69	332	16.00	323	1.3	100	1.3	0	0	1001.2	NA	0.0000		9999	850	0	0	0
2019/10/16 07:22:00	BASE	14.32	330	18.06	327	1.2	100	1.2	0	0	1001.2	NA	0.0000		9999	890	0	0	0
2019/10/16 07:23:00	BASE	14.72	331	18.06	327	1.2	100	1.2	0	0	1001.2	NA	0.0000		9999	820	0	0	0
2019/10/16 07:24:00	BASE	13.98	331	18.06	327	1.2	100	1.2	0	0	1001.3	NA	0.0000		9999	820	0	0	0
2019/10/16 07:25:00	BASE	13.16	333	18.06	327	1.2	100	1.2	0	0	1001.3	NA	0.0000		9999	890	0	0	0
2019/10/16 07:26:00	BASE	12.56	336	18.06	327	1.2	100	1.2	0	0	1001.3	NA	0.0000		9999	890	0	0	0
2019/10/16 07:27:00	BASE	12.92	334	18.06	327	1.2	100	1.2	0	0	1001.2	NA	0.0000		9999	850	0	0	0
2019/10/16 07:28:00	BASE	14.56	329	18.06	327	1.2	100	1.2	0	0	1001.2	NA	0.0000		9999	790	0	0	0
2019/10/16 07:29:00	BASE	15.10	330	18.06	327	1.1	100	1.1	0	0	1001.2	NA	0.0000		9999	750	0	0	0
2019/10/16 07:30:00	BASE	14.36	331	18.06	327	1.1	100	1.1	0	0	1001.1	NA	0.0000		9999	660	0	0	0
2019/10/16 07:31:00	BASE	13.94	331	18.06	327	1.2	100	1.2	0	0	1001.1	NA	0.0000		9999	520	0	0	0
2019/10/16 07:32:00	BASE	14.52	330	17.18	331	1.2	100	1.2	0	0	1001.1	NA	0.0000		9999	430	0	0	0
2019/10/16 07:33:00	BASE	14.63	331	17.18	331	1.2	100	1.2	0	0	1001.1	NA	0.0000		9999	390	0	0	0
2019/10/16 07:34:00	BASE	14.33	333	17.18	331	1.1	100	1.1	0	0	1001.1	NA	0.0000		9999	390	0	0	0
2019/10/16 07:35:00	BASE	14.35	333	17.18	331	1.1	100	1.1	0	0	1001.1	NA	0.0000		9999	390	1570	0	0
2019/10/16 07:36:00	BASE	13.62	333	17.18	331	1.1	100	1.1	0	0	1001.1	NA	0.0000		9999	430	1570	0	0
2019/10/16 07:37:00	BASE	13.31	335	17.18	331	1.1	100	1.1	0	0	1001.1	NA	0.0000		9999	390	0	0	0
2019/10/16 07:38:00	BASE	13.15	336	16.67	329	1.1	100	1.1	0	0	1001.1	NA	0.0000		9999	430	0	0	0
2019/10/16 07:39:00	BASE	13.40	337	16.67	329	1.1	100	1.1	0	0	1001.1	NA	0.0000		9999	430	0	0	0
2019/10/16 07:40:00	BASE	13.49	336	16.67	329	1.1	100	1.1	0	0	1001.1	NA	0.0000		9999	430	1840	0	0
2019/10/16 07:41:00	BASE	12.53	337	16.67	329	1.0	100	1.0	0	0	1001.1	NA	0.0000		9999	490	0	0	0
2019/10/16 07:42:00	BASE	12.78	339	16.67	329	1.0	100	1.0	0	0	1001.1	NA	0.0000		9999	490	0	0	0
2019/10/16 07:43:00	BASE	13.51	335	16.67	329	1.0	100	1.0	0	0	1001.1	NA	0.0000		9999	460	0	0	0
2019/10/16 07:44:00	BASE	13.13	335	15.64	332	1.0	100	1.0	0	0	1001.1	NA	0.0000		9999	460	0	0	0
2019/10/16 07:45:00	BASE	12.22	335	15.33	340	1.0	100	1.0	0	0	1001.1	NA	0.0000		9999	430	0	0	0
2019/10/16 07:46:00	BASE	11.87	335	15.33	340	1.0	100	1.0	0	0	1001.2	NA	0.0000		9999	460	0	0	0
2019/10/16 07:47:00	BASE	12.72	336	15.33	340	1.0	100	1.0	0	0	1001.1	NA	0.0000		9999	390	0	0	0
2019/10/16 07:48:00	BASE	12.92	334	15.33	340	1.0	100	1.0	0	0	1001.1	NA	0.0000		9999	390	0	0	0
2019/10/16 07:49:00	BASE	12.14	334	14.76	338	1.0	100	1.0	0	0	1001.1	NA	0.0000		9999	390	0	0	0
2019/10/16 07:50:00	BASE	12.72	332	15.48	339	1.0	100	1.0	0	0	1001.1	NA	0.0000		9999	390	0	0	0
2019/10/16 07:51:00	BASE	13.16	331	15.48	339	1.0	100	1.0	0	0	1001.2	NA	0.0000		9999	390	0	0	0
2019/10/16 07:52:00	BASE	12.50	332	15.48	339	1.0	100	1.0	0	0	1001.2	NA	0.0000		9999	390	0	0	0
2019/10/16 07:53:00	BASE	11.89	332	15.48	339	1.0	100	1.0	0	0	1001.2	NA	0.0000		9999	390	0	0	0
2019/10/16 07:54:00	BASE	12.09	334	15.64	331	1.0	100	1.0	0	0	1001.1	NA	0.0000		9999	390	0	0	0
2019/10/16 07:55:00	BASE	13.87	334	15.95	326	1.0	100	1.0	0	0	1001.1	NA	0.0000		9999	660	0	0	0
2019/10/16 07:56:00	BASE	14.27	335	15.95	326	1.0	100	1.0	0	0	1001.1	NA	0.0000		9999	560	0	0	0
2019/10/16 07:57:00	BASE	13.33	334	15.95	326	1.0	100	1.0	0	0	1001.1	NA	0.0000		9999	460	0	0	0
2019/10/16 07:58:00	BASE	13.40	330	16.41	324	1.0	100	1.0	0	0	1001.1	NA	0.0000		9999	460	0	0	0
2019/10/16 07:59:00	BASE	14.28	329	16.41	324	1.0	100	1.0	0	0	1001.1	NA	0.0000		9999	490	0	0	0
2019/10/16 08:00:00	BASE	14.03	330	16.41	324	1.0	100	1.0	0	0	1001.2	NA	0.0000		9999	390	0	0	0
2019/10/16 08:01:00	BASE	12.99	331	16.41	324	1.0	100	1.0	0	0	1001.2	NA	0.0000		9999	430	0	0	0
2019/10/16 08:02:00	BASE	12.63	332	16.41	324	1.0	100	1.0	0	0	1001.2	NA	0.0000		9999	460	0	0	0
2019/10/16 08:03:00	BASE	13.68	331	17.18	325	1.0	100	1.0	0	0	1001.2	NA	0.0000		9999	360	0	0	0
2019/10/16 08:04:00	BASE	14.73	332	17.18	325	1.0	100	1.0	0	0	1001.2	NA	0.0000		9999	390	0	0	0
2019/10/16 08:05:00	BASE	14.75	332	17.18	325	0.9	100	0.9	0	0	1001.2	NA	0.0000		9999	360	0	0	0
2019/10/16 08:06:00	BASE	14.15	328	17.18	325	0.9	100	0.9	0	0	1001.2	NA	0.0000		9999	360	0	0	0
2019/10/16 08:07:00	BASE	14.59	327	17.18	325	0.9	100	0.9	0	0	1001.3	NA	0.0000		9999	460	0	0	0
2019/10/16 08:08:00	BASE	14.77	329	17.18	325	0.9	100	0.9	0	0	1001.3	NA	0.0000		9999	430	0	0	0
2019/10/16 08:09:00	BASE	13.30	331	17.18	325	0.9	100	0.9	0	0	1001.3	NA	0.0000		9999	430	0	0	0
2019/10/16 08:10:00	BASE	13.49	332	17.18	325	0.9	100	0.9	0	0	1001.3	NA	0.0000		9999	460	0	0	0
2019/10/16 08:11:00	BASE	13.83	333	17.18	325	0.9	100	0.9	0	0	1001.3	NA	0.0000		9999	390	0	0	0
2019/10/16 08:12:00	BASE	13.99	332	17.18	325	0.9	100	0.9	0	0	1001.3	NA	0.0000		9999	390	0	0	0
2019/10/16 08:13:00	BASE	14.27	330	17.08	329	0.9	100	0.9	0	0	1001.3	NA	0.0000		9999	430	0	0	0
2019/10/16 08:14:00	BASE	14.31	331	17.08	329	0.9	100	0.9	0	0	1001.3	NA	0.0000		9999	390	0	0	0
2019/10/16 08:15:00	BASE	14.26	334	17.08	329	0.9	100	0.9	0	0	1001.3	NA	0.0000		9999	360	0	0	0
2019/10/16 08:16:00	BASE	13.85	333	17.08	329	0.9	100	0.9	0	0	1001.3	NA	0.0000		9999	330	0	0	0
2019/10/16 08:17:00	BASE	12.98	334	17.08	329	0.9	100	0.9	0	0	1001.4	NA	0.0000		9999	330	0	0	0
2019/10/16 08:18:00	BASE	11.95	334	17.08	329	0.9	100	0.9	0	0	1001.4	NA	0.0000		9999	360	0	0	0
2019/10/16 08:19:00	BASE	11.64	332	17.08	329	0.8	100	0.8	0	0	1001.4	NA	0.0000		9999	330	0	0	0
2019/10/16 08:20:00	BASE	11.51	333	16.10	331	0.8	100	0.8	0	0	1001.3	NA	0.0000		9999	330	0	0	0
2019/10/16 08:21:00	BASE	12.53	332	16.10	331	0.8	100	0.8	0	0	1001.3	NA	0.0000		9999	330	0	0	0
2019/10/16 08:22:00	BASE	13.85	330	16.10	331	0.8	100	0.8	0	0	1001.3	NA	0.0000		9999	330	0	0	0
2019/10/16 08:23:00	BASE	14.05	332	16.10	331	0.8	100	0.8	1	0	1001.3	NA	0.0000		9999	360	0	0	0
2019/10/16 08:24:00	BASE	12.95	333	15.28	338	0.8	100	0.8	1	0	1001.3	NA	0.0000		9999	330	0	0	0
2019/10/16 08:25:00	BASE	11.59	332	15.18	333	0.8	100	0.8	1	0	1001.3	NA	0.0000		9999	360	0	0	0
2019/10/16 08:26:00	BASE	11.08	333	15.18	333	0.8	100	0.8	1	0	1001.3	NA	0.0000		9999	330	0	0	0
2019/10/16 08:27:00	BASE	10.59	334	15.18	333	0.8	100	0.8	1	0	1001.3	NA	0.0000		9999	330	0	0	0
2019/10/16 08:28:00	BASE	10.44	336	15.18	333	0.7	100	0.7	1	0	1001.3	NA	0.0000		9999	330	0	0	0
2019/10/16 08:29:00	BASE	11.12	339	15.18	333	0.7	100	0.7	1	0	1001.3	NA	0.0000		9999	360	0	0	0
2019/10/16 08:30:00	BASE	11.95	338	15.18	333	0.7	100	0.7	1	0	1001.2	NA	0.0000		9999	390	0	0	0
2019/10/16 08:31:00	BASE	11.84	336	15.18	333	0.7	100	0.7	1	0	1001.3	NA	0.0000		9999	390	0	0	0
2019/10/16 08:32:00	BASE	11.39	337	15.18	333	0.7	100	0.7	1	0	1001.3	NA	0.0000		9999	360	0	0	0
2019/10/16 08:33:00	BASE	11.73	335	14.04	329	0.7	100	0.7	1	0	1001.3	NA	0.0000		9999	390	0	0	0
2019/10/16 08:34:00	BASE	11.78	334	13.17	334	0.7	100	0.7	1	0	1001.3	NA	0.0000		9999	360	0	0	0
2019/10/16 08:35:00	BASE	11.82	337	13.17	334	0.7	100	0.7	1	0	1001.3	NA	0.0000		9999	390	0	0	0
2019/10/16 08:36:00	BASE	12.23	338	13.32	337	0.7	100	0.7	1	0	1001.3	NA	0.0000		9999	430	0	0	0
2019/10/16 08:37:00	BASE	11.57	336	13.32	337	0.7	100	0.7	1	0	1001.3	NA	0.0000		9999	490	0	0	0
2019/10/16 08:38:00	BASE	11.27	337	13.32	337	0.7	100	0.7	1	0	1001.3	NA	0.0000		9999	590	0	0	0
2019/10/16 08:39:00	BASE	12.04	336	13.32	337	0.7	100	0.7	1	0	1001.2	NA	0.0000		9999	520	0	0	0
2019/10/16 08:40:00	BASE	11.75	336	13.32	337	0.7	100	0.7	1	0	1001.3	NA	0.0000		9999	590	0	0	0
2019/10/16 08:41:00	BASE	11.42	337	13.32	337	0.7	100	0.7	1	0	1001.3	NA	0.0000		9999	620	0	0	0
2019/10/16 08:42:00	BASE	11.80	337	13.32	337	0.7	100	0.7	1	0	1001.2	NA	0.0000		9999	620	0	0	0
2019/10/16 08:43:00	BASE	12.21	338	14.15	339	0.7	100	0.7	2	0	1001.2	NA	0.0000		9999	590	0	0	0
2019/10/16 08:44:00	BASE	12.27	340	14.15	339	0.7	100	0.7	2	0	1001.1	NA	0.0000		9999	660	0	0	0
2019/10/16 08:45:00	BASE	12.63	340	14.40	333	0.7	100	0.7	2	0	1001.1	NA	0.0000		9999	590	0	0	0
2019/10/16 08:46:00	BASE	12.72	339	14.40	333	0.7	100	0.7	2	0	1001.1	NA	0.0000		9999	460	0	0	0
2019/10/16 08:47:00	BASE	12.18	337	14.40	333	0.7	100	0.7	2	0	1001.1	NA	0.0000		9999	460	0	0	0
2019/10/16 08:48:00	BASE	12.17	334	14.40	333	0.7	100	0.7	2	0	1001.1	NA	0.0000		9999	390	0	0	0
2019/10/16 08:49:00	BASE	12.14	335	14.40	333	0.7	100	0.7	2	0	1001.1	NA	0.0000		9999	460	0	0	0
2019/10/16 08:50:00	BASE	11.59	334	14.40	333	0.7	100	0.7	2	0	1001.1	NA	0.0000		9999	360	0	0	0
2019/10/16 08:51:00	BASE	11.23	333	14.40	333	0.7	100	0.7	2	0	1001.1	NA	0.0000		9999	330	0	0	0
2019/10/16 08:52:00	BASE	11.63	332	14.40	333	0.7	100	0.7	2	0	1001.1	NA	0.0000		9999	360	0	0	0
2019/10/16 08:53:00	BASE	11.46	330	14.40	333	0.7	100	0.7	3	0	1001.2	NA	0.0000		9999	360	0	0	0
2019/10/16 08:54:00	BASE	11.79	332	14.40	333	0.7	100	0.7	3	0	1001.2	NA	0.0000		9999	390	0	0	0
2019/10/16 08:55:00	BASE	13.48	332	15.43	332	0.7	100	0.7	3	0	1001.2	NA	0.0000		9999	430	0	0	0
2019/10/16 08:56:00	BASE	13.80	333	15.43	332	0.7	100	0.7	4	0	1001.1	NA	0.0000		9999	390	0	0	0
2019/10/16 08:57:00	BASE	13.36	334	15.43	332	0.7	100	0.7	4	0	1001.1	NA	0.0000		9999	520	0	0	0
2019/10/16 08:58:00	BASE	12.78	336	15.43	332	0.7	100	0.7	5	0	1001.1	NA	0.0000		9999	390	0	0	0
2019/10/16 08:59:00	BASE	11.92	338	15.43	332	0.7	100	0.7	5	0	1001.1	NA	0.0000		9999	430	0	0	0
2019/10/16 09:00:00	BASE	11.56	336	15.43	332	0.6	100	0.6	6	0	1001.1	NA	0.0000		9999	460	0	0	0
2019/10/16 09:01:00	BASE	11.67	332	15.43	332	0.6	100	0.6	6	0	1001.2	NA	0.0000		9999	520	0	0	0
2019/10/16 09:02:00	BASE	12.24	330	15.43	332	0.6	100	0.6	7	0	1001.2	NA	0.0000		9999	430	0	0	0
2019/10/16 09:03:00	BASE	12.18	332	15.43	332	0.6	100	0.6	8	0	1001.2	NA	0.0000		9999	520	0	0	0
2019/10/16 09:04:00	BASE	12.36	335	15.43	332	0.6	100	0.6	8	0	1001.1	NA	0.0000		9999	520	0	0	0
2019/10/16 09:05:00	BASE	12.36	336	15.23	332	0.6	100	0.6	9	0	1001.1	NA	0.0000		9999	460	0	0	0
2019/10/16 09:06:00	BASE	11.32	335	15.23	332	0.6	100	0.6	9	0	1001.1	NA	0.0000		9999	460	0	0	0
2019/10/16 09:07:00	BASE	11.92	335	15.23	332	0.6	100	0.6	10	0	1001.1	NA	0.0000		9999	490	0	0	0
2019/10/16 09:08:00	BASE	13.79	336	15.79	335	0.6	100	0.6	10	0	1001.0	NA	0.0000		9999	430	0	0	0
2019/10/16 09:09:00	BASE	13.73	337	15.79	335	0.6	100	0.6	11	0	1001.0	NA	0.0000		9999	430	0	0	0
2019/10/16 09:10:00	BASE	12.68	336	15.79	335	0.6	100	0.6	12	0	1001.0	NA	0.0000		9999	490	0	0	0
2019/10/16 09:11:00	BASE	12.62	335	15.79	335	0.6	100	0.6	12	0	1001.0	NA	0.0000		9999	390	0	0	0
2019/10/16 09:12:00	BASE	12.68	333	15.79	335	0.6	100	0.6	12	0	1001.0	NA	0.0000		9999	490	0	0	0
2019/10/16 09:13:00	BASE	12.40	335	15.79	335	0.6	100	0.6	13	0	1000.9	NA	0.0000		9999	490	0	0	0
2019/10/16 09:14:00	BASE	11.80	337	15.79	335	0.6	100	0.6	13	0	1000.9	NA	0.0000		9999	520	0	0	0
2019/10/16 09:15:00	BASE	11.34	337	15.79	335	0.6	100	0.6	14	0	1000.9	NA	0.0000		9999	490	0	0	0
2019/10/16 09:16:00	BASE	12.06	335	15.79	335	0.6	100	0.6	15	0	1000.9	NA	0.0000		9999	490	0	0	0
2019/10/16 09:17:00	BASE	12.17	334	15.79	335	0.6	100	0.6	16	0	1001.0	NA	0.0000		9999	460	0	0	0
2019/10/16 09:18:00	BASE	11.95	334	14.30	336	0.6	100	0.6	17	0	1001.0	NA	0.0000		9999	490	0	0	0
2019/10/16 09:19:00	BASE	11.96	333	14.30	336	0.6	100	0.6	17	0	1001.0	NA	0.0000		9999	430	0	0	0
2019/10/16 09:20:00	BASE	12.54	334	14.97	340	0.6	100	0.6	18	0	1000.9	NA	0.0000		9999	460	0	0	0
2019/10/16 09:21:00	BASE	13.48	335	14.97	340	0.6	100	0.6	19	0	1000.9	NA	0.0000		9999	390	0	0	0
2019/10/16 09:22:00	BASE	12.92	333	14.97	340	0.6	100	0.6	19	0	1000.9	NA	0.0000		9999	460	0	0	0
2019/10/16 09:23:00	BASE	11.61	333	14.97	340	0.6	100	0.6	20	0	1000.9	NA	0.0000		9999	390	0	0	0
2019/10/16 09:24:00	BASE	11.17	336	14.97	340	0.6	100	0.6	20	0	1000.9	NA	0.0000		9999	430	0	0	0
2019/10/16 09:25:00	BASE	11.20	335	14.97	340	0.6	100	0.6	20	0	1000.9	NA	0.0000		9999	360	0	0	0
2019/10/16 09:26:00	BASE	11.17	334	14.97	340	0.6	100	0.6	21	0	1000.9	NA	0.0000		9999	360	0	0	0
2019/10/16 09:27:00	BASE	11.61	338	14.97	340	0.6	100	0.6	21	0	1000.9	NA	0.0000		9999	460	0	0	0
2019/10/16 09:28:00	BASE	12.26	338	14.97	340	0.6	100	0.6	22	0	1000.9	NA	0.0000		9999	430	0	0	0
2019/10/16 09:29:00	BASE	12.43	336	14.97	340	0.6	100	0.6	23	0	1000.9	NA	0.0000		9999	330	0	0	0
2019/10/16 09:30:00	BASE	11.54	335	14.71	331	0.6	100	0.6	23	0	1000.9	NA	0.0000		9999	460	0	0	0
2019/10/16 09:31:00	BASE	11.34	335	13.63	337	0.6	100	0.6	24	0	1000.9	NA	0.0000		9999	430	0	0	0
2019/10/16 09:32:00	BASE	11.70	337	13.63	337	0.6	100	0.6	24	0	1000.9	NA	0.0000		9999	430	0	0	0
2019/10/16 09:33:00	BASE	12.22	334	14.82	329	0.6	100	0.6	26	0	1000.9	NA	0.0000		9999	390	0	0	0
2019/10/16 09:34:00	BASE	12.79	330	14.82	329	0.6	100	0.6	26	0	1000.9	NA	0.0000		9999	460	0	0	0
2019/10/16 09:35:00	BASE	12.61	329	14.82	329	0.6	100	0.6	26	0	1000.9	NA	0.0000		9999	460	0	0	0
2019/10/16 09:36:00	BASE	11.74	334	14.82	329	0.6	100	0.6	26	0	1000.9	NA	0.0000		9999	390	0	0	0
2019/10/16 09:37:00	BASE	10.84	336	14.82	329	0.6	100	0.6	26	0	1000.9	NA	0.0000		9999	430	0	0	0
2019/10/16 09:38:00	BASE	10.86	336	14.82	329	0.5	100	0.5	27	0	1000.9	NA	0.0000		9999	430	0	0	0
2019/10/16 09:39:00	BASE	11.00	338	14.82	329	0.5	100	0.5	27	0	1000.9	NA	0.0000		9999	390	0	0	0
2019/10/16 09:40:00	BASE	11.25	334	14.82	329	0.5	100	0.5	27	0	1000.9	NA	0.0000		9999	430	0	0	0
2019/10/16 09:41:00	BASE	11.31	332	14.82	329	0.5	100	0.5	27	0	1000.9	NA	0.0000		9999	390	0	0	0
2019/10/16 09:42:00	BASE	11.44	332	14.82	329	0.5	100	0.5	28	0	1000.9	NA	0.0000		9999	360	0	0	0
2019/10/16 09:43:00	BASE	11.23	332	14.82	329	0.5	100	0.5	28	0	1000.9	NA	0.0000		9999	360	0	0	0
2019/10/16 09:44:00	BASE	11.09	332	13.74	320	0.5	100	0.5	28	0	1000.9	NA	0.0000		9999	360	0	0	0
2019/10/16 09:45:00	BASE	12.49	330	14.71	331	0.5	100	0.5	29	0	1000.9	NA	0.0000		9999	360	0	0	0
2019/10/16 09:46:00	BASE	13.53	328	14.71	331	0.5	100	0.5	30	0	1000.9	NA	0.0000		9999	330	0	0	0
2019/10/16 09:47:00	BASE	13.39	329	15.07	328	0.5	100	0.5	31	0	1000.9	NA	0.0000		9999	330	0	0	0
2019/10/16 09:48:00	BASE	13.40	332	15.48	326	0.5	100	0.5	32	0	1000.9	NA	0.0000		9999	360	0	0	0
2019/10/16 09:49:00	BASE	12.69	331	15.48	326	0.5	100	0.5	32	0	1000.9	NA	0.0000		9999	360	0	0	0
2019/10/16 09:50:00	BASE	12.06	326	15.48	326	0.5	100	0.5	33	0	1000.9	NA	0.0000		9999	360	0	0	0
2019/10/16 09:51:00	BASE	11.60	327	15.48	326	0.5	100	0.5	34	0	1000.9	NA	0.0000		9999	360	0	0	0
2019/10/16 09:52:00	BASE	11.11	330	15.48	326	0.5	100	0.5	35	0	1000.9	NA	0.0000		9999	360	0	0	0
2019/10/16 09:53:00	BASE	11.85	329	15.48	326	0.5	100	0.5	36	0	1000.9	NA	0.0000		9999	390	0	0	0
2019/10/16 09:54:00	BASE	12.14	329	15.48	326	0.5	100	0.5	38	0	1000.9	NA	0.0000		9999	390	0	0	0
2019/10/16 09:55:00	BASE	11.67	330	15.48	326	0.5	100	0.5	39	0	1000.9	NA	0.0000		9999	390	1150	0	0
2019/10/16 09:56:00	BASE	11.27	332	15.48	326	0.5	100	0.5	41	0	1000.9	NA	0.0000		9999	520	0	0	0
2019/10/16 09:57:00	BASE	11.81	334	15.48	326	0.5	100	0.5	42	0	1000.8	NA	0.0000		9999	490	0	0	0
2019/10/16 09:58:00	BASE	12.16	334	14.04	318	0.5	100	0.5	43	0	1000.8	NA	0.0000		9999	660	0	0	0
2019/10/16 09:59:00	BASE	11.42	335	13.58	329	0.5	100	0.5	44	0	1000.8	NA	0.0000		9999	620	1020	0	0
2019/10/16 10:00:00	BASE	10.56	335	13.58	329	0.5	100	0.5	44	0	1000.8	NA	0.0000		9999	690	1440	0	0
2019/10/16 10:01:00	BASE	10.31	334	13.58	329	0.5	100	0.5	44	0	1000.8	NA	0.0000		9999	660	0	0	0
2019/10/16 10:02:00	BASE	10.15	333	13.58	329	0.5	100	0.5	45	0	1000.8	NA	0.0000		9999	690	1510	0	0
2019/10/16 10:03:00	BASE	10.22	331	13.38	333	0.5	100	0.5	46	0	1000.8	NA	0.0000		9999	690	1440	0	0
2019/10/16 10:04:00	BASE	11.02	331	13.38	333	0.5	100	0.5	47	0	1000.7	NA	0.0000		9999	620	1480	0	0
2019/10/16 10:05:00	BASE	11.52	332	13.38	333	0.5	100	0.5	48	0	1000.7	NA	0.0000		9999	850	1480	0	0
2019/10/16 10:06:00	BASE	12.02	332	14.15	330	0.5	100	0.5	49	0	1000.7	NA	0.0000		9999	1480	0	0	0
2019/10/16 10:07:00	BASE	12.29	332	14.15	330	0.5	100	0.5	50	0	1000.7	NA	0.0000		9999	1480	0	0	0
2019/10/16 10:08:00	BASE	12.71	330	14.15	330	0.5	100	0.5	51	0	1000.7	NA	0.0000		9999	1570	0	0	0
2019/10/16 10:09:00	BASE	12.93	330	14.15	330	0.5	100	0.5	52	0	1000.7	NA	0.0000		9999	1610	0	0	0
2019/10/16 10:10:00	BASE	12.42	331	14.15	330	0.5	100	0.5	54	0	1000.8	NA	0.0000		9999	790	1610	0	0
2019/10/16 10:11:00	BASE	11.86	331	14.15	330	0.6	100	0.6	56	0	1000.7	NA	0.0000		9999	790	1610	0	0
2019/10/16 10:12:00	BASE	12.08	331	14.15	330	0.6	100	0.6	58	0	1000.7	NA	0.0000		9999	1570	0	0	0
2019/10/16 10:13:00	BASE	12.25	330	14.15	330	0.6	100	0.6	60	0	1000.7	NA	0.0000		9999	690	1570	0	0
2019/10/16 10:14:00	BASE	11.97	327	14.15	330	0.6	100	0.6	61	0	1000.7	NA	0.0000		9999	690	1610	0	0
2019/10/16 10:15:00	BASE	11.97	325	14.15	330	0.6	100	0.6	61	0	1000.7	NA	0.0000		9999	720	1710	0	0
2019/10/16 10:16:00	BASE	11.66	325	14.04	334	0.6	100	0.6	62	0	1000.8	NA	0.0000		9999	690	1740	0	0
2019/10/16 10:17:00	BASE	11.03	325	13.94	332	0.6	100	0.6	63	0	1000.8	NA	0.0000		9999	750	1770	0	0
2019/10/16 10:18:00	BASE	10.35	326	13.94	332	0.6	100	0.6	64	0	1000.8	NA	0.0000		9999	690	1840	0	0
2019/10/16 10:19:00	BASE	11.01	327	13.68	330	0.6	100	0.6	65	0	1000.8	NA	0.0000		9999	620	1840	0	0
2019/10/16 10:20:00	BASE	12.14	326	13.68	330	0.6	100	0.6	66	0	1000.8	NA	0.0000		9999	590	1870	0	0
2019/10/16 10:21:00	BASE	12.33	326	13.68	330	0.6	100	0.6	68	0	1000.7	NA	0.0000		9999	690	1840	0	0
2019/10/16 10:22:00	BASE	12.59	327	13.74	328	0.6	100	0.6	71	0	1000.7	NA	0.0000		9999	750	1870	0	0
2019/10/16 10:23:00	BASE	12.68	327	14.04	321	0.5	100	0.5	73	0	1000.7	NA	0.0000		9999	660	1870	0	0
2019/10/16 10:24:00	BASE	12.94	328	15.18	330	0.5	100	0.5	75	0	1000.7	NA	0.0000		9999	1940	0	0	0
2019/10/16 10:25:00	BASE	13.67	331	15.18	330	0.5	100	0.5	78	0	1000.6	NA	0.0000		9999	690	1970	0	0
2019/10/16 10:26:00	BASE	13.76	331	15.18	330	0.5	100	0.5	81	0	1000.7	NA	0.0000		9999	1970	0	0	0
2019/10/16 10:27:00	BASE	13.98	329	15.64	326	0.6	100	0.6	82	0	1000.7	NA	0.0000		9999	690	2070	0	0
2019/10/16 10:28:00	BASE	13.49	330	15.64	326	0.6	100	0.6	82	0	1000.7	NA	0.0000		9999	690	2070	0	0
2019/10/16 10:29:00	BASE	11.97	333	15.64	326	0.6	100	0.6	82	0	1000.7	NA	0.0000		9999	660	0	0	0
2019/10/16 10:30:00	BASE	11.94	336	15.64	326	0.6	100	0.6	81	0	1000.7	NA	0.0000		9999	620	0	0	0
2019/10/16 10:31:00	BASE	12.00	337	15.64	326	0.6	100	0.6	78	0	1000.7	NA	0.0000		9999	590	23720	0	0
2019/10/16 10:32:00	BASE	11.56	338	15.64	326	0.6	100	0.6	76	0	1000.7	NA	0.0000		9999	620	0	0	0
2019/10/16 10:33:00	BASE	12.60	338	15.64	326	0.6	100	0.5	77	0	1000.7	NA	0.0000		9999	520	0	0	0
2019/10/16 10:34:00	BASE	12.83	337	15.64	326	0.5	100	0.5	79	0	1000.7	NA	0.0000		9999	490	0	0	0
2019/10/16 10:35:00	BASE	12.39	334	15.64	326	0.5	100	0.5	81	0	1000.7	NA	0.0000		9999	520	0	0	0
2019/10/16 10:36:00	BASE	13.86	332	16.05	330	0.5	100	0.5	82	0	1000.6	NA	0.0000		9999	520	0	0	0
2019/10/16 10:37:00	BASE	14.34	331	16.05	330	0.5	100	0.5	84	0	1000.7	NA	0.0000		9999	520	0	0	0
2019/10/16 10:38:00	BASE	12.65	335	16.05	330	0.5	100	0.5	85	0	1000.7	NA	0.0000		9999	460	0	0	0
2019/10/16 10:39:00	BASE	11.76	338	16.05	330	0.5	100	0.5	87	0	1000.7	NA	0.0000		9999	490	0	0	0
2019/10/16 10:40:00	BASE	12.02	336	16.05	330	0.5	100	0.5	89	0	1000.7	NA	0.0000		9999	460	0	0	0
2019/10/16 10:41:00	BASE	12.37	335	16.05	330	0.5	100	0.5	89	0	1000.7	NA	0.0000		9999	460	0	0	0
2019/10/16 10:42:00	BASE	13.26	333	16.05	330	0.5	100	0.5	91	0	1000.7	NA	0.0000		9999	390	0	0	0
2019/10/16 10:43:00	BASE	14.21	331	16.05	330	0.5	100	0.5	94	0	1000.7	NA	0.0000		9999	490	0	0	0
2019/10/16 10:44:00	BASE	13.49	333	16.05	330	0.5	100	0.5	95	0	1000.7	NA	0.0000		9999	430	0	0	0
2019/10/16 10:45:00	BASE	11.71	336	16.05	330	0.4	100	0.4	97	0	1000.8	NA	0.0000		9999	490	0	0	0
2019/10/16 10:46:00	BASE	11.97	339	15.95	329	0.4	100	0.4	102	0	1000.7	NA	0.0000		9999	430	0	0	0
2019/10/16 10:47:00	BASE	13.22	340	15.95	329	0.4	100	0.4	104	0	1000.7	NA	0.0000		9999	490	2850	0	0
2019/10/16 10:48:00	BASE	12.83	340	15.95	329	0.4	100	0.4	107	0	1000.7	NA	0.0000		9999	460	0	0	0
2019/10/16 10:49:00	BASE	12.75	340	15.95	329	0.4	100	0.4	109	0	1000.7	NA	0.0000		9999	460	0	0	0
2019/10/16 10:50:00	BASE	12.75	340	15.95	329	0.4	100	0.4	111	0	1000.7	NA	0.0000		9999	430	0	0	0
2019/10/16 10:51:00	BASE	12.57	338	15.95	329	0.4	100	0.4	112	0	1000.7	NA	0.0000		9999	460	0	0	0
2019/10/16 10:52:00	BASE	12.50	335	15.84	329	0.4	100	0.4	113	0	1000.7	NA	0.0000		9999	520	0	0	0
2019/10/16 10:53:00	BASE	11.91	337	14.66	340	0.4	100	0.4	113	0	1000.7	NA	0.0000		9999	490	0	0	0
2019/10/16 10:54:00	BASE	11.34	337	14.66	340	0.4	100	0.4	112	0	1000.7	NA	0.0000		9999	520	0	0	0
2019/10/16 10:55:00	BASE	11.31	338	14.66	340	0.4	100	0.4	112	0	1000.7	NA	0.0000		9999	490	0	0	0
2019/10/16 10:56:00	BASE	11.92	338	14.15	339	0.4	100	0.4	114	0	1000.7	NA	0.0000		9999	490	0	0	0
2019/10/16 10:57:00	BASE	11.69	337	14.15	339	0.4	100	0.4	115	0	1000.7	NA	0.0000		9999	520	0	0	0
2019/10/16 10:58:00	BASE	11.64	337	14.15	339	0.4	100	0.4	117	0	1000.7	NA	0.0000		9999	490	0	0	0
2019/10/16 10:59:00	BASE	12.34	338	13.84	339	0.4	100	0.4	115	0	1000.8	NA	0.0000		9999	490	0	0	0
2019/10/16 11:00:00	BASE	12.19	338	13.84	339	0.5	100	0.5	114	0	1000.8	NA	0.0000		9999	520	0	0	0
2019/10/16 11:01:00	BASE	12.23	339	13.74	338	0.5	100	0.5	114	0	1000.8	NA	0.0000		9999	520	0	0	0
2019/10/16 11:02:00	BASE	12.63	340	13.74	338	0.5	100	0.5	113	0	1000.8	NA	0.0000		9999	490	0	0	0
2019/10/16 11:03:00	BASE	12.54	340	13.74	338	0.5	100	0.5	112	0	1000.8	NA	0.0000		9999	560	0	0	0
2019/10/16 11:04:00	BASE	12.63	338	13.74	338	0.5	100	0.5	110	0	1000.8	NA	0.0000		9999	560	0	0	0
2019/10/16 11:05:00	BASE	12.43	338	13.74	338	0.5	100	0.5	110	0	1000.8	NA	0.0000		9999	520	0	0	0
2019/10/16 11:06:00	BASE	11.93	339	13.74	338	0.5	100	0.5	110	0	1000.8	NA	0.0000		9999	520	0	0	0
2019/10/16 11:07:00	BASE	11.85	341	13.74	338	0.5	100	0.5	110	0	1000.8	NA	0.0000		9999	460	0	0	0
2019/10/16 11:08:00	BASE	11.86	342	13.74	338	0.4	100	0.4	111	0	1000.8	NA	0.0000		9999	520	0	0	0
2019/10/16 11:09:00	BASE	11.26	343	13.74	338	0.4	100	0.4	114	0	1000.8	NA	0.0000		9999	460	0	0	0
2019/10/16 11:10:00	BASE	11.24	342	13.74	338	0.4	100	0.4	116	0	1000.8	NA	0.0000		9999	490	0	0	0
2019/10/16 11:11:00	BASE	11.75	339	13.68	341	0.4	100	0.4	118	0	1000.8	NA	0.0000		9999	520	0	0	0
2019/10/16 11:12:00	BASE	11.76	339	13.68	341	0.4	100	0.4	120	0	1000.8	NA	0.0000		9999	460	0	0	0
2019/10/16 11:13:00	BASE	11.62	341	13.68	341	0.4	100	0.4	122	0	1000.7	NA	0.0000		9999	460	1350	0	0
2019/10/16 11:14:00	BASE	12.07	341	13.53	340	0.4	100	0.4	119	0	1000.7	NA	0.0000		9999	620	1380	0	0
2019/10/16 11:15:00	BASE	12.42	338	13.48	341	0.4	100	0.4	120	0	1000.7	NA	0.0000		9999	520	0	0	0
2019/10/16 11:16:00	BASE	11.70	340	13.48	341	0.4	100	0.4	124	0	1000.7	NA	0.0000		9999	490	0	0	0
2019/10/16 11:17:00	BASE	11.21	342	13.48	341	0.4	100	0.4	125	0	1000.7	NA	0.0000		9999	560	1480	0	0
2019/10/16 11:18:00	BASE	10.85	341	13.48	341	0.4	100	0.4	126	0	1000.7	NA	0.0000		9999	520	0	0	0
2019/10/16 11:19:00	BASE	11.24	341	13.74	331	0.4	100	0.4	128	0	1000.7	NA	0.0000		9999	490	0	0	0
2019/10/16 11:20:00	BASE	12.36	339	13.94	336	0.4	100	0.4	130	0	1000.7	NA	0.0000		9999	490	0	0	0
2019/10/16 11:21:00	BASE	12.54	338	13.94	336	0.4	100	0.4	133	0	1000.7	NA	0.0000		9999	460	0	0	0
2019/10/16 11:22:00	BASE	11.76	338	13.94	336	0.4	100	0.4	135	0	1000.7	NA	0.0000		9999	460	0	0	0
2019/10/16 11:23:00	BASE	11.13	341	13.94	336	0.4	100	0.4	139	0	1000.7	NA	0.0000		9999	460	1310	0	0
2019/10/16 11:24:00	BASE	10.86	342	13.94	336	0.4	100	0.4	142	0	1000.7	NA	0.0000		9999	430	1350	0	0
2019/10/16 11:25:00	BASE	10.77	343	13.94	336	0.4	100	0.4	146	0	1000.7	NA	0.0000		9999	430	0	0	0
2019/10/16 11:26:00	BASE	11.04	342	13.94	336	0.4	100	0.4	147	0	1000.7	NA	0.0000		9999	430	0	0	0
2019/10/16 11:27:00	BASE	11.30	341	13.94	336	0.4	100	0.4	149	0	1000.7	NA	0.0000		9999	430	0	0	0
2019/10/16 11:28:00	BASE	11.34	339	13.94	336	0.4	100	0.4	150	0	1000.7	NA	0.0000		9999	390	21390	0	0
2019/10/16 11:29:00	BASE	11.81	338	13.94	336	0.4	100	0.4	151	0	1000.7	NA	0.0000		9999	390	0	0	0
2019/10/16 11:30:00	BASE	11.76	339	13.84	336	0.4	100	0.4	153	0	1000.7	NA	0.0000		9999	390	0	0	0
2019/10/16 11:31:00	BASE	10.95	341	13.84	336	0.4	100	0.4	154	0	1000.7	NA	0.0000		9999	430	0	0	0
2019/10/16 11:32:00	BASE	11.21	341	13.84	336	0.4	100	0.4	153	0	1000.7	NA	0.0000		9999	520	0	0	0
2019/10/16 11:33:00	BASE	11.72	341	13.84	336	0.4	100	0.4	150	0	1000.7	NA	0.0000		9999	490	0	0	0
2019/10/16 11:34:00	BASE	10.96	342	13.84	336	0.4	100	0.4	148	0	1000.7	NA	0.0000		9999	520	0	0	0
2019/10/16 11:35:00	BASE	10.63	342	13.84	336	0.4	100	0.4	147	0	1000.6	NA	0.0000		9999	520	0	0	0
2019/10/16 11:36:01	BASE	11.75	341	14.04	339	0.4	100	0.4	145	0	1000.5	NA	0.0000		9999	560	0	0	0
2019/10/16 11:37:01	BASE	12.22	341	14.04	339	0.4	100	0.4	142	0	1000.5	NA	0.0000		9999	560	0	0	0
2019/10/16 11:38:01	BASE	12.09	342	14.04	339	0.4	100	0.4	141	0	1000.6	NA	0.0000		9999	490	0	0	0
2019/10/16 11:39:01	BASE	12.04	341	14.04	339	0.4	100	0.4	138	0	1000.7	NA	0.0000		9999	490	0	0	0
2019/10/16 11:40:01	BASE	11.87	337	14.25	331	0.4	100	0.4	137	0	1000.7	NA	0.0000		9999	490	0	0	0
2019/10/16 11:41:01	BASE	11.83	334	14.25	331	0.4	100	0.4	135	0	1000.7	NA	0.0000		9999	490	0	0	0
2019/10/16 11:42:01	BASE	11.79	334	14.25	331	0.4	100	0.4	136	0	1000.7	NA	0.0000		9999	490	0	0	0
2019/10/16 11:43:01	BASE	11.13	335	14.25	331	0.4	100	0.4	137	0	1000.7	NA	0.0000		9999	490	0	0	0
2019/10/16 11:44:01	BASE	11.09	337	14.25	331	0.4	100	0.4	139	0	1000.7	NA	0.0000		9999	460	0	0	0
2019/10/16 11:45:01	BASE	11.49	338	14.25	331	0.4	100	0.4	141	0	1000.7	NA	0.0000		9999	490	0	0	0
2019/10/16 11:46:01	BASE	12.03	338	14.76	331	0.4	100	0.4	141	0	1000.6	NA	0.0000		9999	490	0	0	0
2019/10/16 11:47:01	BASE	13.04	335	14.76	331	0.4	100	0.4	141	0	1000.6	NA	0.0000		9999	390	0	0	0
2019/10/16 11:48:01	BASE	12.86	333	14.76	331	0.4	100	0.4	144	0	1000.7	NA	0.0000		9999	460	0	0	0
2019/10/16 11:49:01	BASE	12.07	333	14.76	331	0.4	100	0.4	149	0	1000.7	NA	0.0000		9999	360	0	0	0
2019/10/16 11:50:01	BASE	11.64	333	14.76	331	0.4	100	0.4	151	0	1000.7	NA	0.0000		9999	390	0	0	0
2019/10/16 11:51:01	BASE	12.50	333	14.92	332	0.4	100	0.4	152	0	1000.7	NA	0.0000		9999	390	0	0	0
2019/10/16 11:52:01	BASE	13.29	334	14.92	332	0.4	100	0.4	157	0	1000.7	NA	0.0000		9999	360	0	0	0
2019/10/16 11:53:01	BASE	13.31	334	14.92	332	0.4	100	0.4	160	0	1000.7	NA	0.0000		9999	390	0	0	0
2019/10/16 11:54:01	BASE	13.17	337	14.92	332	0.4	100	0.4	165	0	1000.7	NA	0.0000		9999	360	0	0	0
2019/10/16 11:55:01	BASE	13.51	340	14.97	335	0.4	100	0.4	165	0	1000.7	NA	0.0000		9999	390	0	0	0
2019/10/16 11:56:01	BASE	13.47	340	14.97	335	0.4	100	0.4	167	0	1000.7	NA	0.0000		9999	360	0	0	0
2019/10/16 11:57:01	BASE	12.95	342	14.97	335	0.4	100	0.4	171	0	1000.7	NA	0.0000		9999	360	0	0	0
2019/10/16 11:58:01	BASE	13.45	344	14.97	335	0.4	100	0.4	175	0	1000.6	NA	0.0000		9999	430	0	0	0
2019/10/16 11:59:01	BASE	13.57	344	14.97	335	0.4	100	0.4	177	0	1000.7	NA	0.0000		9999	390	0	0	0
2019/10/16 12:00:01	BASE	12.70	343	14.97	335	0.4	100	0.4	179	0	1000.7	NA	0.0000		9999	330	0	0	0
2019/10/16 12:01:01	BASE	12.13	344	14.97	335	0.4	100	0.4	180	0	1000.7	NA	0.0000		9999	360	0	0	0
2019/10/16 12:02:01	BASE	12.55	343	14.97	335	0.4	100	0.4	179	0	1000.7	NA	0.0000		9999	460	0	0	0
2019/10/16 12:03:01	BASE	13.19	342	14.97	335	0.4	100	0.4	184	0	1000.7	NA	0.0000		9999	430	0	0	0
2019/10/16 12:04:01	BASE	13.01	342	14.97	335	0.4	100	0.4	187	0	1000.7	NA	0.0000		9999	390	20050	0	0
2019/10/16 12:05:01	BASE	12.22	341	14.71	341	0.4	100	0.4	191	0	1000.6	NA	0.0000		9999	430	0	0	0
2019/10/16 12:06:01	BASE	12.30	342	14.71	341	0.4	100	0.4	190	0	1000.6	NA	0.0000		9999	490	0	0	0
2019/10/16 12:07:01	BASE	12.55	340	14.71	341	0.4	100	0.4	190	0	1000.6	NA	0.0000		9999	460	0	0	0
2019/10/16 12:08:01	BASE	12.00	339	14.71	341	0.4	100	0.4	190	0	1000.7	NA	0.0000		9999	430	0	0	0
2019/10/16 12:09:01	BASE	12.19	345	14.71	341	0.4	100	0.4	191	0	1000.6	NA	0.0000		9999	390	0	0	0
2019/10/16 12:10:01	BASE	11.94	345	14.71	341	0.4	100	0.4	192	0	1000.7	NA	0.0000		9999	360	0	0	0
2019/10/16 12:11:01	BASE	11.43	342	14.71	341	0.4	100	0.4	190	0	1000.7	NA	0.0000		9999	360	0	0	0
2019/10/16 12:12:01	BASE	12.23	341	14.71	341	0.4	100	0.4	186	0	1000.7	NA	0.0000		9999	390	0	0	0
2019/10/16 12:13:01	BASE	12.41	340	14.20	346	0.4	100	0.4	180	0	1000.7	NA	0.0000		9999	360	0	0	0
2019/10/16 12:14:01	BASE	12.34	341	14.20	346	0.3	100	0.3	174	0	1000.7	NA	0.0000		9999	330	0	0	0
2019/10/16 12:15:01	BASE	12.55	343	14.20	346	0.3	100	0.3	168	0	1000.7	NA	0.0000		9999	330	0	0	0
2019/10/16 12:16:01	BASE	12.46	343	14.20	346	0.3	100	0.3	164	0	1000.8	NA	0.0000		9999	330	0	0	0
2019/10/16 12:17:01	BASE	12.13	340	14.20	346	0.3	100	0.3	161	0	1000.7	NA	0.0000		9999	360	0	0	0
2019/10/16 12:18:01	BASE	12.09	341	14.20	346	0.3	100	0.3	159	0	1000.7	NA	0.0000		9999	360	0	0	0
2019/10/16 12:19:00	BASE	11.87	342	13.74	346	0.3	100	0.3	158	0	1000.7	NA	0.0000		9999	330	0	0	0
2019/10/16 12:20:01	BASE	12.06	342	14.82	345	0.3	100	0.3	162	0	1000.7	NA	0.0000		9999	360	0	0	0
2019/10/16 12:21:00	BASE	12.69	344	14.82	345	0.3	100	0.3	167	0	1000.7	NA	0.0000		9999	360	0	0	0
2019/10/16 12:22:00	BASE	13.10	344	14.82	345	0.3	100	0.3	173	0	1000.7	NA	0.0000		9999	390	0	0	0
2019/10/16 12:23:01	BASE	13.16	342	14.82	345	0.3	100	0.3	176	0	1000.7	NA	0.0000		9999	390	0	0	0
2019/10/16 12:24:01	BASE	13.13	342	14.82	345	0.4	100	0.4	178	0	1000.7	NA	0.0000		9999	360	0	0	0
2019/10/16 12:25:00	BASE	13.25	343	14.82	345	0.4	100	0.4	180	0	1000.7	NA	0.0000		9999	330	0	0	0
2019/10/16 12:26:01	BASE	12.54	343	14.82	345	0.4	100	0.4	181	0	1000.7	NA	0.0000		9999	390	0	0	0
2019/10/16 12:27:00	BASE	11.90	342	14.82	345	0.4	100	0.4	182	0	1000.6	NA	0.0000		9999	360	21360	0	0
2019/10/16 12:28:00	BASE	11.90	342	14.82	345	0.4	100	0.4	181	0	1000.6	NA	0.0000		9999	360	0	0	0
2019/10/16 12:29:00	BASE	12.17	341	14.82	345	0.3	100	0.3	180	0	1000.6	NA	0.0000		9999	360	0	0	0
2019/10/16 12:30:00	BASE	11.86	341	14.15	343	0.3	100	0.3	179	0	1000.6	NA	0.0000		9999	330	0	0	0
2019/10/16 12:31:00	BASE	11.67	343	14.15	343	0.3	100	0.3	178	0	1000.6	NA	0.0000		9999	430	0	0	0
2019/10/16 12:32:01	BASE	12.27	343	14.15	343	0.3	100	0.3	178	0	1000.6	NA	0.0000		9999	430	0	0	0
2019/10/16 12:33:00	BASE	12.39	341	14.15	343	0.3	100	0.3	180	0	1000.6	NA	0.0000		9999	360	0	0	0
2019/10/16 12:34:01	BASE	12.08	342	13.84	345	0.3	100	0.3	188	0	1000.5	NA	0.0000		9999	330	0	0	0
2019/10/16 12:35:00	BASE	11.56	343	13.68	346	0.3	100	0.3	196	0	1000.5	NA	0.0000		9999	360	0	0	0
2019/10/16 12:36:00	BASE	11.02	342	13.68	346	0.3	100	0.3	204	0	1000.5	NA	0.0000		9999	330	0	0	0
2019/10/16 12:37:00	BASE	11.12	342	13.68	346	0.3	100	0.3	211	0	1000.5	NA	0.0000		9999	330	0	0	0
2019/10/16 12:38:00	BASE	11.06	341	13.68	346	0.3	100	0.3	215	0	1000.5	NA	0.0000		9999	300	0	0	0
2019/10/16 12:39:00	BASE	11.54	342	14.30	346	0.4	100	0.4	217	0	1000.4	NA	0.0000		9999	330	0	0	0
2019/10/16 12:40:01	BASE	12.44	342	14.30	346	0.4	100	0.4	221	0	1000.4	NA	0.0000		9999	360	0	0	0
2019/10/16 12:41:00	BASE	12.60	342	14.30	346	0.4	100	0.4	224	0	1000.4	NA	0.0000		9999	360	0	0	0
2019/10/16 12:42:00	BASE	12.34	339	14.30	346	0.4	100	0.4	225	0	1000.5	NA	0.0000		9999	360	0	0	0
2019/10/16 12:43:00	BASE	11.95	336	14.30	346	0.4	100	0.4	223	0	1000.5	NA	0.0000		9999	360	0	0	0
2019/10/16 12:44:00	BASE	11.59	336	14.30	346	0.4	100	0.4	221	0	1000.5	NA	0.0000		9999	360	22110	0	0
2019/10/16 12:45:00	BASE	11.36	338	14.30	346	0.4	100	0.4	221	0	1000.5	NA	0.0000		9999	360	0	0	0
2019/10/16 12:46:00	BASE	11.65	338	14.30	346	0.4	100	0.4	223	0	1000.5	NA	0.0000		9999	300	0	0	0
2019/10/16 12:47:00	BASE	11.33	337	14.30	346	0.4	100	0.4	221	0	1000.5	NA	0.0000		9999	330	0	0	0
2019/10/16 12:48:00	BASE	10.49	337	14.30	346	0.4	100	0.4	221	0	1000.5	NA	0.0000		9999	330	0	0	0
2019/10/16 12:49:00	BASE	10.01	339	13.79	340	0.4	100	0.4	221	0	1000.4	NA	0.0000		9999	330	0	0	0
2019/10/16 12:50:00	BASE	10.32	339	13.38	339	0.4	100	0.4	219	0	1000.5	NA	0.0000		9999	330	0	0	0
2019/10/16 12:51:00	BASE	10.21	339	13.07	337	0.4	100	0.4	220	0	1000.5	NA	0.0000		9999	330	0	0	0
2019/10/16 12:52:00	BASE	9.88	342	13.07	337	0.4	100	0.4	224	0	1000.5	NA	0.0000		9999	360	20470	0	0
2019/10/16 12:53:00	BASE	10.59	343	13.07	337	0.4	100	0.4	228	0	1000.5	NA	0.0000		9999	360	0	0	0
2019/10/16 12:54:00	BASE	10.52	343	13.07	337	0.4	100	0.4	231	0	1000.5	NA	0.0000		9999	360	0	0	0
2019/10/16 12:55:01	BASE	9.77	345	12.86	344	0.4	100	0.4	233	0	1000.5	NA	0.0000		9999	360	0	0	0
2019/10/16 12:56:01	BASE	9.49	344	12.86	344	0.4	100	0.4	232	0	1000.5	NA	0.0000		9999	390	0	0	0
2019/10/16 12:57:01	BASE	9.64	344	12.86	344	0.4	100	0.4	231	0	1000.5	NA	0.0000		9999	390	0	0	0
2019/10/16 12:58:01	BASE	10.51	344	12.86	344	0.5	100	0.5	229	0	1000.5	NA	0.0000		9999	390	0	0	0
2019/10/16 12:59:01	BASE	11.24	341	12.86	344	0.5	100	0.5	224	0	1000.5	NA	0.0000		9999	520	0	0	0
2019/10/16 13:00:01	BASE	10.50	338	12.86	344	0.5	100	0.5	220	0	1000.5	NA	0.0000		9999	430	0	0	0
2019/10/16 13:01:01	BASE	9.78	336	12.86	344	0.5	100	0.5	220	0	1000.5	NA	0.0000		9999	460	0	0	0
2019/10/16 13:02:01	BASE	9.42	334	12.86	344	0.5	100	0.5	223	0	1000.5	NA	0.0000		9999	390	0	0	0
2019/10/16 13:03:01	BASE	9.25	334	12.24	341	0.5	100	0.5	225	0	1000.5	NA	0.0000		9999	390	0	0	0
2019/10/16 13:04:01	BASE	9.28	335	12.24	341	0.4	100	0.4	225	0	1000.5	NA	0.0000		9999	390	0	0	0
2019/10/16 13:05:01	BASE	8.74	335	12.24	341	0.4	100	0.4	233	0	1000.5	NA	0.0000		9999	360	0	0	0
2019/10/16 13:06:01	BASE	8.67	332	12.24	341	0.4	100	0.4	236	0	1000.5	NA	0.0000		9999	390	0	0	0
2019/10/16 13:07:01	BASE	8.76	335	12.24	341	0.4	100	0.4	241	0	1000.5	NA	0.0000		9999	360	0	0	0
2019/10/16 13:08:01	BASE	9.16	338	12.45	336	0.4	100	0.4	247	0	1000.5	NA	0.0000		9999	330	0	0	0
2019/10/16 13:09:01	BASE	10.70	339	12.86	345	0.4	100	0.4	249	0	1000.4	NA	0.0000		9999	330	0	0	0
2019/10/16 13:10:01	BASE	11.63	341	13.17	337	0.4	100	0.4	245	0	1000.4	NA	0.0000		9999	330	0	0	0
2019/10/16 13:11:01	BASE	11.90	341	13.17	337	0.4	100	0.4	244	0	1000.4	NA	0.0000		9999	360	0	0	0
2019/10/16 13:12:01	BASE	12.02	341	13.17	337	0.4	100	0.4	247	0	1000.4	NA	0.0000		9999	360	0	0	0
2019/10/16 13:13:00	BASE	12.04	340	13.17	337	0.4	100	0.4	245	0	1000.4	NA	0.0000		9999	390	0	0	0
2019/10/16 13:14:01	BASE	11.59	341	13.17	337	0.5	100	0.5	245	0	1000.4	NA	0.0000		9999	490	0	0	0
2019/10/16 13:15:01	BASE	10.49	340	13.17	337	0.5	100	0.5	249	0	1000.4	NA	0.0000		9999	690	0	0	0
2019/10/16 13:16:00	BASE	10.25	338	13.17	337	0.5	100	0.5	254	0	1000.4	NA	0.0000		9999	750	0	0	0
2019/10/16 13:17:00	BASE	10.64	336	13.17	337	0.5	100	0.5	256	0	1000.4	NA	0.0000		9999	520	0	0	0
2019/10/16 13:18:01	BASE	11.02	337	13.17	337	0.5	100	0.5	259	0	1000.4	NA	0.0000		9999	360	0	0	0
2019/10/16 13:19:00	BASE	10.56	339	13.17	337	0.5	100	0.5	264	0	1000.4	NA	0.0000		9999	390	0	0	0
2019/10/16 13:20:01	BASE	10.65	337	13.02	341	0.5	100	0.5	267	0	1000.4	NA	0.0000		9999	430	0	0	0
2019/10/16 13:21:00	BASE	11.14	335	13.02	341	0.5	100	0.5	267	0	1000.4	NA	0.0000		9999	490	22510	0	0
2019/10/16 13:22:00	BASE	11.06	336	13.02	341	0.5	100	0.5	268	0	1000.4	NA	0.0000		9999	560	21360	0	0
2019/10/16 13:23:00	BASE	11.19	336	12.71	335	0.5	100	0.5	268	0	1000.4	NA	0.0000		9999	720	0	0	0
2019/10/16 13:24:00	BASE	11.23	337	12.71	335	0.5	100	0.5	269	0	1000.4	NA	0.0000		9999	620	23100	0	0
2019/10/16 13:25:00	BASE	11.99	336	13.84	337	0.5	100	0.5	266	0	1000.3	NA	0.0000		9999	690	0	0	0
2019/10/16 13:26:00	BASE	12.13	335	13.84	337	0.6	100	0.6	267	0	1000.4	NA	0.0000		9999	690	0	0	0
2019/10/16 13:27:00	BASE	12.31	336	14.15	332	0.6	100	0.6	266	0	1000.4	NA	0.0000		9999	660	0	0	0
2019/10/16 13:28:00	BASE	13.04	338	14.56	336	0.6	100	0.6	266	0	1000.4	NA	0.0000		9999	430	0	0	0
2019/10/16 13:29:00	BASE	12.76	335	14.56	336	0.6	100	0.6	276	0	1000.4	NA	0.0000		9999	390	0	0	0
2019/10/16 13:30:00	BASE	11.97	334	14.56	336	0.6	100	0.6	282	0	1000.4	NA	0.0000		9999	460	0	0	0
2019/10/16 13:31:00	BASE	11.87	337	14.56	336	0.6	100	0.6	288	0	1000.4	NA	0.0000		9999	690	0	0	0
2019/10/16 13:32:00	BASE	12.72	338	14.56	336	0.6	100	0.6	286	0	1000.4	NA	0.0000		9999	660	0	0	0
2019/10/16 13:33:00	BASE	13.13	338	14.56	336	0.6	100	0.6	278	0	1000.4	NA	0.0000		9999	620	0	0	0
2019/10/16 13:34:00	BASE	12.40	338	14.56	336	0.6	100	0.6	273	0	1000.4	NA	0.0000		9999	720	0	0	0
2019/10/16 13:35:00	BASE	11.59	337	14.56	336	0.6	100	0.6	273	0	1000.4	NA	0.0000		9999	690	0	0	0
2019/10/16 13:36:00	BASE	12.02	336	14.56	336	0.6	100	0.6	280	0	1000.4	NA	0.0000		9999	690	0	0	0
2019/10/16 13:37:00	BASE	12.54	336	14.56	336	0.6	100	0.6	284	0	1000.4	NA	0.0000		9999	720	0	0	0
2019/10/16 13:38:00	BASE	12.66	339	14.20	344	0.6	100	0.6	286	0	1000.4	NA	0.0000		9999	720	0	0	0
2019/10/16 13:39:00	BASE	12.78	340	14.20	344	0.5	100	0.5	285	0	1000.3	NA	0.0000		9999	660	0	0	0
2019/10/16 13:40:00	BASE	12.49	338	14.20	344	0.5	100	0.5	285	0	1000.3	NA	0.0000		9999	720	0	0	0
2019/10/16 13:41:00	BASE	12.32	337	14.20	344	0.5	100	0.5	294	0	1000.3	NA	0.0000		9999	690	0	0	0
2019/10/16 13:42:00	BASE	12.19	337	14.20	344	0.5	100	0.5	305	0	1000.3	NA	0.0000		9999	750	0	0	0
2019/10/16 13:43:00	BASE	12.02	336	14.20	344	0.5	100	0.5	313	0	1000.3	NA	0.0000		9999	720	0	0	0
2019/10/16 13:44:00	BASE	12.06	335	14.20	344	0.5	100	0.5	312	0	1000.3	NA	0.0000		9999	720	0	0	0
2019/10/16 13:45:00	BASE	11.69	336	14.20	344	0.5	100	0.5	307	0	1000.3	NA	0.0000		9999	690	0	0	0
2019/10/16 13:46:00	BASE	11.07	336	14.20	344	0.5	100	0.5	299	0	1000.3	NA	0.0000		9999	720	0	0	0
2019/10/16 13:47:00	BASE	10.97	335	14.20	344	0.5	100	0.5	288	0	1000.3	NA	0.0000		9999	790	22570	0	0
2019/10/16 13:48:00	BASE	11.33	337	13.84	335	0.5	100	0.5	283	0	1000.3	NA	0.0000		9999	720	0	0	0
2019/10/16 13:49:00	BASE	11.60	336	13.84	335	0.5	100	0.5	280	0	1000.3	NA	0.0000		9999	720	0	0	0
2019/10/16 13:50:00	BASE	11.46	335	13.53	337	0.5	100	0.5	274	0	1000.3	NA	0.0000		9999	720	0	0	0
2019/10/16 13:51:00	BASE	11.81	335	13.07	338	0.5	100	0.5	272	0	1000.2	NA	0.0000		9999	720	0	0	0
2019/10/16 13:52:00	BASE	12.08	335	13.07	338	0.5	100	0.5	273	0	1000.3	NA	0.0000		9999	720	0	0	0
2019/10/16 13:53:00	BASE	11.79	336	13.07	338	0.5	100	0.5	274	0	1000.2	NA	0.0000		9999	620	0	0	0
2019/10/16 13:54:00	BASE	11.56	338	12.96	339	0.5	100	0.5	271	0	1000.2	NA	0.0000		9999	590	0	0	0
2019/10/16 13:55:00	BASE	11.56	338	12.96	339	0.5	100	0.5	271	0	1000.2	NA	0.0000		9999	590	0	0	0
2019/10/16 13:56:00	BASE	11.72	336	13.58	331	0.5	100	0.5	272	0	1000.2	NA	0.0000		9999	750	0	0	0
2019/10/16 13:57:00	BASE	12.50	337	14.46	340	0.5	100	0.5	272	0	1000.2	NA	0.0000		9999	750	0	0	0
2019/10/16 13:58:00	BASE	12.79	336	14.46	340	0.5	100	0.5	274	0	1000.2	NA	0.0000		9999	720	0	0	0
2019/10/16 13:59:00	BASE	12.45	334	14.46	340	0.5	100	0.5	279	0	1000.2	NA	0.0000		9999	720	0	0	0
2019/10/16 14:00:00	BASE	12.27	334	14.46	340	0.5	100	0.5	286	0	1000.2	NA	0.0000		9999	690	0	0	0
2019/10/16 14:01:00	BASE	12.16	337	14.46	340	0.5	100	0.5	289	0	1000.1	NA	0.0000		9999	590	0	0	0
2019/10/16 14:02:00	BASE	12.43	337	14.46	340	0.6	100	0.6	295	0	1000.1	NA	0.0000		9999	560	0	0	0
2019/10/16 14:03:00	BASE	12.60	336	14.46	340	0.6	100	0.6	296	0	1000.2	NA	0.0000		9999	660	0	0	0
2019/10/16 14:04:00	BASE	13.28	337	15.12	336	0.6	100	0.6	296	0	1000.1	NA	0.0000		9999	490	0	0	0
2019/10/16 14:05:00	BASE	13.58	338	15.12	336	0.6	100	0.6	299	0	1000.1	NA	0.0000		9999	460	0	0	0
2019/10/16 14:06:00	BASE	13.35	335	15.12	336	0.6	100	0.6	302	0	1000.1	NA	0.0000		9999	430	0	0	0
2019/10/16 14:07:00	BASE	12.96	336	15.12	336	0.6	100	0.6	305	0	1000.1	NA	0.0000		9999	430	0	0	0
2019/10/16 14:08:00	BASE	12.84	337	15.12	336	0.6	100	0.6	309	0	1000.1	NA	0.0000		9999	430	0	0	0
2019/10/16 14:09:00	BASE	12.77	338	15.12	336	0.5	100	0.5	312	0	1000.1	NA	0.0000		9999	390	19950	0	0
2019/10/16 14:10:00	BASE	12.99	341	15.12	336	0.5	100	0.5	311	0	1000.2	NA	0.0000		9999	360	0	0	0
2019/10/16 14:11:00	BASE	13.29	341	15.12	336	0.5	100	0.5	309	0	1000.2	NA	0.0000		9999	390	0	0	0
2019/10/16 14:12:00	BASE	13.63	340	15.18	343	0.5	100	0.5	315	0	1000.1	NA	0.0000		9999	360	0	0	0
2019/10/16 14:13:00	BASE	14.16	343	15.28	343	0.5	100	0.5	326	0	1000.1	NA	0.0000		9999	390	0	0	0
2019/10/16 14:14:00	BASE	12.85	341	15.28	343	0.5	100	0.5	340	0	1000.2	NA	0.0000		9999	430	0	0	0
2019/10/16 14:15:00	BASE	11.82	339	15.28	337	0.6	100	0.6	359	0	1000.2	NA	0.0000		9999	720	0	0	0
2019/10/16 14:16:00	BASE	12.60	340	15.28	337	0.6	100	0.6	373	0	1000.1	NA	0.0000		9999	620	0	0	0
2019/10/16 14:17:00	BASE	13.63	339	15.33	337	0.6	100	0.6	384	0	1000.0	NA	0.0000		9999	750	0	0	0
2019/10/16 14:18:00	BASE	13.37	337	15.33	337	0.6	100	0.6	397	0	1000.2	NA	0.0000		9999	820	0	0	0
2019/10/16 14:19:00	BASE	12.35	336	15.33	337	0.6	100	0.6	395	0	1000.1	NA	0.0000		9999	790	0	0	0
2019/10/16 14:20:00	BASE	11.92	339	15.33	337	0.6	100	0.6	370	0	1000.2	NA	0.0000		9999	820	0	0	0
2019/10/16 14:21:00	BASE	12.16	341	15.33	337	0.6	100	0.6	337	0	1000.1	NA	0.0000		9999	790	0	0	0
2019/10/16 14:22:00	BASE	12.79	340	15.33	337	0.6	100	0.6	349	0	1000.1	NA	0.0000		9999	850	20180	0	0
2019/10/16 14:23:00	BASE	13.37	338	15.33	337	0.6	100	0.6	360	0	1000.1	NA	0.0000		9999	690	0	0	0
2019/10/16 14:24:00	BASE	13.40	339	15.33	337	0.6	100	0.6	338	0	1000.1	NA	0.0000		9999	790	0	0	0
2019/10/16 14:25:00	BASE	13.28	341	15.33	337	0.6	100	0.6	331	0	1000.1	NA	0.0000		9999	720	0	0	0
2019/10/16 14:26:00	BASE	13.23	341	15.33	337	0.6	100	0.6	333	0	1000.1	NA	0.0000		9999	660	0	0	0
2019/10/16 14:27:00	BASE	12.84	341	14.76	333	0.6	100	0.6	332	0	1000.1	NA	0.0000		9999	690	0	0	0
2019/10/16 14:28:00	BASE	12.52	341	14.76	333	0.6	100	0.6	334	0	1000.1	NA	0.0000		9999	660	19130	0	0
2019/10/16 14:29:00	BASE	12.47	338	14.76	333	0.6	100	0.6	337	0	1000.1	NA	0.0000		9999	620	23130	0	0
2019/10/16 14:30:00	BASE	12.80	339	14.76	333	0.6	100	0.6	345	0	1000.0	NA	0.0000		9999	390	0	0	0
2019/10/16 14:31:00	BASE	13.14	341	14.76	333	0.6	100	0.6	360	0	1000.1	NA	0.0000		9999	300	0	0	0
2019/10/16 14:32:00	BASE	13.73	339	15.43	336	0.6	100	0.6	371	0	1000.0	NA	0.0000		9999	330	0	0	0
2019/10/16 14:33:00	BASE	13.94	336	15.43	336	0.6	100	0.6	376	0	1000.0	NA	0.0000		9999	330	0	0	0
2019/10/16 14:34:00	BASE	12.89	337	15.43	336	0.6	100	0.6	376	0	1000.1	NA	0.0000		9999	330	0	0	0
2019/10/16 14:35:00	BASE	12.31	339	15.43	336	0.6	100	0.6	386	0	1000.1	NA	0.0000		9999	330	0	0	0
2019/10/16 14:36:00	BASE	12.10	340	15.43	336	0.6	100	0.6	387	0	1000.1	NA	0.0000		9999	360	0	0	0
2019/10/16 14:37:00	BASE	11.94	340	15.43	336	0.6	100	0.6	384	0	1000.1	NA	0.0000		9999	360	0	0	0
2019/10/16 14:38:00	BASE	12.65	340	15.43	336	0.6	100	0.6	382	0	1000.0	NA	0.0000		9999	390	0	0	0
2019/10/16 14:39:00	BASE	13.46	342	15.48	342	0.6	100	0.6	387	0	999.9	NA	0.0000		9999	330	0	0	0
2019/10/16 14:40:00	BASE	13.66	346	15.48	342	0.6	100	0.6	401	0	999.9	NA	0.0000		9999	360	0	0	0
2019/10/16 14:41:00	BASE	12.88	347	15.48	342	0.6	100	0.6	414	0	999.9	NA	0.0000		9999	460	0	0	0
2019/10/16 14:42:00	BASE	12.35	346	15.48	342	0.6	100	0.6	421	0	999.9	NA	0.0000		9999	430	0	0	0
2019/10/16 14:43:00	BASE	12.76	347	15.48	342	0.7	100	0.7	418	0	999.9	NA	0.0000		9999	390	0	0	0
2019/10/16 14:44:00	BASE	12.88	345	15.48	342	0.7	100	0.7	412	0	999.9	NA	0.0000		9999	560	22870	0	0
2019/10/16 14:45:00	BASE	12.21	343	15.48	342	0.7	100	0.7	408	0	999.9	NA	0.0000		9999	460	0	0	0
2019/10/16 14:46:00	BASE	11.32	341	15.48	342	0.7	100	0.7	406	0	999.9	NA	0.0000		9999	390	0	0	0
2019/10/16 14:47:00	BASE	10.99	338	15.48	342	0.7	100	0.7	404	0	999.9	NA	0.0000		9999	390	0	0	0
2019/10/16 14:48:00	BASE	11.21	340	15.48	342	0.7	100	0.7	396	0	999.9	NA	0.0000		9999	390	0	0	0
2019/10/16 14:49:00	BASE	12.54	345	15.38	347	0.7	100	0.7	384	0	999.8	NA	0.0000		9999	390	0	0	0
2019/10/16 14:50:00	BASE	13.19	344	15.38	347	0.7	100	0.7	384	0	999.7	NA	0.0000		9999	490	0	0	0
2019/10/16 14:51:00	BASE	11.09	341	15.38	347	0.8	100	0.8	381	0	999.8	NA	0.0000		9999	590	0	0	0
2019/10/16 14:52:00	BASE	9.65	341	15.38	347	0.8	100	0.8	382	0	999.8	NA	0.0000		9999	590	0	0	0
2019/10/16 14:53:00	BASE	10.23	339	15.38	347	0.8	100	0.8	390	0	999.8	NA	0.0000		9999	620	0	0	0
2019/10/16 14:54:00	BASE	10.85	340	15.38	347	0.8	100	0.8	397	0	999.8	NA	0.0000		9999	620	0	0	0
2019/10/16 14:55:00	BASE	11.90	342	15.38	347	0.8	100	0.8	397	0	999.8	NA	0.0000		9999	390	0	0	0
2019/10/16 14:56:00	BASE	11.93	341	15.38	347	0.8	100	0.8	394	0	999.8	NA	0.0000		9999	460	23230	0	0
2019/10/16 14:57:00	BASE	10.89	338	15.38	347	0.8	100	0.8	383	0	999.8	NA	0.0000		9999	490	18870	0	0
2019/10/16 14:58:00	BASE	10.67	336	15.38	347	0.8	100	0.8	377	0	999.8	NA	0.0000		9999	430	0	0	0
2019/10/16 14:59:00	BASE	11.50	338	15.43	348	0.8	100	0.8	368	0	999.8	NA	0.0000		9999	520	0	0	0
2019/10/16 15:00:00	BASE	13.28	343	15.79	341	0.8	100	0.8	357	0	999.7	NA	0.0000		9999	330	0	0	0
2019/10/16 15:01:00	BASE	14.53	343	16.15	346	0.8	100	0.8	350	0	999.7	NA	0.0000		9999	360	0	0	0
2019/10/16 15:02:00	BASE	14.87	345	16.98	343	0.8	100	0.8	349	0	999.7	NA	0.0000		9999	330	0	0	0
2019/10/16 15:03:00	BASE	14.64	342	16.98	343	0.8	100	0.8	347	0	999.7	NA	0.0000		9999	360	0	0	0
2019/10/16 15:04:00	BASE	13.57	339	16.98	343	0.8	100	0.8	349	0	999.7	NA	0.0000		9999	360	0	0	0
2019/10/16 15:05:00	BASE	12.71	340	16.98	343	0.8	100	0.8	353	0	999.7	NA	0.0000		9999	390	21790	0	0
2019/10/16 15:06:00	BASE	12.82	339	16.98	343	0.8	100	0.8	360	0	999.7	NA	0.0000		9999	390	0	0	0
2019/10/16 15:07:00	BASE	12.66	338	16.98	343	0.8	100	0.8	366	0	999.7	NA	0.0000		9999	460	0	0	0
2019/10/16 15:08:00	BASE	11.74	337	16.98	343	0.8	100	0.8	377	0	999.7	NA	0.0000		9999	360	0	0	0
2019/10/16 15:09:00	BASE	11.84	337	16.98	343	0.8	100	0.8	381	0	999.7	NA	0.0000		9999	620	0	0	0
2019/10/16 15:10:00	BASE	12.19	338	16.98	343	0.8	100	0.8	379	0	999.7	NA	0.0000		9999	390	0	0	0
2019/10/16 15:11:00	BASE	12.36	338	16.98	343	0.8	100	0.8	374	0	999.6	NA	0.0000		9999	490	0	0	0
2019/10/16 15:12:00	BASE	12.63	337	16.26	332	0.8	100	0.8	372	0	999.6	NA	0.0000		9999	330	0	0	0
2019/10/16 15:13:00	BASE	12.04	335	14.04	343	0.8	100	0.8	374	0	999.7	NA	0.0000		9999	430	0	0	0
2019/10/16 15:14:00	BASE	12.02	336	14.04	343	0.8	100	0.8	376	0	999.6	NA	0.0000		9999	520	0	0	0
2019/10/16 15:15:00	BASE	11.81	338	14.04	343	0.8	100	0.8	379	0	999.6	NA	0.0000		9999	360	23750	0	0
2019/10/16 15:16:00	BASE	11.69	341	14.04	343	0.8	100	0.8	382	0	999.6	NA	0.0000		9999	390	23620	0	0
2019/10/16 15:17:00	BASE	11.18	343	14.04	343	0.8	100	0.8	375	0	999.6	NA	0.0000		9999	430	0	0	0
2019/10/16 15:18:00	BASE	10.55	343	14.04	343	0.8	100	0.8	362	0	999.5	NA	0.0000		9999	390	0	0	0
2019/10/16 15:19:00	BASE	10.59	343	13.74	335	0.8	100	0.8	361	0	999.5	NA	0.0000		9999	460	0	0	0
2019/10/16 15:20:00	BASE	10.44	343	13.74	335	0.8	100	0.8	362	0	999.5	NA	0.0000		9999	490	0	0	0
2019/10/16 15:21:00	BASE	10.76	346	13.74	335	0.8	100	0.8	360	0	999.5	NA	0.0000		9999	660	0	0	0
2019/10/16 15:22:00	BASE	11.79	346	13.74	335	0.8	100	0.8	360	0	999.5	NA	0.0000		9999	790	0	0	0
2019/10/16 15:23:00	BASE	12.93	345	14.71	348	0.8	100	0.8	365	0	999.5	NA	0.0000		9999	620	0	0	0
2019/10/16 15:24:00	BASE	13.40	348	14.71	348	0.8	100	0.8	368	0	999.4	NA	0.0000		9999	660	0	0	0
2019/10/16 15:25:00	BASE	13.16	348	14.71	348	0.9	100	0.9	374	0	999.5	NA	0.0000		9999	520	0	0	0
2019/10/16 15:26:00	BASE	12.26	348	14.71	348	0.9	100	0.9	388	0	999.5	NA	0.0000		9999	720	0	0	0
2019/10/16 15:27:00	BASE	12.13	348	14.71	348	0.9	100	0.9	419	0	999.5	NA	0.0000		9999	720	0	0	0
2019/10/16 15:28:00	BASE	11.56	349	14.71	348	0.9	100	0.9	441	0	999.5	NA	0.0000		9999	890	0	0	0
2019/10/16 15:29:00	BASE	10.76	350	14.71	348	0.9	100	0.9	455	0	999.4	NA	0.0000		9999	850	0	0	0
2019/10/16 15:30:00	BASE	12.51	346	15.48	348	0.9	100	0.9	439	0	999.4	NA	0.0000		9999	750	0	0	0
2019/10/16 15:31:00	BASE	13.80	345	15.74	349	0.9	100	0.9	432	0	999.3	NA	0.0000		9999	790	0	0	0
2019/10/16 15:32:00	BASE	13.05	347	15.74	349	0.9	100	0.9	448	0	999.4	NA	0.0000		9999	790	0	0	0
2019/10/16 15:33:00	BASE	12.36	346	15.74	349	1.0	100	1.0	429	0	999.4	NA	0.0000		9999	850	3180	0	0
2019/10/16 15:34:00	BASE	12.44	346	15.74	349	1.0	100	1.0	430	0	999.4	NA	0.0000		9999	820	3120	0	0
2019/10/16 15:35:00	BASE	12.16	349	15.74	349	1.0	100	1.0	423	0	999.4	NA	0.0000		9999	920	3120	0	0
2019/10/16 15:36:00	BASE	11.14	351	15.74	349	1.0	100	1.0	407	0	999.4	NA	0.0000		9999	1050	3180	0	0
2019/10/16 15:37:00	BASE	11.26	349	15.74	349	1.0	100	1.0	412	0	999.3	NA	0.0000		9999	890	3120	0	0
2019/10/16 15:38:00	BASE	11.05	352	15.74	349	1.0	100	1.0	439	0	999.3	NA	0.0000		9999	950	3150	0	0
2019/10/16 15:39:00	BASE	11.41	352	15.74	349	1.0	100	1.0	433	0	999.2	NA	0.0000		9999	1080	3020	0	0
2019/10/16 15:40:00	BASE	12.14	347	15.74	349	1.0	100	1.0	400	0	999.2	NA	0.0000		9999	1180	3080	0	0
2019/10/16 15:41:00	BASE	12.13	349	14.35	346	1.0	100	1.0	393	0	999.2	NA	0.0000		9999	1120	0	0	0
2019/10/16 15:42:00	BASE	12.12	350	14.35	346	1.0	100	1.0	386	0	999.3	NA	0.0000		9999	1080	1540	0	0
2019/10/16 15:43:00	BASE	11.57	350	14.35	346	1.0	100	1.0	379	0	999.3	NA	0.0000		9999	1020	0	0	0
2019/10/16 15:44:00	BASE	10.83	351	13.94	280	1.0	100	1.0	372	0	999.3	NA	0.0000		9999	1050	1610	2820	0
2019/10/16 15:45:00	BASE	10.76	350	13.94	280	1.0	100	1.0	368	0	999.2	NA	0.0000		9999	1080	2620	0	0
2019/10/16 15:46:00	BASE	10.54	347	13.94	280	1.0	100	1.0	373	0	999.2	NA	0.0000		9999	1020	1640	0	0
2019/10/16 15:47:00	BASE	9.82	345	13.94	280	1.0	100	1.0	369	0	999.2	NA	0.0000		9999	1050	0	0	0
2019/10/16 15:48:01	BASE	10.13	347	13.94	280	1.0	100	1.0	363	0	999.2	NA	0.0000		9999	980	21720	0	0
2019/10/16 15:49:00	BASE	10.13	347	13.27	354	1.0	100	1.0	364	0	999.3	NA	0.0000		9999	980	0	0	0
2019/10/16 15:50:00	BASE	10.43	343	13.27	354	1.0	100	1.0	367	0	999.3	NA	0.0000		9999	920	0	0	0
2019/10/16 15:51:00	BASE	10.23	343	13.02	353	1.0	100	1.0	367	0	999.3	NA	0.0000		9999	980	0	0	0
2019/10/16 15:52:00	BASE	9.76	346	12.55	345	1.0	100	1.0	362	0	999.4	NA	0.0000		9999	950	0	0	0
2019/10/16 15:53:00	BASE	10.14	348	12.40	349	0.9	100	0.9	354	0	999.4	NA	0.0000		9999	950	0	0	0
2019/10/16 15:54:00	BASE	10.48	349	12.40	349	0.9	100	0.9	348	0	999.4	NA	0.0000		9999	920	0	0	0
2019/10/16 15:55:00	BASE	10.55	348	11.94	339	0.9	100	0.9	344	0	999.4	NA	0.0000		9999	920	0	0	0
2019/10/16 15:56:00	BASE	10.24	342	11.94	339	0.9	100	0.9	341	0	999.4	NA	0.0000		9999	980	0	0	0
2019/10/16 15:57:00	BASE	9.93	337	11.94	339	0.9	100	0.9	341	0	999.4	NA	0.0000		9999	920	0	0	0
2019/10/16 15:58:00	BASE	9.17	333	11.94	339	0.9	100	0.9	337	0	999.4	NA	0.0000		9999	980	0	0	0
2019/10/16 15:59:00	BASE	9.05	333	11.94	339	0.9	100	0.9	335	0	999.4	NA	0.0000		9999	1080	0	0	0
2019/10/16 16:00:00	BASE	9.51	338	11.68	341	0.9	100	0.9	334	0	999.4	NA	0.0000		9999	980	0	0	0
2019/10/16 16:01:00	BASE	9.46	339	11.68	341	0.9	100	0.9	329	0	999.4	NA	0.0000		9999	890	0	0	0
2019/10/16 16:02:00	BASE	9.54	341	11.68	341	0.9	100	0.9	329	0	999.4	NA	0.0000		9999	950	0	0	0
2019/10/16 16:03:00	BASE	10.00	346	11.68	341	0.9	100	0.9	336	0	999.4	NA	0.0000		9999	980	0	0	0
2019/10/16 16:04:00	BASE	10.44	350	11.47	340	0.9	100	0.9	343	0	999.1	NA	0.0000		9999	820	0	0	0
2019/10/16 16:05:00	BASE	10.44	348	11.47	340	1.0	100	1.0	332	0	999.4	NA	0.0000		9999	1050	0	0	0
2019/10/16 16:06:00	BASE	10.98	342	12.81	341	1.0	100	1.0	334	0	999.4	NA	0.0000		9999	920	0	0	0
2019/10/16 16:07:00	BASE	11.52	339	13.17	339	1.0	100	1.0	337	0	999.4	NA	0.0000		9999	920	0	0	0
2019/10/16 16:08:00	BASE	10.86	337	13.17	339	1.0	100	1.0	339	0	999.4	NA	0.0000		9999	850	0	0	0
2019/10/16 16:09:00	BASE	10.64	337	13.17	339	1.0	100	1.0	334	0	999.4	NA	0.0000		9999	890	0	0	0
2019/10/16 16:10:00	BASE	10.37	339	13.17	339	1.0	100	1.0	334	0	999.4	NA	0.0000		9999	750	0	0	0
2019/10/16 16:11:00	BASE	9.18	340	13.17	339	0.9	100	0.9	338	0	999.4	NA	0.0000		9999	660	0	0	0
2019/10/16 16:12:00	BASE	8.99	338	13.17	339	0.9	100	0.9	336	0	999.4	NA	0.0000		9999	1020	0	0	0
2019/10/16 16:13:00	BASE	9.61	337	13.17	339	0.9	100	0.9	337	0	999.2	NA	0.0000		9999	1120	0	0	0
2019/10/16 16:14:00	BASE	9.52	336	13.17	339	0.9	100	0.9	337	0	999.2	NA	0.0000		9999	1150	0	0	0
2019/10/16 16:15:00	BASE	9.82	335	13.17	339	0.9	100	0.9	337	0	999.2	NA	0.0000		9999	1080	0	0	0
2019/10/16 16:16:00	BASE	10.51	338	13.17	339	0.9	100	0.9	344	0	999.2	NA	0.0000		9999	920	0	0	0
2019/10/16 16:17:00	BASE	10.15	337	11.78	341	0.9	100	0.9	355	0	999.2	NA	0.0000		9999	920	0	0	0
2019/10/16 16:18:00	BASE	9.49	335	11.78	341	0.9	100	0.9	365	0	999.2	NA	0.0000		9999	1050	20310	0	0
2019/10/16 16:19:00	BASE	10.27	336	12.35	338	0.9	100	0.9	370	0	999.2	NA	0.0000		9999	1180	0	0	0
2019/10/16 16:20:00	BASE	11.27	335	13.02	330	0.9	100	0.9	367	0	999.2	NA	0.0000		9999	1150	0	0	0
2019/10/16 16:21:00	BASE	11.35	331	13.38	330	0.9	100	0.9	366	0	999.1	NA	0.0000		9999	890	0	0	0
2019/10/16 16:22:00	BASE	11.58	332	13.38	330	0.9	100	0.9	368	0	999.1	NA	0.0000		9999	790	0	0	0
2019/10/16 16:23:00	BASE	12.32	333	14.87	332	0.8	100	0.8	374	0	999.0	NA	0.0000		9999	1020	0	0	0
2019/10/16 16:24:00	BASE	12.68	335	14.87	332	0.8	100	0.8	381	0	999.0	NA	0.0000		9999	1180	0	0	0
2019/10/16 16:25:00	BASE	12.03	337	14.87	332	0.8	100	0.8	382	0	999.0	NA	0.0000		9999	1180	0	0	0
2019/10/16 16:26:00	BASE	11.10	338	14.87	332	0.8	100	0.8	379	0	999.1	NA	0.0000		9999	950	0	0	0
2019/10/16 16:27:00	BASE	11.26	338	14.87	332	0.7	100	0.7	380	0	999.0	NA	0.0000		9999	820	0	0	0
2019/10/16 16:28:00	BASE	11.98	337	14.87	332	0.7	100	0.7	385	0	999.0	NA	0.0000		9999	920	0	0	0
2019/10/16 16:29:00	BASE	12.36	336	14.87	332	0.7	100	0.7	387	0	999.0	NA	0.0000		9999	1150	0	0	0
2019/10/16 16:30:00	BASE	12.65	337	14.87	332	0.7	100	0.7	389	0	999.0	NA	0.0000		9999	1350	22050	0	0
2019/10/16 16:31:00	BASE	12.63	337	14.87	332	0.7	100	0.7	392	0	998.9	NA	0.0000		9999	1250	0	0	0
2019/10/16 16:32:00	BASE	12.42	337	14.87	332	0.7	100	0.7	393	0	999.0	NA	0.0000		9999	1350	0	0	0
2019/10/16 16:33:00	BASE	11.87	336	13.89	340	0.7	100	0.7	388	0	999.0	NA	0.0000		9999	1480	0	0	0
2019/10/16 16:34:00	BASE	11.36	336	13.89	340	0.7	100	0.7	381	0	999.0	NA	0.0000		9999	1250	0	0	0
2019/10/16 16:35:00	BASE	10.91	336	13.89	340	0.7	100	0.7	380	0	999.0	NA	0.0000		9999	1180	0	0	0
2019/10/16 16:36:00	BASE	10.63	336	13.89	340	0.7	100	0.7	375	0	999.0	NA	0.0000		9999	1050	0	0	0
2019/10/16 16:37:00	BASE	10.95	335	13.89	340	0.6	100	0.6	370	0	999.1	NA	0.0000		9999	1120	0	0	0
2019/10/16 16:38:00	BASE	11.53	334	13.89	340	0.6	100	0.6	368	0	999.0	NA	0.0000		9999	1180	1800	0	0
2019/10/16 16:39:00	BASE	11.81	334	13.58	343	0.6	100	0.6	368	0	999.0	NA	0.0000		9999	1440	0	0	0
2019/10/16 16:40:00	BASE	11.96	336	13.58	343	0.7	100	0.7	368	0	999.0	NA	0.0000		9999	1570	0	0	0
2019/10/16 16:41:00	BASE	12.34	336	13.43	336	0.7	100	0.7	368	0	999.0	NA	0.0000		9999	1310	0	0	0
2019/10/16 16:42:00	BASE	12.28	336	13.43	336	0.7	100	0.7	364	0	999.0	NA	0.0000		9999	1250	0	0	0
2019/10/16 16:43:00	BASE	11.43	335	13.43	336	0.7	100	0.7	363	0	999.0	NA	0.0000		9999	1640	0	0	0
2019/10/16 16:44:00	BASE	10.59	334	13.43	336	0.7	100	0.7	369	0	999.0	NA	0.0000		9999	1640	0	0	0
2019/10/16 16:45:00	BASE	10.22	333	13.43	336	0.7	100	0.7	370	0	999.1	NA	0.0000		9999	1380	0	0	0
2019/10/16 16:46:00	BASE	10.28	332	13.43	336	0.7	100	0.7	369	0	999.0	NA	0.0000		9999	1350	0	0	0
2019/10/16 16:47:00	BASE	10.40	333	13.43	336	0.7	100	0.7	373	0	999.0	NA	0.0000		9999	1080	0	0	0
2019/10/16 16:48:00	BASE	11.36	333	13.94	343	0.7	100	0.7	376	0	998.9	NA	0.0000		9999	1480	0	0	0
2019/10/16 16:49:00	BASE	12.76	333	14.20	339	0.7	100	0.7	381	0	999.0	NA	0.0000		9999	1440	0	0	0
2019/10/16 16:50:00	BASE	13.19	335	14.25	337	0.7	100	0.7	382	0	998.9	NA	0.0000		9999	1250	0	0	0
2019/10/16 16:51:00	BASE	12.76	338	14.25	337	0.8	100	0.8	381	0	998.9	NA	0.0000		9999	1510	0	0	0
2019/10/16 16:52:00	BASE	12.90	337	14.30	339	0.8	100	0.8	378	0	998.8	NA	0.0000		9999	1410	19160	0	0
2019/10/16 16:53:00	BASE	13.35	338	14.51	342	0.8	100	0.8	372	0	998.8	NA	0.0000		9999	1440	0	0	0
2019/10/16 16:54:00	BASE	12.69	339	14.51	342	0.8	100	0.8	365	0	998.6	NA	0.0000		9999	1280	0	0	0
2019/10/16 16:55:00	BASE	11.83	339	14.51	342	0.7	100	0.7	357	0	998.9	NA	0.0000		9999	850	0	0	0
2019/10/16 16:56:00	BASE	11.62	338	14.51	342	0.7	100	0.7	350	0	998.9	NA	0.0000		9999	950	0	0	0
2019/10/16 16:57:00	BASE	11.53	338	14.51	342	0.7	100	0.7	348	0	998.9	NA	0.0000		9999	980	19550	23330	0
2019/10/16 16:58:00	BASE	10.90	338	14.51	342	0.7	100	0.7	355	0	999.0	NA	0.0000		9999	750	0	0	0
2019/10/16 16:59:00	BASE	10.67	337	14.51	342	0.7	100	0.7	360	0	999.0	NA	0.0000		9999	1350	0	0	0
2019/10/16 17:00:00	BASE	10.69	335	14.51	342	0.7	100	0.7	356	0	999.0	NA	0.0000		9999	1480	0	0	0
2019/10/16 17:01:00	BASE	10.47	335	14.51	342	0.7	100	0.7	348	0	999.0	NA	0.0000		9999	1350	0	0	0
2019/10/16 17:02:00	BASE	10.83	336	14.51	342	0.8	100	0.8	334	0	999.0	NA	0.0000		9999	1380	0	0	0
2019/10/16 17:03:00	BASE	11.54	334	13.02	346	0.8	100	0.8	325	0	999.0	NA	0.0000		9999	1120	0	0	0
2019/10/16 17:04:00	BASE	11.79	335	12.71	334	0.8	100	0.8	318	0	999.0	NA	0.0000		9999	950	0	0	0
2019/10/16 17:05:00	BASE	11.95	339	13.99	337	0.8	100	0.8	309	0	999.0	NA	0.0000		9999	1080	19460	23850	0
2019/10/16 17:06:00	BASE	12.26	340	13.99	337	0.8	100	0.8	298	0	999.0	NA	0.0000		9999	1120	0	0	0
2019/10/16 17:07:01	BASE	12.42	339	13.99	337	0.8	100	0.8	290	0	999.0	NA	0.0000		9999	1120	0	0	0
2019/10/16 17:08:01	BASE	12.13	336	13.99	337	0.8	100	0.8	287	0	999.0	NA	0.0000		9999	1080	0	0	0
2019/10/16 17:09:01	BASE	11.13	336	13.99	337	0.7	100	0.7	289	0	999.0	NA	0.0000		9999	920	0	0	0
2019/10/16 17:10:01	BASE	10.45	338	13.99	337	0.7	100	0.7	292	0	999.0	NA	0.0000		9999	950	0	0	0
2019/10/16 17:11:01	BASE	9.56	338	13.99	337	0.7	100	0.7	292	0	999.0	NA	0.0000		9999	890	0	0	0
2019/10/16 17:12:01	BASE	8.66	337	13.99	337	0.7	100	0.7	293	0	999.0	NA	0.0000		9999	1120	0	0	0
2019/10/16 17:13:01	BASE	8.25	335	13.99	337	0.7	100	0.7	294	0	999.0	NA	0.0000		9999	1020	0	0	0
2019/10/16 17:14:01	BASE	7.93	332	13.99	337	0.7	100	0.7	289	0	999.0	NA	0.0000		9999	1640	0	0	0
2019/10/16 17:15:01	BASE	7.76	330	13.38	338	0.7	100	0.7	290	0	999.0	NA	0.0000		9999	1610	0	0	0
2019/10/16 17:16:01	BASE	7.68	328	13.38	338	0.7	100	0.7	299	0	999.0	NA	0.0000		9999	1570	0	0	0
2019/10/16 17:17:01	BASE	8.54	326	12.35	333	0.7	100	0.7	308	0	999.1	NA	0.0000		9999	1710	0	0	0
2019/10/16 17:18:01	BASE	9.73	326	11.68	334	0.7	100	0.7	318	0	999.0	NA	0.0000		9999	1770	23660	0	0
2019/10/16 17:19:01	BASE	10.08	325	11.63	340	0.7	100	0.7	332	0	999.0	NA	0.0000		9999	1770	0	0	0
2019/10/16 17:20:01	BASE	10.26	326	12.30	322	0.7	100	0.7	349	0	999.0	NA	0.0000		9999	1610	16140	22970	0
2019/10/16 17:21:01	BASE	9.70	326	12.30	322	0.8	100	0.8	364	0	999.0	NA	0.0000		9999	1740	22970	0	0
2019/10/16 17:22:01	BASE	8.92	328	12.30	322	0.8	100	0.8	380	0	999.0	NA	0.0000		9999	1410	23100	0	0
2019/10/16 17:23:01	BASE	9.33	329	12.30	322	0.8	100	0.8	395	0	999.0	NA	0.0000		9999	1670	0	0	0
2019/10/16 17:24:01	BASE	10.16	332	12.30	322	0.8	100	0.8	398	0	999.0	NA	0.0000		9999	1640	0	0	0
2019/10/16 17:25:01	BASE	10.36	335	12.30	322	0.8	100	0.8	390	0	999.0	NA	0.0000		9999	1710	0	0	0
2019/10/16 17:26:01	BASE	10.14	333	12.30	322	0.8	100	0.8	386	0	999.0	NA	0.0000		9999	1800	0	0	0
2019/10/16 17:27:01	BASE	10.42	333	12.30	322	0.8	100	0.8	382	0	999.0	NA	0.0000		9999	1610	2430	0	0
2019/10/16 17:28:01	BASE	11.56	336	13.99	336	0.8	100	0.8	364	0	998.9	NA	0.0000		9999	1670	2530	0	0
2019/10/16 17:29:01	BASE	12.20	338	13.99	336	0.8	100	0.8	348	0	998.9	NA	0.0000		9999	1380	0	0	0
2019/10/16 17:30:01	BASE	11.95	337	13.99	336	0.9	100	0.9	337	0	998.9	NA	0.0000		9999	1250	0	0	0
2019/10/16 17:31:01	BASE	12.00	337	13.99	336	0.9	100	0.9	342	0	998.9	NA	0.0000		9999	1180	0	0	0
2019/10/16 17:32:01	BASE	12.38	336	13.99	336	0.9	100	0.9	346	0	998.9	NA	0.0000		9999	1280	0	0	0
2019/10/16 17:33:01	BASE	13.15	337	15.12	347	0.9	100	0.9	351	0	998.9	NA	0.0000		9999	1250	0	0	0
2019/10/16 17:34:01	BASE	13.01	336	15.12	347	0.9	100	0.9	356	0	998.9	NA	0.0000		9999	1280	0	0	0
2019/10/16 17:35:01	BASE	12.23	333	15.12	347	0.9	100	0.9	361	0	998.9	NA	0.0000		9999	1280	0	0	0
2019/10/16 17:36:01	BASE	11.73	330	15.12	347	0.9	100	0.9	364	0	999.0	NA	0.0000		9999	1410	0	0	0
2019/10/16 17:37:00	BASE	11.35	328	15.12	347	0.9	100	0.9	366	0	999.0	NA	0.0000		9999	1540	0	0	0
2019/10/16 17:38:01	BASE	11.18	328	15.12	347	0.9	100	0.9	360	0	999.0	NA	0.0000		9999	1540	0	0	0
2019/10/16 17:39:00	BASE	10.66	330	15.12	347	0.9	100	0.9	362	0	999.0	NA	0.0000		9999	1570	2850	0	0
2019/10/16 17:40:01	BASE	9.83	330	15.12	347	0.9	100	0.9	363	0	999.0	NA	0.0000		9999	1670	0	0	0
2019/10/16 17:41:01	BASE	9.76	330	15.12	347	0.9	100	0.9	364	0	999.0	NA	0.0000		9999	1670	0	0	0
2019/10/16 17:42:01	BASE	10.46	330	15.12	347	0.9	100	0.9	366	0	999.0	NA	0.0000		9999	1840	2850	0	0
2019/10/16 17:43:00	BASE	10.74	330	13.22	329	0.9	100	0.9	367	0	998.9	NA	0.0000		9999	1670	2490	0	0
2019/10/16 17:44:01	BASE	10.30	333	12.76	335	0.9	100	0.9	364	0	998.9	NA	0.0000		9999	1710	0	0	0
2019/10/16 17:45:01	BASE	9.59	334	12.60	336	0.9	100	0.9	365	0	998.9	NA	0.0000		9999	1640	2360	0	0
2019/10/16 17:46:01	BASE	9.35	336	12.60	336	1.0	100	1.0	372	0	998.9	NA	0.0000		9999	1800	2400	0	0
2019/10/16 17:47:00	BASE	9.67	338	12.60	336	1.0	100	1.0	381	0	998.9	NA	0.0000		9999	1940	0	0	0
2019/10/16 17:48:00	BASE	10.31	339	12.60	336	1.0	100	1.0	383	0	998.9	NA	0.0000		9999	1800	2530	0	0
2019/10/16 17:49:00	BASE	11.41	338	13.12	331	1.0	100	1.0	373	0	998.9	NA	0.0000		9999	2260	0	0	0
2019/10/16 17:50:00	BASE	11.75	335	13.12	331	1.1	100	1.1	360	0	998.9	NA	0.0000		9999	1940	0	0	0
2019/10/16 17:51:00	BASE	11.89	337	13.32	348	1.1	100	1.1	336	0	998.8	NA	0.0000		9999	2200	0	0	0
2019/10/16 17:52:00	BASE	13.32	342	15.07	340	1.1	100	1.1	319	0	998.8	NA	0.0000		9999	2620	0	0	0
2019/10/16 17:53:00	BASE	12.95	342	15.07	340	1.1	100	1.1	307	0	998.8	NA	0.0000		9999	2460	0	0	0
2019/10/16 17:54:00	BASE	11.03	339	15.07	340	1.0	100	1.0	305	0	998.9	NA	0.0000		9999	2260	0	0	0
2019/10/16 17:55:00	BASE	10.19	336	15.07	340	1.0	100	1.0	309	0	998.9	NA	0.0000		9999	2300	0	0	0
2019/10/16 17:56:00	BASE	10.08	335	15.07	340	1.0	100	1.0	324	0	998.9	NA	0.0000		9999	1940	2400	0	0
2019/10/16 17:57:00	BASE	10.02	337	15.07	340	1.0	100	1.0	350	0	998.9	NA	0.0000		9999	1670	2430	0	0
2019/10/16 17:58:00	BASE	9.87	339	15.07	340	1.0	100	1.0	359	0	998.8	NA	0.0000		9999	1870	2330	0	0
2019/10/16 17:59:01	BASE	10.12	339	15.07	340	1.0	100	1.0	355	0	998.8	NA	0.0000		9999	2430	0	0	0
2019/10/16 18:00:00	BASE	10.34	339	15.07	340	1.1	100	1.1	369	0	998.8	NA	0.0000		9999	2000	0	0	0
2019/10/16 18:01:00	BASE	10.58	341	15.07	340	1.1	100	1.1	369	0	998.8	NA	0.0000		9999	2430	0	0	0
2019/10/16 18:02:00	BASE	10.86	341	13.48	345	1.1	100	1.1	368	0	998.7	NA	0.0000		9999	1740	2400	0	0
2019/10/16 18:03:00	BASE	11.11	343	12.86	350	1.2	100	1.2	369	0	998.6	NA	0.0000		9999	1740	2260	0	0
2019/10/16 18:04:00	BASE	11.20	346	12.86	350	1.2	100	1.2	369	0	998.6	NA	0.0000		9999	1870	0	0	0
2019/10/16 18:05:00	BASE	11.66	344	13.02	346	1.3	100	1.3	369	0	998.6	NA	0.0000		9999	2130	0	0	0
2019/10/16 18:06:00	BASE	12.98	343	14.61	344	1.3	100	1.3	369	0	998.6	NA	0.0000		9999	2030	0	0	0
2019/10/16 18:07:00	BASE	13.07	345	14.61	344	1.3	100	1.3	367	0	998.6	NA	0.0000		9999	2000	0	0	0
2019/10/16 18:08:00	BASE	12.16	344	14.61	344	1.4	100	1.4	367	0	998.6	NA	0.0000		9999	2460	0	0	0
2019/10/16 18:09:00	BASE	12.48	347	14.61	344	1.4	100	1.4	361	0	998.6	NA	0.0000		9999	1440	2490	0	0
2019/10/16 18:10:00	BASE	12.83	347	14.61	344	1.4	100	1.4	344	0	998.6	NA	0.0000		9999	1740	2490	21060	0
2019/10/16 18:11:00	BASE	12.38	345	14.61	344	1.4	100	1.4	334	0	998.6	NA	0.0000		9999	1870	2490	0	0
2019/10/16 18:12:00	BASE	11.82	346	14.61	344	1.4	100	1.4	330	0	998.6	NA	0.0000		9999	1770	2560	0	0
2019/10/16 18:13:00	BASE	11.51	346	14.61	344	1.4	100	1.4	334	0	998.6	NA	0.0000		9999	1250	2590	0	0
2019/10/16 18:14:00	BASE	11.76	346	14.61	344	1.4	100	1.4	326	0	998.6	NA	0.0000		9999	2590	0	0	0
2019/10/16 18:15:00	BASE	12.04	348	14.61	344	1.4	100	1.4	320	0	998.6	NA	0.0000		9999	2620	0	0	0
2019/10/16 18:16:00	BASE	11.35	347	14.15	350	1.4	100	1.4	313	0	998.6	NA	0.0000		9999	1350	2760	0	0
2019/10/16 18:17:00	BASE	10.25	346	14.15	350	1.4	100	1.4	316	0	998.6	NA	0.0000		9999	1480	2720	21260	0
2019/10/16 18:18:00	BASE	9.87	347	14.15	350	1.4	100	1.4	320	0	998.6	NA	0.0000		9999	1410	2790	0	0
2019/10/16 18:19:00	BASE	10.47	348	14.04	342	1.4	100	1.4	316	0	998.6	NA	0.0000		9999	1410	2690	0	0
2019/10/16 18:20:00	BASE	10.67	345	13.58	346	1.4	99	1.4	311	0	998.5	NA	0.0000		9999	1410	2690	0	0
2019/10/16 18:21:00	BASE	10.41	345	13.58	346	1.4	99	1.3	309	0	998.5	NA	0.0000		9999	2720	0	0	0
2019/10/16 18:22:00	BASE	10.26	347	13.58	346	1.4	99	1.3	314	0	998.5	NA	0.0000		9999	2760	0	0	0
2019/10/16 18:23:00	BASE	10.42	348	13.58	346	1.4	99	1.3	334	0	998.5	NA	0.0000		9999	1570	2690	0	0
2019/10/16 18:24:00	BASE	10.07	350	13.58	346	1.5	99	1.3	353	0	998.5	NA	0.0000		9999	1570	2820	0	0
2019/10/16 18:25:00	BASE	9.41	351	13.58	346	1.5	99	1.3	349	0	998.5	NA	0.0000		9999	1540	0	0	0
2019/10/16 18:26:00	BASE	9.25	349	13.58	346	1.5	99	1.3	342	0	998.5	NA	0.0000		9999	1710	2620	0	0
2019/10/16 18:27:00	BASE	8.72	346	13.58	346	1.5	98	1.2	331	0	998.5	NA	0.0000		9999	2760	0	0	0
2019/10/16 18:28:00	BASE	8.13	346	13.58	346	1.5	98	1.2	322	0	998.5	NA	0.0000		9999	2790	0	0	0
2019/10/16 18:29:00	BASE	8.54	348	11.99	347	1.5	98	1.2	317	0	998.5	NA	0.0000		9999	2330	2760	0	0
2019/10/16 18:30:00	BASE	9.22	346	11.99	347	1.5	98	1.2	324	0	998.2	NA	0.0000		9999	1770	2890	0	0
2019/10/16 18:31:00	BASE	9.32	340	11.99	347	1.5	98	1.2	333	0	998.5	NA	0.0000		9999	1670	2070	2850	0
2019/10/16 18:32:00	BASE	9.57	339	11.99	347	1.5	98	1.2	342	0	998.5	NA	0.0000		9999	1900	2760	0	0
2019/10/16 18:33:00	BASE	9.52	337	10.75	341	1.5	98	1.2	347	0	998.5	NA	0.0000		9999	2720	0	0	0
2019/10/16 18:34:00	BASE	9.20	335	10.75	341	1.5	98	1.2	345	0	998.5	NA	0.0000		9999	2790	0	0	0
2019/10/16 18:35:00	BASE	8.93	339	10.75	341	1.4	98	1.1	354	0	998.4	NA	0.0000		9999	2790	0	0	0
2019/10/16 18:36:00	BASE	8.76	343	10.75	341	1.4	98	1.2	353	0	998.4	NA	0.0000		9999	1770	2850	0	0
2019/10/16 18:37:00	BASE	8.95	344	10.75	341	1.4	98	1.2	347	0	998.4	NA	0.0000		9999	2760	0	0	0
2019/10/16 18:38:00	BASE	9.16	344	10.75	341	1.4	99	1.2	353	0	998.4	NA	0.0000		9999	2850	0	0	0
2019/10/16 18:39:00	BASE	8.70	344	10.75	341	1.4	99	1.3	358	0	998.4	NA	0.0000		9999	2790	0	0	0
2019/10/16 18:40:00	BASE	8.09	338	10.44	340	1.5	99	1.3	366	0	998.3	NA	0.0000		9999	2850	0	0	0
2019/10/16 18:41:00	BASE	8.30	342	10.44	340	1.5	99	1.3	360	0	998.3	NA	0.0000		9999	2760	0	0	0
2019/10/16 18:42:00	BASE	8.68	351	10.24	347	1.5	99	1.3	352	0	998.3	NA	0.0000		9999	2790	0	0	0
2019/10/16 18:43:00	BASE	10.46	354	13.17	2	1.5	99	1.3	344	0	998.3	NA	0.0000		9999	2890	20280	21590	0
2019/10/16 18:44:00	BASE	11.90	358	13.17	2	1.5	98	1.3	337	0	998.3	NA	0.0000		9999	2920	0	0	0
2019/10/16 18:45:00	BASE	10.28	353	13.17	2	1.6	98	1.3	329	0	998.3	NA	0.0000		9999	2890	0	0	0
2019/10/16 18:46:00	BASE	9.18	347	13.17	2	1.6	98	1.3	329	0	998.3	NA	0.0000		9999	2950	0	0	0
2019/10/16 18:47:00	BASE	9.02	350	13.17	2	1.6	98	1.3	338	0	998.4	NA	0.0000		9999	3020	0	0	0
2019/10/16 18:48:00	BASE	8.62	343	13.17	2	1.6	97	1.2	345	0	998.4	NA	0.0000		9999	2990	0	0	0
2019/10/16 18:49:00	BASE	8.94	337	13.17	2	1.6	97	1.2	352	0	998.3	NA	0.0000		9999	2990	0	0	0
2019/10/16 18:50:00	BASE	10.39	345	13.17	2	1.6	97	1.1	352	0	998.3	NA	0.0000		9999	3050	0	0	0
2019/10/16 18:51:00	BASE	11.07	347	13.17	2	1.6	96	1.1	355	0	998.3	NA	0.0000		9999	2950	0	0	0
2019/10/16 18:52:00	BASE	10.17	346	13.17	2	1.6	96	1.0	363	0	998.3	NA	0.0000		9999	2950	0	0	0
2019/10/16 18:53:00	BASE	9.13	340	13.17	2	1.6	96	1.0	370	0	998.3	NA	0.0000		9999	2950	0	0	0
2019/10/16 18:54:00	BASE	8.65	338	12.55	341	1.6	96	1.0	369	0	998.3	NA	0.0000		9999	2920	0	0	0
2019/10/16 18:55:00	BASE	8.41	338	12.55	341	1.5	96	1.0	365	0	998.3	NA	0.0000		9999	2890	18210	0	0
2019/10/16 18:56:00	BASE	8.03	338	12.55	341	1.5	96	1.0	354	0	998.3	NA	0.0000		9999	2990	0	0	0
2019/10/16 18:57:00	BASE	7.86	338	12.55	341	1.4	97	1.0	337	0	998.3	NA	0.0000		9999	2990	0	0	0
2019/10/16 18:58:00	BASE	7.78	339	12.55	341	1.4	97	1.0	335	0	998.3	NA	0.0000		9999	2920	0	0	0
2019/10/16 18:59:00	BASE	7.56	342	12.55	341	1.4	98	1.0	324	0	998.3	NA	0.0000		9999	2690	0	0	0
2019/10/16 19:00:00	BASE	7.15	346	11.52	1	1.4	98	1.1	332	0	998.3	NA	0.0000		9999	2720	22670	0	0
2019/10/16 19:01:00	BASE	6.65	347	10.55	344	1.4	98	1.1	346	0	998.3	NA	0.0000		9999	2660	0	0	0
2019/10/16 19:02:00	BASE	6.24	346	9.77	335	1.4	98	1.1	362	0	998.2	NA	0.0000		9999	2690	0	0	0
2019/10/16 19:03:00	BASE	6.26	345	9.77	335	1.4	98	1.1	375	0	998.2	NA	0.0000		9999	2660	21920	0	0
2019/10/16 19:04:00	BASE	6.29	342	9.41	340	1.4	98	1.1	377	0	998.2	NA	0.0000		9999	2690	0	0	0
2019/10/16 19:05:00	BASE	5.96	340	8.49	342	1.3	99	1.2	358	0	998.2	NA	0.0000		9999	2690	0	0	0
2019/10/16 19:06:00	BASE	6.48	339	8.49	342	1.3	99	1.2	327	0	998.1	NA	0.0000		9999	2720	0	0	0
2019/10/16 19:07:00	BASE	6.69	338	8.49	342	1.3	99	1.2	326	0	998.1	NA	0.0000		9999	2720	0	0	0
2019/10/16 19:08:00	BASE	6.17	337	8.13	342	1.4	99	1.2	341	0	998.0	NA	0.0000		9999	2720	0	0	0
2019/10/16 19:09:00	BASE	6.31	338	8.13	342	1.4	99	1.2	353	0	998.0	NA	0.0000		9999	2660	0	0	0
2019/10/16 19:10:00	BASE	6.67	340	8.13	342	1.4	99	1.2	343	0	997.9	NA	0.0000		9999	2760	0	0	0
2019/10/16 19:11:00	BASE	6.83	343	8.13	342	1.4	99	1.3	338	0	997.9	NA	0.0000		9999	2760	0	0	0
2019/10/16 19:12:00	BASE	6.96	341	8.28	338	1.4	99	1.3	320	0	997.9	NA	0.0000		9999	2790	0	0	0
2019/10/16 19:13:00	BASE	7.44	337	8.49	337	1.4	99	1.3	316	0	997.8	NA	0.0000		9999	2850	22020	22700	0
2019/10/16 19:14:00	BASE	8.06	335	9.05	337	1.4	99	1.3	319	0	997.8	NA	0.0000		9999	2820	0	0	0
2019/10/16 19:15:00	BASE	8.60	333	9.21	331	1.4	99	1.3	304	0	997.8	NA	0.0000		9999	2820	0	0	0
2019/10/16 19:16:00	BASE	9.22	330	10.49	326	1.4	99	1.3	305	0	997.8	NA	0.0000		9999	2890	0	0	0
2019/10/16 19:17:00	BASE	9.41	329	10.49	326	1.4	99	1.3	318	0	997.8	NA	0.0000		9999	2760	0	0	0
2019/10/16 19:18:00	BASE	9.58	330	10.49	330	1.4	99	1.3	327	0	997.8	NA	0.0000		9999	2790	0	0	0
2019/10/16 19:19:00	BASE	10.19	330	11.21	329	1.4	99	1.2	321	0	997.8	NA	0.0000		9999	2790	0	0	0
2019/10/16 19:20:00	BASE	10.16	330	11.21	329	1.4	98	1.2	313	0	997.8	NA	0.0000		9999	2890	0	0	0
2019/10/16 19:21:00	BASE	10.14	330	11.21	329	1.5	98	1.2	301	0	997.7	NA	0.0000		9999	2890	19690	0	0
2019/10/16 19:22:00	BASE	10.28	329	11.21	329	1.4	98	1.2	284	0	997.7	NA	0.0000		9999	3050	0	0	0
2019/10/16 19:23:00	BASE	9.85	329	11.21	329	1.4	98	1.1	279	0	997.7	NA	0.0000		9999	2890	0	0	0
2019/10/16 19:24:00	BASE	9.73	329	11.21	329	1.4	98	1.1	278	0	997.7	NA	0.0000		9999	3020	0	0	0
2019/10/16 19:25:00	BASE	10.58	327	12.35	327	1.4	98	1.1	276	0	997.6	NA	0.0000		9999	2950	0	0	0
2019/10/16 19:26:00	BASE	11.55	326	12.40	326	1.4	98	1.1	277	0	997.6	NA	0.0000		9999	2920	0	0	0
2019/10/16 19:27:00	BASE	11.23	326	12.40	326	1.4	98	1.1	276	0	997.6	NA	0.0000		9999	2920	0	0	0
2019/10/16 19:28:00	BASE	10.13	326	12.40	326	1.4	98	1.1	274	0	997.6	NA	0.0000		9999	2920	0	0	0
2019/10/16 19:29:00	BASE	9.92	324	12.40	326	1.4	98	1.2	269	0	997.6	NA	0.0000		9999	3020	0	0	0
2019/10/16 19:30:00	BASE	9.94	321	12.40	326	1.5	98	1.1	274	0	997.6	NA	0.0000		9999	3050	0	0	0
2019/10/16 19:31:00	BASE	10.15	321	12.40	326	1.5	98	1.1	274	0	997.6	NA	0.0000		9999	3020	0	0	0
2019/10/16 19:32:00	BASE	10.45	325	12.40	326	1.4	97	1.1	272	0	997.6	NA	0.0000		9999	2990	0	0	0
2019/10/16 19:33:00	BASE	9.73	324	12.40	326	1.4	97	1.0	271	0	997.6	NA	0.0000		9999	3080	0	0	0
2019/10/16 19:34:00	BASE	9.36	319	12.40	326	1.3	97	1.0	268	0	997.6	NA	0.0000		9999	3120	0	0	0
2019/10/16 19:35:00	BASE	9.60	316	12.40	326	1.3	98	0.9	264	0	997.5	NA	0.0000		9999	3150	0	0	0
2019/10/16 19:36:00	BASE	9.60	317	11.94	318	1.2	98	1.0	259	0	997.5	NA	0.0000		9999	0	0	0	0
2019/10/16 19:37:00	BASE	9.72	321	11.57	335	1.2	98	1.0	258	0	997.5	NA	0.0000		9999	16540	0	0	0
2019/10/16 19:38:00	BASE	9.43	325	12.19	332	1.3	99	1.1	263	0	997.4	NA	0.0000		9999	0	0	0	0
2019/10/16 19:39:00	BASE	8.15	320	12.19	332	1.3	99	1.1	263	0	997.5	NA	0.0000		9999	19000	19520	20570	0
2019/10/16 19:40:00	BASE	7.02	321	12.19	332	1.4	99	1.2	262	0	997.5	NA	0.0000		9999	0	0	0	0
2019/10/16 19:41:00	BASE	6.84	336	12.19	332	1.5	99	1.3	258	0	997.5	NA	0.0000		9999	0	0	0	0
2019/10/16 19:42:00	BASE	6.61	359	12.19	332	1.5	98	1.3	260	0	997.5	NA	0.0000		9999	3150	0	0	0
2019/10/16 19:43:00	BASE	6.00	7	12.19	332	1.5	98	1.3	266	0	997.5	NA	0.0000		9999	0	0	0	0
2019/10/16 19:44:00	BASE	6.06	355	12.19	332	1.5	98	1.2	266	0	997.5	NA	0.0000		9999	3080	20010	0	0
2019/10/16 19:45:00	BASE	6.17	349	12.19	332	1.5	97	1.1	264	0	997.5	NA	0.0000		9999	3150	0	0	0
2019/10/16 19:46:00	BASE	4.84	12	12.19	332	1.5	97	1.1	270	0	997.6	NA	0.0000		9999	0	0	0	0
2019/10/16 19:47:00	BASE	3.98	67	12.19	332	1.5	97	1.1	271	0	997.5	NA	0.0000		9999	0	0	0	0
2019/10/16 19:48:00	BASE	3.53	126	8.13	336	1.5	97	1.1	269	0	997.5	NA	0.0000		9999	20210	0	0	0
2019/10/16 19:49:00	BASE	3.32	144	8.13	336	1.6	98	1.2	265	0	997.5	NA	0.0000		9999	1970	21590	0	0
2019/10/16 19:50:00	BASE	4.30	144	8.13	336	1.6	98	1.3	276	0	997.5	NA	0.0000		9999	1570	20900	0	0
2019/10/16 19:51:00	BASE	6.66	130	9.41	115	1.6	98	1.3	277	0	997.4	NA	0.0000		9999	0	0	0	0
2019/10/16 19:52:00	BASE	7.75	120	9.41	115	1.6	98	1.3	279	0	997.5	NA	0.0000		9999	17850	0	0	0
2019/10/16 19:53:00	BASE	6.07	130	9.41	115	1.5	98	1.2	276	0	997.5	NA	0.0000		9999	0	0	0	0
2019/10/16 19:54:00	BASE	5.84	133	9.41	115	1.4	98	1.1	267	0	997.4	NA	0.0000		9999	1870	0	0	0
2019/10/16 19:55:00	BASE	7.43	121	9.41	115	1.3	98	1.0	266	0	997.4	NA	0.0000		9999	1840	0	0	0
2019/10/16 19:56:00	BASE	8.39	111	9.41	115	1.1	99	1.0	251	0	997.3	NA	0.0000		9999	1670	0	0	0
2019/10/16 19:57:00	BASE	8.57	110	9.72	110	1.0	99	1.0	241	0	997.2	NA	0.0000		9999	19100	0	0	0
2019/10/16 19:58:00	BASE	8.38	110	9.72	110	1.0	100	0.9	251	0	997.2	NA	0.0000		9999	20280	0	0	0
2019/10/16 19:59:00	BASE	8.23	105	9.72	110	0.9	100	0.9	244	0	997.2	NA	0.0000		9999	19420	0	0	0
2019/10/16 20:00:00	BASE	8.74	102	10.24	103	0.8	100	0.8	228	0	997.2	NA	0.0000		9999	0	0	0	0
2019/10/16 20:01:00	BASE	9.36	104	10.70	105	0.8	100	0.8	220	0	997.2	NA	0.0000		9999	19360	0	0	0
2019/10/16 20:02:00	BASE	9.61	102	10.70	105	0.7	100	0.7	224	0	997.2	NA	0.0000		9999	0	0	0	0
2019/10/16 20:03:00	BASE	9.74	103	11.47	112	0.7	100	0.7	237	0	997.1	NA	0.0000		9999	0	0	0	0
2019/10/16 20:04:00	BASE	11.17	110	13.38	114	0.7	100	0.7	246	0	997.1	NA	0.0000		9999	19460	0	0	0
2019/10/16 20:05:00	BASE	12.35	114	13.38	114	0.6	100	0.6	253	0	997.0	NA	0.0000		9999	0	0	0	0
2019/10/16 20:06:00	BASE	12.54	116	13.84	113	0.6	100	0.6	258	0	997.0	NA	0.0000		9999	1940	0	0	0
2019/10/16 20:07:00	BASE	12.91	112	14.15	108	0.6	100	0.6	268	0	997.0	NA	0.0000		9999	2100	0	0	0
2019/10/16 20:08:00	BASE	12.49	110	14.15	108	0.6	100	0.6	287	0	997.1	NA	0.0000		9999	2070	0	0	0
2019/10/16 20:09:00	BASE	12.21	114	14.15	108	0.6	100	0.6	311	0	997.0	NA	0.0000		9999	0	0	0	0
2019/10/16 20:10:00	BASE	12.73	116	14.15	108	0.6	100	0.6	303	0	997.0	NA	0.0000		9999	1770	0	0	0
2019/10/16 20:11:00	BASE	12.73	114	14.15	108	0.6	100	0.6	304	0	997.0	NA	0.0000		9999	1840	0	0	0
2019/10/16 20:12:00	BASE	12.65	114	14.15	108	0.6	100	0.6	285	0	996.9	NA	0.0000		9999	1740	0	0	0
2019/10/16 20:13:00	BASE	13.02	116	14.25	115	0.6	100	0.6	248	0	996.9	NA	0.0000		9999	1610	0	0	0
2019/10/16 20:14:00	BASE	13.02	118	14.25	115	0.6	100	0.6	228	0	996.8	NA	0.0000		9999	1870	0	0	0
2019/10/16 20:15:00	BASE	13.20	118	14.46	118	0.6	100	0.6	206	0	996.8	NA	0.0000		9999	1940	0	0	0
2019/10/16 20:16:00	BASE	13.27	118	14.46	118	0.6	100	0.6	194	0	996.8	NA	0.0000		9999	1710	0	0	0
2019/10/16 20:17:00	BASE	13.08	122	15.07	124	0.6	100	0.6	193	0	996.7	NA	0.0000		9999	1740	0	0	0
2019/10/16 20:18:00	BASE	12.96	124	15.07	124	0.5	100	0.5	189	0	996.7	NA	0.0000		9999	1770	0	0	0
2019/10/16 20:19:00	BASE	12.49	124	15.07	124	0.5	100	0.5	182	0	996.6	NA	0.0000		9999	1710	0	0	0
2019/10/16 20:20:00	BASE	12.53	116	15.07	124	0.5	100	0.5	177	0	996.6	NA	0.0000		9999	1900	0	0	0
2019/10/16 20:21:00	BASE	12.60	115	15.07	124	0.5	100	0.5	176	0	996.6	NA	0.0000		9999	0	0	0	0
2019/10/16 20:22:00	BASE	12.41	122	15.07	124	0.5	100	0.5	178	0	996.5	NA	0.0000		9999	0	0	0	0
2019/10/16 20:23:00	BASE	12.08	124	15.07	124	0.5	100	0.5	177	0	996.5	NA	0.0000		9999	0	0	0	0
2019/10/16 20:24:00	BASE	11.79	125	15.07	124	0.5	100	0.5	178	0	996.5	NA	0.0000		9999	2200	0	0	0
2019/10/16 20:25:00	BASE	11.94	126	15.07	124	0.5	100	0.5	172	0	996.5	NA	0.0000		9999	0	0	0	0
2019/10/16 20:26:00	BASE	11.93	120	15.07	124	0.5	100	0.5	173	0	996.5	NA	0.0000		9999	0	0	0	0
2019/10/16 20:27:00	BASE	11.59	114	14.15	108	0.5	100	0.5	179	0	996.6	NA	0.0000		9999	19780	0	0	0
2019/10/16 20:28:00	BASE	10.87	118	14.15	108	0.4	100	0.4	184	0	996.6	NA	0.0000		9999	2030	0	0	0
2019/10/16 20:29:00	BASE	10.31	122	14.15	108	0.4	100	0.4	178	0	996.6	NA	0.0000		9999	0	0	0	0
2019/10/16 20:30:00	BASE	10.26	124	13.43	127	0.4	100	0.4	174	0	996.5	NA	0.0000		9999	20800	0	0	0
2019/10/16 20:31:00	BASE	10.65	128	13.43	127	0.4	100	0.4	181	0	996.5	NA	0.0000		9999	0	0	0	0
2019/10/16 20:32:00	BASE	10.89	126	13.43	127	0.4	100	0.4	190	0	996.5	NA	0.0000		9999	0	0	0	0
2019/10/16 20:33:00	BASE	10.60	119	13.43	127	0.4	100	0.4	193	0	996.5	NA	0.0000		9999	0	0	0	0
2019/10/16 20:34:00	BASE	10.04	118	13.43	127	0.3	100	0.3	189	0	996.5	NA	0.0000		9999	0	0	0	0
2019/10/16 20:35:00	BASE	9.29	119	12.96	126	0.3	100	0.3	189	0	996.5	NA	0.0000		9999	1840	0	0	0
2019/10/16 20:36:00	BASE	8.68	123	12.24	130	0.3	100	0.3	176	0	996.5	NA	0.0000		9999	1940	0	0	0
2019/10/16 20:37:00	BASE	8.53	125	12.24	130	0.3	100	0.3	184	0	996.5	NA	0.0000		9999	20310	23030	0	0
2019/10/16 20:38:00	BASE	8.77	123	12.24	130	0.3	100	0.3	183	0	996.4	NA	0.0000		9999	0	0	0	0
2019/10/16 20:39:00	BASE	8.97	123	12.24	130	0.3	100	0.3	177	0	996.4	NA	0.0000		9999	0	0	0	0
2019/10/16 20:40:00	BASE	9.02	125	12.24	130	0.3	100	0.3	168	0	996.4	NA	0.0000		9999	0	0	0	0
2019/10/16 20:41:00	BASE	8.83	125	11.32	123	0.3	100	0.3	159	0	996.4	NA	0.0000		9999	1940	0	0	0
2019/10/16 20:42:00	BASE	8.37	122	10.85	118	0.3	100	0.3	152	0	996.4	NA	0.0000		9999	1900	0	0	0
2019/10/16 20:43:00	BASE	7.80	118	10.19	122	0.2	100	0.2	149	0	996.5	NA	0.0000		9999	1870	0	0	0
2019/10/16 20:44:00	BASE	7.38	116	9.93	125	0.2	100	0.2	152	0	996.5	NA	0.0000		9999	2360	0	0	0
2019/10/16 20:45:00	BASE	7.04	118	9.93	125	0.2	100	0.2	153	0	996.5	NA	0.0000		9999	1670	0	0	0
2019/10/16 20:46:00	BASE	7.31	119	9.93	125	0.2	100	0.2	151	0	996.5	NA	0.0000		9999	1740	0	0	0
2019/10/16 20:47:00	BASE	7.72	120	9.52	122	0.2	100	0.2	148	0	996.4	NA	0.0000		9999	1900	0	0	0
2019/10/16 20:48:00	BASE	7.82	119	9.52	122	0.2	100	0.2	147	0	996.4	NA	0.0000		9999	1970	0	0	0
2019/10/16 20:49:00	BASE	8.42	116	9.47	130	0.2	100	0.2	148	0	996.4	NA	0.0000		9999	1770	0	0	0
2019/10/16 20:50:00	BASE	8.91	117	9.98	120	0.2	100	0.2	147	0	996.3	NA	0.0000		9999	1840	2490	0	0
2019/10/16 20:51:00	BASE	9.18	120	9.98	120	0.2	100	0.2	146	0	996.3	NA	0.0000		9999	17520	0	0	0
2019/10/16 20:52:00	BASE	9.09	124	9.98	120	0.2	100	0.2	147	0	996.2	NA	0.0000		9999	0	0	0	0
2019/10/16 20:53:00	BASE	8.53	124	9.98	120	0.2	100	0.2	149	0	996.2	NA	0.0000		9999	0	0	0	0
2019/10/16 20:54:00	BASE	8.91	124	11.01	128	0.2	100	0.2	149	0	996.1	NA	0.0000		9999	0	0	0	0
2019/10/16 20:55:00	BASE	9.02	125	11.01	128	0.2	100	0.2	146	0	996.1	NA	0.0000		9999	0	0	0	0
2019/10/16 20:56:00	BASE	8.52	122	11.01	128	0.2	100	0.2	146	0	996.1	NA	0.0000		9999	0	0	0	0
2019/10/16 20:57:00	BASE	8.63	117	11.01	128	0.2	100	0.2	146	0	996.0	NA	0.0000		9999	0	0	0	0
2019/10/16 20:58:00	BASE	9.11	116	11.01	128	0.2	100	0.2	149	0	996.0	NA	0.0000		9999	0	0	0	0
2019/10/16 20:59:00	BASE	9.12	119	11.01	128	0.2	100	0.2	147	0	996.0	NA	0.0000		9999	0	0	0	0
2019/10/16 21:00:00	BASE	8.51	117	11.01	128	0.2	100	0.2	151	0	996.0	NA	0.0000		9999	0	0	0	0
2019/10/16 21:01:00	BASE	8.24	118	11.01	128	0.2	100	0.2	156	0	996.0	NA	0.0000		9999	0	0	0	0
2019/10/16 21:02:00	BASE	7.85	124	11.01	128	0.2	100	0.2	158	0	996.0	NA	0.0000		9999	0	0	0	0
2019/10/16 21:03:00	BASE	7.08	125	11.01	128	0.2	100	0.2	151	0	996.0	NA	0.0000		9999	0	0	0	0
2019/10/16 21:04:00	BASE	6.66	125	10.19	115	0.2	100	0.2	144	0	996.0	NA	0.0000		9999	0	0	0	0
2019/10/16 21:05:00	BASE	6.21	126	10.19	115	0.2	100	0.2	143	0	996.1	NA	0.0000		9999	0	0	0	0
2019/10/16 21:06:00	BASE	5.42	126	10.19	115	0.2	100	0.2	141	0	996.1	NA	0.0000		9999	0	0	0	0
2019/10/16 21:07:00	BASE	4.72	125	10.19	115	0.2	100	0.2	141	0	996.3	NA	0.0000		9999	0	0	0	0
2019/10/16 21:08:00	BASE	3.95	127	9.31	117	0.1	100	0.1	141	0	996.3	NA	0.0000		9999	1900	0	0	0
2019/10/16 21:09:00	BASE	3.07	120	8.85	120	0.1	100	0.1	140	0	996.3	NA	0.0000		9999	1840	0	0	0
2019/10/16 21:10:00	BASE	2.45	106	8.75	126	0.1	100	0.1	137	0	996.3	NA	0.0000		9999	1840	0	0	0
2019/10/16 21:11:00	BASE	2.20	102	8.13	127	0.1	100	0.1	131	0	996.3	NA	0.0000		9999	1670	0	0	0
2019/10/16 21:12:00	BASE	1.94	97	7.46	127	0.1	100	0.1	125	0	996.3	NA	0.0000		9999	1640	0	0	0
2019/10/16 21:13:00	BASE	1.77	78	7.15	128	0.1	100	0.1	121	0	996.3	NA	0.0000		9999	0	0	0	0
2019/10/16 21:14:00	BASE	1.47	57	6.58	127	0.1	100	0.1	119	0	996.3	NA	0.0000		9999	0	0	0	0
2019/10/16 21:15:00	BASE	1.36	68	6.17	125	0.1	100	0.1	117	0	996.3	NA	0.0000		9999	0	0	0	0
2019/10/16 21:16:00	BASE	0.92	94	5.09	131	0.1	100	0.1	115	0	996.4	NA	0.0000		9999	18110	0	0	0
2019/10/16 21:17:00	BASE	0.28	121	4.17	134	0.1	100	0.1	113	0	996.4	NA	0.0000		9999	0	0	0	0
2019/10/16 21:18:00	BASE	0.13	137	3.04	108	0.1	100	0.1	110	0	996.5	NA	0.0000		9999	0	0	0	0
2019/10/16 21:19:00	BASE	0.00	139	2.93	89	0.1	100	0.1	106	0	996.5	NA	0.0000		9999	17780	0	0	0
2019/10/16 21:20:00	BASE	0.33	84	2.52	354	0.1	100	0.1	103	0	996.5	NA	0.0000		9999	0	0	0	0
2019/10/16 21:21:00	BASE	1.69	2	2.83	3	0.1	100	0.1	100	0	996.5	NA	0.0000		9999	0	0	0	0
2019/10/16 21:22:00	BASE	2.81	1	3.19	5	0.1	100	0.1	96	0	996.5	NA	0.0000		9999	0	0	0	0
2019/10/16 21:23:00	BASE	2.46	14	3.19	5	0.1	100	0.1	94	0	996.4	NA	0.0000		9999	0	0	0	0
2019/10/16 21:24:00	BASE	1.37	30	3.19	5	0.1	100	0.1	92	0	996.4	NA	0.0000		9999	0	0	0	0
2019/10/16 21:25:00	BASE	0.36	60	3.19	5	0.1	100	0.1	90	0	996.4	NA	0.0000		9999	18500	0	0	0
2019/10/16 21:26:00	BASE	0.00	87	3.19	5	0.1	100	0.1	89	0	996.4	NA	0.0000		9999	0	0	0	0
2019/10/16 21:27:00	BASE	0.00	84	3.19	5	0.1	100	0.1	88	0	996.4	NA	0.0000		9999	3220	0	0	0
2019/10/16 21:28:00	BASE	0.00	62	3.19	5	0.1	100	0.1	87	0	996.4	NA	0.0000		9999	2920	0	0	0
2019/10/16 21:29:01	BASE	0.04	18	3.19	5	0.1	100	0.1	86	0	996.4	NA	0.0000		9999	2850	0	0	0
2019/10/16 21:30:01	BASE	0.55	348	3.19	5	0.1	100	0.1	87	0	996.3	NA	0.0000		9999	2660	0	0	0
2019/10/16 21:31:01	BASE	1.21	337	3.19	5	0.1	100	0.1	86	0	995.7	NA	0.0000		9999	2720	0	0	0
2019/10/16 21:32:01	BASE	1.53	327	2.42	15	0.1	100	0.1	86	0	996.4	NA	0.0000		9999	2400	0	0	0
2019/10/16 21:33:01	BASE	2.05	304	2.68	282	0.1	100	0.1	86	0	996.4	NA	0.0000		9999	2300	24210	0	0
2019/10/16 21:34:01	BASE	2.46	280	2.73	270	0.1	100	0.1	86	0	996.4	NA	0.0000		9999	2430	0	0	0
2019/10/16 21:35:01	BASE	2.52	268	3.55	256	0.1	100	0.1	83	0	996.4	NA	0.0000		9999	2850	0	0	0
2019/10/16 21:36:01	BASE	3.45	268	5.61	274	0.1	100	0.1	81	0	996.3	NA	0.0000		9999	2620	0	0	0
2019/10/16 21:37:01	BASE	4.21	275	5.61	274	0.1	100	0.1	79	0	996.4	NA	0.0000		9999	590	2850	0	0
2019/10/16 21:38:01	BASE	4.13	278	5.61	274	0.1	100	0.1	76	0	996.3	NA	0.0000		9999	2460	0	0	0
2019/10/16 21:39:01	BASE	4.51	279	5.86	281	0.1	100	0.1	74	0	996.3	NA	0.0000		9999	2330	0	0	0
2019/10/16 21:40:01	BASE	4.69	275	5.86	281	0.0	100	0.0	71	0	996.3	NA	0.0000		9999	520	2400	0	0
2019/10/16 21:41:00	BASE	4.41	269	5.86	281	0.0	100	0.0	68	0	996.3	NA	0.0000		9999	590	2300	0	0
2019/10/16 21:42:00	BASE	4.32	273	5.86	281	0.0	100	0.0	66	0	996.4	NA	0.0000		9999	660	2200	0	0
2019/10/16 21:43:00	BASE	3.97	277	5.86	281	0.0	100	0.0	65	0	996.4	NA	0.0000		9999	2070	0	0	0
2019/10/16 21:44:00	BASE	2.97	276	5.86	281	0.0	100	0.0	64	0	996.4	NA	0.0000		9999	1510	2030	0	0
2019/10/16 21:45:00	BASE	2.23	267	5.86	281	0.0	100	0.0	61	0	996.4	NA	0.0000		9999	1350	1970	0	0
2019/10/16 21:46:00	BASE	2.09	263	5.86	281	0.0	100	0.0	59	0	996.4	NA	0.0000		9999	980	0	0	0
2019/10/16 21:47:00	BASE	2.67	265	5.86	281	0.0	100	0.0	56	0	996.4	NA	0.0000		9999	1150	1900	0	0
2019/10/16 21:48:00	BASE	3.70	279	5.86	281	0.0	100	0.0	55	0	996.4	NA	0.0000		9999	1770	0	0	0
2019/10/16 21:49:00	BASE	4.68	295	6.02	296	0.0	100	0.0	55	0	996.4	NA	0.0000		9999	1440	0	0	0
2019/10/16 21:50:00	BASE	5.07	302	6.02	296	0.0	100	0.0	56	0	996.4	NA	0.0000		9999	1280	0	0	0
2019/10/16 21:51:00	BASE	4.34	304	6.02	296	0.0	100	0.0	58	0	996.4	NA	0.0000		9999	1120	2030	0	0
2019/10/16 21:52:00	BASE	2.97	293	6.02	296	0.0	100	0.0	60	0	996.4	NA	0.0000		9999	2030	0	0	0
2019/10/16 21:53:00	BASE	1.92	288	6.02	296	0.0	100	0.0	61	0	996.4	NA	0.0000		9999	1670	2260	0	0
2019/10/16 21:54:00	BASE	1.59	300	6.02	296	0.0	100	0.0	59	0	996.4	NA	0.0000		9999	1870	0	0	0
2019/10/16 21:55:00	BASE	1.71	329	6.02	296	0.0	100	0.0	58	0	996.4	NA	0.0000		9999	1710	0	0	0
2019/10/16 21:56:00	BASE	2.23	12	6.02	296	0.0	100	0.0	58	0	996.4	NA	0.0000		9999	1280	0	0	0
2019/10/16 21:57:00	BASE	2.80	55	6.02	296	0.0	100	0.0	59	0	996.3	NA	0.0000		9999	1440	0	0	0
2019/10/16 21:58:00	BASE	3.65	86	6.02	296	0.1	100	0.1	59	0	996.3	NA	0.0000		9999	1380	0	0	0
2019/10/16 21:59:00	BASE	5.03	83	7.46	77	0.1	100	0.1	58	0	995.9	NA	0.0000		9999	1150	0	0	0
2019/10/16 22:00:00	BASE	6.26	73	7.46	77	0.1	100	0.1	58	0	996.1	NA	0.0000		9999	1180	0	0	0
2019/10/16 22:01:00	BASE	6.07	67	7.56	65	0.1	100	0.1	57	0	996.1	NA	0.0000	UP	9000	890	0	0	0
2019/10/16 22:02:00	BASE	6.65	65	9.98	58	0.1	100	0.1	58	0	996.1	NA	0.0000	UP	9999	1050	0	0	0
2019/10/16 22:03:00	BASE	6.81	53	9.98	58	0.1	100	0.1	58	0	996.1	NA	0.0000	UP	9999	1410	0	0	0
2019/10/16 22:06:26	BASE	M	M	M	M	0.1	100	0.1	M	M	M	NA	0.0000		M	M	M	M	M
2019/10/16 22:07:00	BASE	M	M	M	M	0.1	100	0.1	59	0	996.0	NA	0.0000		9999	890	0	0	0
2019/10/16 22:08:01	BASE	12.38	350	M	M	0.1	100	0.1	58	0	995.7	NA	0.0000		9999	1120	0	0	0
2019/10/16 22:09:00	BASE	11.35	352	M	M	0.1	100	0.1	57	0	995.8	NA	0.0000		9999	1120	0	0	0
2019/10/16 22:10:00	BASE	9.19	4	M	M	0.1	100	0.1	57	0	995.8	NA	0.0000		9999	1120	0	0	0
2019/10/16 22:11:00	BASE	6.55	13	M	M	-0.0	100	-0.0	55	0	995.9	NA	0.0000		9999	1150	0	0	0
2019/10/16 22:12:00	BASE	3.30	39	M	M	-0.0	100	-0.0	53	0	995.8	NA	0.0000		9999	1150	0	0	0
2019/10/16 22:13:00	BASE	2.78	15	M	M	0.0	100	0.0	53	0	995.7	NA	0.0000		9999	1180	0	0	0
2019/10/16 22:14:00	BASE	1.39	321	19.91	343	0.0	100	0.0	53	0	995.7	NA	0.0000		9999	1250	0	0	0
2019/10/16 22:16:00	BASE	M	M	19.91	343	0.1	100	0.1	54	0	M	NA	0.0000		9999	1210	0	0	0
2019/10/16 22:17:01	BASE	1.90	339	19.91	343	0.1	100	0.1	54	0	995.6	NA	0.0000		9999	1510	0	0	0
2019/10/16 22:18:00	BASE	2.18	335	15.64	7	0.1	100	0.1	55	0	995.5	NA	0.0000		9999	1480	0	0	0
2019/10/16 22:19:00	BASE	2.21	319	15.64	7	0.1	100	0.1	56	0	995.5	NA	0.0000		9999	1440	0	0	0
2019/10/16 22:20:00	BASE	2.30	276	13.48	346	0.2	100	0.2	55	0	995.5	NA	0.0000		9999	1410	0	0	0
2019/10/16 22:21:01	BASE	2.67	235	13.48	346	0.2	100	0.2	53	0	995.4	NA	0.0000		9999	1570	0	0	0
2019/10/16 22:22:00	BASE	3.52	208	13.48	346	0.2	100	0.2	52	0	995.4	NA	0.0000		9999	1410	0	0	0
2019/10/16 22:23:00	BASE	3.88	208	13.48	346	0.2	100	0.2	50	0	995.4	NA	0.0000		9999	1280	0	0	0
2019/10/16 22:24:00	BASE	2.93	203	13.48	346	0.2	100	0.2	48	0	995.4	NA	0.0000		9999	1480	0	0	0
2019/10/16 22:25:00	BASE	2.68	116	4.94	215	0.1	100	0.1	44	0	995.4	NA	0.0000		9999	1480	0	0	0
2019/10/16 22:26:01	BASE	3.63	52	4.94	215	0.2	100	0.2	43	0	995.4	NA	0.0000		9999	1540	0	0	0
2019/10/16 22:27:00	BASE	3.51	45	4.94	215	0.2	100	0.2	42	0	995.4	NA	0.0000		9999	1540	0	0	0
2019/10/16 22:28:00	BASE	2.46	9	4.94	215	0.2	100	0.2	41	0	995.3	NA	0.0000		9999	0	0	0	0
2019/10/16 22:31:00	BASE	M	M	11.99	335	0.2	100	0.2	38	0	995.3	NA	0.0000		9999	1510	0	0	0
2019/10/16 22:32:00	BASE	4.13	187	11.99	335	0.2	100	0.2	36	0	995.3	NA	0.0000		9999	1840	0	0	0
2019/10/16 22:33:00	BASE	3.77	198	11.99	335	0.3	100	0.3	36	0	995.4	NA	0.0000		9999	1800	0	0	0
2019/10/16 22:34:00	BASE	4.95	201	11.99	335	0.3	100	0.3	36	0	995.4	NA	0.0000		9999	1900	0	0	0
2019/10/16 22:35:00	BASE	4.78	211	11.99	335	0.4	100	0.4	35	0	995.5	NA	0.0000		9999	1900	0	0	0
2019/10/16 22:36:00	BASE	4.04	221	11.99	335	0.4	100	0.4	35	0	995.5	NA	0.0000		9999	1740	0	0	0
2019/10/16 22:37:00	BASE	3.35	168	11.99	335	0.4	100	0.4	34	0	995.5	NA	0.0000		9999	1870	0	0	0
2019/10/16 22:38:00	BASE	1.76	132	11.99	335	0.5	100	0.5	32	0	995.5	NA	0.0000		9999	1900	0	0	0
2019/10/16 22:39:00	BASE	1.70	177	7.72	186	0.5	100	0.5	32	0	995.5	NA	0.0000		9999	2000	0	0	0
2019/10/16 22:40:01	BASE	3.69	185	7.72	186	0.5	100	0.5	30	0	995.5	NA	0.0000		9999	1940	2890	0	0
2019/10/16 22:41:00	BASE	4.26	197	7.72	186	0.5	100	0.5	29	0	995.5	NA	0.0000		9999	1970	0	0	0
2019/10/16 22:42:00	BASE	3.80	199	7.72	186	0.5	100	0.5	28	0	995.5	NA	0.0000		9999	1900	0	0	0
2019/10/16 22:43:00	BASE	3.32	188	7.72	186	0.5	100	0.5	28	0	995.5	NA	0.0000		9999	1800	0	0	0
2019/10/16 22:44:00	BASE	2.70	175	5.45	185	0.4	100	0.4	27	0	995.4	NA	0.0000		9999	1840	0	0	0
2019/10/16 22:45:00	BASE	3.13	161	5.45	185	0.5	100	0.5	27	0	995.4	NA	0.0000		9999	1970	0	0	0
2019/10/16 22:46:00	BASE	3.93	150	5.45	185	0.5	100	0.5	25	0	995.4	NA	0.0000		9999	1900	0	0	0
2019/10/16 22:47:00	BASE	3.89	149	5.45	185	0.6	100	0.6	24	0	995.4	NA	0.0000		9999	1800	0	0	0
2019/10/16 22:48:00	BASE	3.01	127	5.45	185	0.7	100	0.7	23	0	995.4	NA	0.0000		9999	1800	0	0	0
2019/10/16 22:49:00	BASE	2.58	108	5.45	185	0.7	100	0.7	22	0	995.4	NA	0.0000		9999	1870	0	0	0
2019/10/16 22:50:00	BASE	3.36	136	5.09	137	0.8	99	0.7	21	0	995.3	NA	0.0000		9999	2070	0	0	0
2019/10/16 22:51:00	BASE	3.83	153	5.09	137	0.9	98	0.6	20	0	995.3	NA	0.0000		9999	12730	0	0	0
2019/10/16 22:52:00	BASE	3.46	160	5.09	137	0.9	97	0.5	18	0	995.3	NA	0.0000		9999	2170	12760	0	0
2019/10/16 22:53:00	BASE	4.17	162	5.35	166	1.0	96	0.4	17	0	995.4	NA	0.0000		9999	2030	0	0	0
2019/10/16 22:54:00	BASE	4.87	152	5.45	145	1.0	95	0.2	16	0	995.4	NA	0.0000		9999	2100	0	0	0
2019/10/16 22:55:00	BASE	4.18	148	5.45	145	0.9	94	0.1	15	0	995.4	NA	0.0000		9999	2260	0	0	0
2019/10/16 22:56:00	BASE	2.99	148	5.45	145	0.9	93	-0.1	15	0	995.4	NA	0.0000		9999	2260	0	0	0
2019/10/16 22:57:00	BASE	2.69	156	5.45	145	0.8	94	-0.1	14	0	995.4	NA	0.0000		9999	2200	0	0	0
2019/10/16 22:58:00	BASE	2.03	180	5.45	145	0.7	94	-0.1	13	0	995.4	NA	0.0000		9999	2100	0	0	0
2019/10/16 22:59:00	BASE	0.58	209	5.45	145	0.6	95	-0.1	12	0	995.4	NA	0.0000		9999	2170	0	0	0
2019/10/16 23:00:00	BASE	0.00	184	5.45	145	0.6	96	0.0	12	0	995.4	NA	0.0000		9999	2300	11980	0	0
2019/10/16 23:01:00	BASE	0.62	123	5.45	145	0.5	97	0.1	11	0	995.4	NA	0.0000		9999	2300	11780	0	0
2019/10/16 23:02:00	BASE	1.53	114	5.45	145	0.5	98	0.2	11	0	995.3	NA	0.0000		9999	2460	12430	0	0
2019/10/16 23:03:00	BASE	1.73	116	5.45	145	0.4	99	0.3	10	0	995.3	NA	0.0000		9999	2260	0	0	0
2019/10/16 23:04:00	BASE	1.43	126	4.58	161	0.4	99	0.3	10	0	995.2	NA	0.0000		9999	2260	12570	0	0
2019/10/16 23:05:00	BASE	0.70	140	3.55	162	0.4	100	0.3	9	0	995.1	NA	0.0000		9999	12400	13480	0	0
2019/10/16 23:06:00	BASE	1.09	126	4.06	95	0.4	100	0.4	9	0	995.1	NA	0.0000		9999	10470	0	0	0
2019/10/16 23:07:00	BASE	1.98	104	4.06	95	0.4	100	0.4	8	0	995.0	NA	0.0000		9999	2230	12990	13850	0
2019/10/16 23:08:00	BASE	2.79	114	5.71	121	0.5	100	0.5	8	0	994.9	NA	0.0000		9999	12760	0	0	0
2019/10/16 23:09:00	BASE	6.00	123	11.42	118	0.6	100	0.6	8	0	994.9	NA	0.0000		9999	2530	13420	0	0
2019/10/16 23:10:00	BASE	8.66	124	11.42	118	0.6	100	0.5	8	0	994.8	NA	0.0000		9999	11810	0	0	0
2019/10/16 23:11:00	BASE	9.73	126	11.47	124	0.6	100	0.5	7	0	994.8	NA	0.0000		9999	11550	0	0	0
2019/10/16 23:12:00	BASE	10.32	124	11.47	124	0.5	100	0.4	7	0	994.8	NA	0.0000		9999	12830	0	0	0
2019/10/16 23:13:00	BASE	9.82	128	11.47	124	0.3	100	0.3	7	0	994.8	NA	0.0000		9999	12400	0	0	0
2019/10/16 23:14:00	BASE	8.99	131	11.47	124	0.2	100	0.2	6	0	994.9	NA	0.0000		9999	12700	0	0	0
2019/10/16 23:15:00	BASE	8.59	130	11.47	124	0.1	100	0.1	6	0	994.9	NA	0.0000		9999	12500	0	0	0
2019/10/16 23:16:00	BASE	9.19	128	11.47	124	0.0	100	0.0	6	0	994.8	NA	0.0000		9999	12660	0	0	0
2019/10/16 23:17:00	BASE	10.27	127	12.30	124	-0.0	100	-0.0	5	0	994.9	NA	0.0000		9999	12470	0	0	0
2019/10/16 23:18:00	BASE	10.00	125	12.30	124	-0.1	100	-0.1	5	0	994.9	NA	0.0000		9999	12600	0	0	0
2019/10/16 23:19:00	BASE	8.92	125	12.30	124	-0.1	100	-0.1	4	0	994.9	NA	0.0000		9999	13810	0	0	0
2019/10/16 23:20:00	BASE	8.94	125	12.30	124	-0.2	100	-0.2	4	0	994.9	NA	0.0000		9999	13160	0	0	0
2019/10/16 23:21:00	BASE	10.13	126	12.30	124	-0.2	100	-0.2	4	0	994.9	NA	0.0000		9999	13450	0	0	0
2019/10/16 23:22:00	BASE	10.70	126	12.30	124	-0.2	100	-0.2	4	0	994.8	NA	0.0000		9999	13780	0	0	0
2019/10/16 23:23:00	BASE	9.73	126	12.30	124	-0.3	100	-0.3	3	0	994.8	NA	0.0000		9999	0	0	0	0
2019/10/16 23:24:00	BASE	8.66	126	12.30	124	-0.3	100	-0.3	3	0	994.8	NA	0.0000		9999	0	0	0	0
2019/10/16 23:25:00	BASE	8.56	122	12.30	124	-0.3	100	-0.3	3	0	994.8	NA	0.0000		9999	0	0	0	0
2019/10/16 23:26:00	BASE	8.67	117	12.30	124	-0.3	100	-0.3	3	0	994.8	NA	0.0000		9999	0	0	0	0
2019/10/16 23:27:00	BASE	8.67	115	11.78	127	-0.3	100	-0.3	2	0	994.7	NA	0.0000		9999	14760	0	0	0
2019/10/16 23:28:00	BASE	8.80	117	11.78	127	-0.3	100	-0.3	2	0	994.7	NA	0.0000		9999	14630	0	0	0
2019/10/16 23:29:00	BASE	8.47	119	11.78	127	-0.4	100	-0.4	2	0	994.7	NA	0.0000		9999	14730	0	0	0
2019/10/16 23:30:00	BASE	8.11	122	11.78	127	-0.4	100	-0.4	2	0	994.7	NA	0.0000		9999	14630	0	0	0
2019/10/16 23:31:00	BASE	7.71	124	10.75	124	-0.4	100	-0.4	2	0	994.8	NA	0.0000		9999	15030	0	0	0
2019/10/16 23:32:00	BASE	7.23	125	9.67	118	-0.3	100	-0.3	1	0	994.8	NA	0.0000		9999	15750	0	0	0
2019/10/16 23:33:00	BASE	6.62	126	9.67	118	-0.3	100	-0.3	1	0	994.9	NA	0.0000		9999	15360	0	0	0
2019/10/16 23:34:00	BASE	6.27	125	9.67	118	-0.3	100	-0.3	1	0	994.9	NA	0.0000		9999	2300	0	0	0
2019/10/16 23:35:00	BASE	6.48	121	9.67	118	-0.3	100	-0.3	1	0	994.9	NA	0.0000		9999	0	0	0	0
2019/10/16 23:36:00	BASE	6.74	118	9.67	118	-0.3	100	-0.3	1	0	994.9	NA	0.0000		9999	2560	0	0	0
2019/10/16 23:37:00	BASE	6.48	119	9.41	118	-0.3	100	-0.3	1	0	994.9	NA	0.0000		9999	2560	0	0	0
2019/10/16 23:38:00	BASE	5.75	124	8.64	118	-0.3	100	-0.3	1	0	994.9	NA	0.0000		9999	2530	0	0	0
2019/10/16 23:39:00	BASE	5.31	123	8.54	126	-0.3	100	-0.3	1	0	994.8	NA	0.0000		9999	2690	0	0	0
2019/10/16 23:40:00	BASE	5.32	118	8.54	126	-0.3	100	-0.3	1	0	994.8	NA	0.0000		9999	2690	0	0	0
2019/10/16 23:41:00	BASE	5.48	115	7.61	126	-0.3	100	-0.3	1	0	994.8	NA	0.0000		9999	2620	0	0	0
2019/10/16 23:42:00	BASE	5.26	110	7.20	115	-0.3	100	-0.3	1	0	994.8	NA	0.0000		9999	2590	0	0	0
2019/10/16 23:43:00	BASE	4.68	103	7.20	115	-0.3	100	-0.3	1	0	994.8	NA	0.0000		9999	2490	0	0	0
2019/10/16 23:44:00	BASE	4.05	103	7.20	115	-0.3	100	-0.3	1	0	994.7	NA	0.0000		9999	2530	0	0	0
2019/10/16 23:45:00	BASE	3.49	104	7.20	115	-0.3	100	-0.3	0	0	994.7	NA	0.0000		9999	11980	0	0	0
2019/10/16 23:46:00	BASE	3.08	99	6.64	124	-0.3	100	-0.4	0	0	994.7	NA	0.0000		9999	11810	0	0	0
2019/10/16 23:47:00	BASE	2.79	94	6.02	112	-0.4	100	-0.4	0	0	994.7	NA	0.0000		9999	11810	0	0	0
2019/10/16 23:48:00	BASE	2.38	91	6.02	112	-0.4	100	-0.4	0	0	994.6	NA	0.0000		9999	11610	0	0	0
2019/10/16 23:49:00	BASE	1.70	94	6.02	112	-0.4	100	-0.4	0	0	994.6	NA	0.0000		9999	11580	0	0	0
2019/10/16 23:50:00	BASE	1.17	101	6.02	112	-0.4	100	-0.4	0	0	994.6	NA	0.0000		9999	11520	0	0	0
2019/10/16 23:51:00	BASE	1.44	104	5.45	111	-0.3	100	-0.3	0	0	994.7	NA	0.0000		9999	11390	0	0	0
2019/10/16 23:52:00	BASE	1.94	97	4.73	98	-0.3	100	-0.3	0	0	994.7	NA	0.0000		9999	11390	0	0	0
2019/10/16 23:53:00	BASE	1.74	85	4.27	105	-0.3	100	-0.3	0	0	994.7	NA	0.0000		9999	11450	0	0	0
2019/10/16 23:54:00	BASE	0.92	79	3.55	103	-0.3	100	-0.3	0	0	994.6	NA	0.0000		9999	11550	0	0	0
2019/10/16 23:55:00	BASE	0.15	85	3.09	97	-0.3	100	-0.3	0	0	994.6	NA	0.0000		9999	11320	0	0	0
2019/10/16 23:56:00	BASE	0.00	90	2.98	90	-0.3	100	-0.3	0	0	994.5	NA	0.0000		9999	10990	0	0	0
2019/10/16 23:57:00	BASE	0.00	90	2.31	89	-0.2	100	-0.2	0	0	994.5	NA	0.0000		9999	10830	0	0	0
2019/10/16 23:58:00	BASE	0.00	94	2.16	103	-0.2	100	-0.2	0	0	994.4	NA	0.0000		9999	11680	0	0	0
2019/10/16 23:59:00	BASE	0.13	106	2.16	103	-0.2	100	-0.2	0	0	994.4	NA	0.0000		9999	11160	0	0	0